<?xml version="1.0" encoding="UTF-8" standalone="no" ?>
<gpx xmlns="http://www.topografix.com/GPX/1/1" xmlns:xsi="http://www.w3.org/2001/XMLSchema-instance" xsi:schemaLocation="http://www.topografix.com/GPX/1/1 http://www.topografix.com/GPX/1/1/gpx.xsd" version="1.1" creator="VisuGPX - https://www.visugpx.com">
  <metadata>
    <name>rando dans le cirque de Cilaos</name>
    <desc><![CDATA[Départ de la rando au Pavillon, à l\'entrée du cirque cilaos, sentier burel puis sentier du reposoir jusqu\'a ilet à cordes, ensuite sentier de la chapelle jusqu\'a cilaos.]]></desc>
  </metadata>
  <trk>
    <name><![CDATA[sentier burel-ilet à corde-cilaos]]></name>
    <cmt><![CDATA[retour bus (1,5€) jusqu'au départ sentier Burel]]></cmt>
    <trkseg>
      <trkpt lat="-21.18398" lon="55.45031">
        <ele>585</ele>
        <time>2013-01-28T02:48:22Z</time>
      </trkpt>
      <trkpt lat="-21.18399" lon="55.45028">
        <ele>585</ele>
        <time>2013-01-28T02:48:32Z</time>
      </trkpt>
      <trkpt lat="-21.18396" lon="55.45031">
        <ele>585</ele>
        <time>2013-01-28T02:48:42Z</time>
      </trkpt>
      <trkpt lat="-21.18395" lon="55.45033">
        <ele>584</ele>
        <time>2013-01-28T02:48:52Z</time>
      </trkpt>
      <trkpt lat="-21.18397" lon="55.45031">
        <ele>583</ele>
        <time>2013-01-28T02:49:02Z</time>
      </trkpt>
      <trkpt lat="-21.18398" lon="55.45028">
        <ele>583</ele>
        <time>2013-01-28T02:49:12Z</time>
      </trkpt>
      <trkpt lat="-21.18401" lon="55.45021">
        <ele>582</ele>
        <time>2013-01-28T02:49:22Z</time>
      </trkpt>
      <trkpt lat="-21.18396" lon="55.45014">
        <ele>580</ele>
        <time>2013-01-28T02:49:32Z</time>
      </trkpt>
      <trkpt lat="-21.1839" lon="55.45004">
        <ele>578</ele>
        <time>2013-01-28T02:49:42Z</time>
      </trkpt>
      <trkpt lat="-21.18394" lon="55.45003">
        <ele>574</ele>
        <time>2013-01-28T02:49:52Z</time>
      </trkpt>
      <trkpt lat="-21.18395" lon="55.45002">
        <ele>571</ele>
        <time>2013-01-28T02:50:02Z</time>
      </trkpt>
      <trkpt lat="-21.18389" lon="55.44999">
        <ele>570</ele>
        <time>2013-01-28T02:50:12Z</time>
      </trkpt>
      <trkpt lat="-21.18386" lon="55.44994">
        <ele>570</ele>
        <time>2013-01-28T02:50:22Z</time>
      </trkpt>
      <trkpt lat="-21.18384" lon="55.4499">
        <ele>572</ele>
        <time>2013-01-28T02:50:32Z</time>
      </trkpt>
      <trkpt lat="-21.1839" lon="55.44992">
        <ele>573</ele>
        <time>2013-01-28T02:50:42Z</time>
      </trkpt>
      <trkpt lat="-21.18395" lon="55.44993">
        <ele>572</ele>
        <time>2013-01-28T02:50:52Z</time>
      </trkpt>
      <trkpt lat="-21.18405" lon="55.44998">
        <ele>572</ele>
        <time>2013-01-28T02:51:02Z</time>
      </trkpt>
      <trkpt lat="-21.18413" lon="55.45">
        <ele>573</ele>
        <time>2013-01-28T02:51:12Z</time>
      </trkpt>
      <trkpt lat="-21.18423" lon="55.44995">
        <ele>572</ele>
        <time>2013-01-28T02:51:22Z</time>
      </trkpt>
      <trkpt lat="-21.18433" lon="55.44989">
        <ele>573</ele>
        <time>2013-01-28T02:51:32Z</time>
      </trkpt>
      <trkpt lat="-21.18441" lon="55.44986">
        <ele>574</ele>
        <time>2013-01-28T02:51:43Z</time>
      </trkpt>
      <trkpt lat="-21.18449" lon="55.44982">
        <ele>574</ele>
        <time>2013-01-28T02:51:53Z</time>
      </trkpt>
      <trkpt lat="-21.18452" lon="55.44972">
        <ele>575</ele>
        <time>2013-01-28T02:52:03Z</time>
      </trkpt>
      <trkpt lat="-21.18459" lon="55.44962">
        <ele>575</ele>
        <time>2013-01-28T02:52:13Z</time>
      </trkpt>
      <trkpt lat="-21.18466" lon="55.44955">
        <ele>574</ele>
        <time>2013-01-28T02:52:23Z</time>
      </trkpt>
      <trkpt lat="-21.1847" lon="55.44942">
        <ele>572</ele>
        <time>2013-01-28T02:52:33Z</time>
      </trkpt>
      <trkpt lat="-21.18471" lon="55.44929">
        <ele>572</ele>
        <time>2013-01-28T02:52:43Z</time>
      </trkpt>
      <trkpt lat="-21.18476" lon="55.4492">
        <ele>570</ele>
        <time>2013-01-28T02:52:53Z</time>
      </trkpt>
      <trkpt lat="-21.18485" lon="55.44913">
        <ele>568</ele>
        <time>2013-01-28T02:53:03Z</time>
      </trkpt>
      <trkpt lat="-21.18482" lon="55.44903">
        <ele>567</ele>
        <time>2013-01-28T02:53:13Z</time>
      </trkpt>
      <trkpt lat="-21.18473" lon="55.44903">
        <ele>566</ele>
        <time>2013-01-28T02:53:23Z</time>
      </trkpt>
      <trkpt lat="-21.18463" lon="55.44902">
        <ele>567</ele>
        <time>2013-01-28T02:53:33Z</time>
      </trkpt>
      <trkpt lat="-21.18456" lon="55.44897">
        <ele>567</ele>
        <time>2013-01-28T02:53:43Z</time>
      </trkpt>
      <trkpt lat="-21.18443" lon="55.44897">
        <ele>566</ele>
        <time>2013-01-28T02:53:53Z</time>
      </trkpt>
      <trkpt lat="-21.18431" lon="55.44894">
        <ele>565</ele>
        <time>2013-01-28T02:54:03Z</time>
      </trkpt>
      <trkpt lat="-21.18423" lon="55.44889">
        <ele>565</ele>
        <time>2013-01-28T02:54:13Z</time>
      </trkpt>
      <trkpt lat="-21.18426" lon="55.44881">
        <ele>563</ele>
        <time>2013-01-28T02:54:23Z</time>
      </trkpt>
      <trkpt lat="-21.18421" lon="55.44877">
        <ele>563</ele>
        <time>2013-01-28T02:54:34Z</time>
      </trkpt>
      <trkpt lat="-21.18427" lon="55.44873">
        <ele>562</ele>
        <time>2013-01-28T02:54:44Z</time>
      </trkpt>
      <trkpt lat="-21.1843" lon="55.44861">
        <ele>563</ele>
        <time>2013-01-28T02:54:54Z</time>
      </trkpt>
      <trkpt lat="-21.18433" lon="55.44852">
        <ele>563</ele>
        <time>2013-01-28T02:55:04Z</time>
      </trkpt>
      <trkpt lat="-21.18429" lon="55.44843">
        <ele>564</ele>
        <time>2013-01-28T02:55:14Z</time>
      </trkpt>
      <trkpt lat="-21.18434" lon="55.44836">
        <ele>566</ele>
        <time>2013-01-28T02:55:24Z</time>
      </trkpt>
      <trkpt lat="-21.18436" lon="55.4483">
        <ele>569</ele>
        <time>2013-01-28T02:55:34Z</time>
      </trkpt>
      <trkpt lat="-21.18443" lon="55.44828">
        <ele>571</ele>
        <time>2013-01-28T02:55:44Z</time>
      </trkpt>
      <trkpt lat="-21.18448" lon="55.44821">
        <ele>574</ele>
        <time>2013-01-28T02:55:54Z</time>
      </trkpt>
      <trkpt lat="-21.18449" lon="55.44811">
        <ele>574</ele>
        <time>2013-01-28T02:56:04Z</time>
      </trkpt>
      <trkpt lat="-21.18448" lon="55.44798">
        <ele>574</ele>
        <time>2013-01-28T02:56:14Z</time>
      </trkpt>
      <trkpt lat="-21.18452" lon="55.44791">
        <ele>575</ele>
        <time>2013-01-28T02:56:24Z</time>
      </trkpt>
      <trkpt lat="-21.18454" lon="55.44788">
        <ele>577</ele>
        <time>2013-01-28T02:56:34Z</time>
      </trkpt>
      <trkpt lat="-21.18449" lon="55.44786">
        <ele>580</ele>
        <time>2013-01-28T02:56:44Z</time>
      </trkpt>
      <trkpt lat="-21.18448" lon="55.44783">
        <ele>582</ele>
        <time>2013-01-28T02:56:54Z</time>
      </trkpt>
      <trkpt lat="-21.18452" lon="55.4478">
        <ele>584</ele>
        <time>2013-01-28T02:57:04Z</time>
      </trkpt>
      <trkpt lat="-21.18453" lon="55.44776">
        <ele>587</ele>
        <time>2013-01-28T02:57:14Z</time>
      </trkpt>
      <trkpt lat="-21.18447" lon="55.44772">
        <ele>589</ele>
        <time>2013-01-28T02:57:24Z</time>
      </trkpt>
      <trkpt lat="-21.1844" lon="55.44771">
        <ele>591</ele>
        <time>2013-01-28T02:57:35Z</time>
      </trkpt>
      <trkpt lat="-21.18441" lon="55.44768">
        <ele>593</ele>
        <time>2013-01-28T02:57:45Z</time>
      </trkpt>
      <trkpt lat="-21.18447" lon="55.44765">
        <ele>595</ele>
        <time>2013-01-28T02:57:55Z</time>
      </trkpt>
      <trkpt lat="-21.18456" lon="55.44765">
        <ele>597</ele>
        <time>2013-01-28T02:58:05Z</time>
      </trkpt>
      <trkpt lat="-21.18463" lon="55.44768">
        <ele>598</ele>
        <time>2013-01-28T02:58:15Z</time>
      </trkpt>
      <trkpt lat="-21.1847" lon="55.44769">
        <ele>600</ele>
        <time>2013-01-28T02:58:25Z</time>
      </trkpt>
      <trkpt lat="-21.18468" lon="55.44766">
        <ele>603</ele>
        <time>2013-01-28T02:58:35Z</time>
      </trkpt>
      <trkpt lat="-21.18468" lon="55.44763">
        <ele>605</ele>
        <time>2013-01-28T02:58:45Z</time>
      </trkpt>
      <trkpt lat="-21.18475" lon="55.44763">
        <ele>607</ele>
        <time>2013-01-28T02:58:55Z</time>
      </trkpt>
      <trkpt lat="-21.18484" lon="55.44762">
        <ele>609</ele>
        <time>2013-01-28T02:59:05Z</time>
      </trkpt>
      <trkpt lat="-21.18497" lon="55.44761">
        <ele>609</ele>
        <time>2013-01-28T02:59:15Z</time>
      </trkpt>
      <trkpt lat="-21.18504" lon="55.4476">
        <ele>607</ele>
        <time>2013-01-28T02:59:25Z</time>
      </trkpt>
      <trkpt lat="-21.18512" lon="55.44757">
        <ele>604</ele>
        <time>2013-01-28T02:59:36Z</time>
      </trkpt>
      <trkpt lat="-21.18517" lon="55.44754">
        <ele>602</ele>
        <time>2013-01-28T02:59:46Z</time>
      </trkpt>
      <trkpt lat="-21.18521" lon="55.44748">
        <ele>600</ele>
        <time>2013-01-28T02:59:56Z</time>
      </trkpt>
      <trkpt lat="-21.18526" lon="55.44741">
        <ele>597</ele>
        <time>2013-01-28T03:00:06Z</time>
      </trkpt>
      <trkpt lat="-21.1853" lon="55.44735">
        <ele>594</ele>
        <time>2013-01-28T03:00:16Z</time>
      </trkpt>
      <trkpt lat="-21.18529" lon="55.44733">
        <ele>595</ele>
        <time>2013-01-28T03:00:26Z</time>
      </trkpt>
      <trkpt lat="-21.18528" lon="55.44733">
        <ele>595</ele>
        <time>2013-01-28T03:00:36Z</time>
      </trkpt>
      <trkpt lat="-21.18525" lon="55.44736">
        <ele>595</ele>
        <time>2013-01-28T03:00:46Z</time>
      </trkpt>
      <trkpt lat="-21.18525" lon="55.44741">
        <ele>598</ele>
        <time>2013-01-28T03:00:56Z</time>
      </trkpt>
      <trkpt lat="-21.18526" lon="55.44739">
        <ele>598</ele>
        <time>2013-01-28T03:01:06Z</time>
      </trkpt>
      <trkpt lat="-21.18533" lon="55.44731">
        <ele>593</ele>
        <time>2013-01-28T03:01:16Z</time>
      </trkpt>
      <trkpt lat="-21.18534" lon="55.44726">
        <ele>592</ele>
        <time>2013-01-28T03:01:26Z</time>
      </trkpt>
      <trkpt lat="-21.18545" lon="55.44714">
        <ele>586</ele>
        <time>2013-01-28T03:01:36Z</time>
      </trkpt>
      <trkpt lat="-21.18558" lon="55.44704">
        <ele>580</ele>
        <time>2013-01-28T03:01:47Z</time>
      </trkpt>
      <trkpt lat="-21.18562" lon="55.44702">
        <ele>579</ele>
        <time>2013-01-28T03:01:57Z</time>
      </trkpt>
      <trkpt lat="-21.18567" lon="55.44702">
        <ele>579</ele>
        <time>2013-01-28T03:02:07Z</time>
      </trkpt>
      <trkpt lat="-21.18566" lon="55.44689">
        <ele>576</ele>
        <time>2013-01-28T03:02:17Z</time>
      </trkpt>
      <trkpt lat="-21.18554" lon="55.44671">
        <ele>576</ele>
        <time>2013-01-28T03:02:27Z</time>
      </trkpt>
      <trkpt lat="-21.18554" lon="55.44651">
        <ele>579</ele>
        <time>2013-01-28T03:02:37Z</time>
      </trkpt>
      <trkpt lat="-21.18555" lon="55.44631">
        <ele>581</ele>
        <time>2013-01-28T03:02:47Z</time>
      </trkpt>
      <trkpt lat="-21.18552" lon="55.44617">
        <ele>583</ele>
        <time>2013-01-28T03:02:57Z</time>
      </trkpt>
      <trkpt lat="-21.18545" lon="55.44608">
        <ele>584</ele>
        <time>2013-01-28T03:03:07Z</time>
      </trkpt>
      <trkpt lat="-21.18541" lon="55.44598">
        <ele>586</ele>
        <time>2013-01-28T03:03:17Z</time>
      </trkpt>
      <trkpt lat="-21.18536" lon="55.44584">
        <ele>586</ele>
        <time>2013-01-28T03:03:27Z</time>
      </trkpt>
      <trkpt lat="-21.18526" lon="55.44574">
        <ele>588</ele>
        <time>2013-01-28T03:03:37Z</time>
      </trkpt>
      <trkpt lat="-21.18519" lon="55.44564">
        <ele>589</ele>
        <time>2013-01-28T03:03:47Z</time>
      </trkpt>
      <trkpt lat="-21.18509" lon="55.44556">
        <ele>590</ele>
        <time>2013-01-28T03:03:57Z</time>
      </trkpt>
      <trkpt lat="-21.18501" lon="55.44551">
        <ele>590</ele>
        <time>2013-01-28T03:04:08Z</time>
      </trkpt>
      <trkpt lat="-21.18492" lon="55.44545">
        <ele>588</ele>
        <time>2013-01-28T03:04:18Z</time>
      </trkpt>
      <trkpt lat="-21.18487" lon="55.44541">
        <ele>584</ele>
        <time>2013-01-28T03:04:28Z</time>
      </trkpt>
      <trkpt lat="-21.18477" lon="55.44534">
        <ele>580</ele>
        <time>2013-01-28T03:04:38Z</time>
      </trkpt>
      <trkpt lat="-21.18469" lon="55.44528">
        <ele>578</ele>
        <time>2013-01-28T03:04:48Z</time>
      </trkpt>
      <trkpt lat="-21.18459" lon="55.44524">
        <ele>578</ele>
        <time>2013-01-28T03:04:58Z</time>
      </trkpt>
      <trkpt lat="-21.18455" lon="55.44513">
        <ele>580</ele>
        <time>2013-01-28T03:05:08Z</time>
      </trkpt>
      <trkpt lat="-21.18446" lon="55.44511">
        <ele>582</ele>
        <time>2013-01-28T03:05:18Z</time>
      </trkpt>
      <trkpt lat="-21.18444" lon="55.44511">
        <ele>582</ele>
        <time>2013-01-28T03:05:28Z</time>
      </trkpt>
      <trkpt lat="-21.1843" lon="55.44507">
        <ele>580</ele>
        <time>2013-01-28T03:05:38Z</time>
      </trkpt>
      <trkpt lat="-21.18421" lon="55.44508">
        <ele>577</ele>
        <time>2013-01-28T03:05:48Z</time>
      </trkpt>
      <trkpt lat="-21.18413" lon="55.44507">
        <ele>574</ele>
        <time>2013-01-28T03:05:58Z</time>
      </trkpt>
      <trkpt lat="-21.1841" lon="55.44507">
        <ele>573</ele>
        <time>2013-01-28T03:06:09Z</time>
      </trkpt>
      <trkpt lat="-21.18406" lon="55.44508">
        <ele>574</ele>
        <time>2013-01-28T03:06:19Z</time>
      </trkpt>
      <trkpt lat="-21.18403" lon="55.44508">
        <ele>572</ele>
        <time>2013-01-28T03:06:35Z</time>
      </trkpt>
      <trkpt lat="-21.18399" lon="55.44513">
        <ele>572</ele>
        <time>2013-01-28T03:06:52Z</time>
      </trkpt>
      <trkpt lat="-21.18398" lon="55.44512">
        <ele>572</ele>
        <time>2013-01-28T03:07:03Z</time>
      </trkpt>
      <trkpt lat="-21.18395" lon="55.44506">
        <ele>570</ele>
        <time>2013-01-28T03:07:13Z</time>
      </trkpt>
      <trkpt lat="-21.18389" lon="55.44502">
        <ele>567</ele>
        <time>2013-01-28T03:07:23Z</time>
      </trkpt>
      <trkpt lat="-21.18385" lon="55.44495">
        <ele>564</ele>
        <time>2013-01-28T03:07:33Z</time>
      </trkpt>
      <trkpt lat="-21.18377" lon="55.44492">
        <ele>562</ele>
        <time>2013-01-28T03:07:43Z</time>
      </trkpt>
      <trkpt lat="-21.18371" lon="55.4449">
        <ele>559</ele>
        <time>2013-01-28T03:07:53Z</time>
      </trkpt>
      <trkpt lat="-21.18372" lon="55.44483">
        <ele>556</ele>
        <time>2013-01-28T03:08:03Z</time>
      </trkpt>
      <trkpt lat="-21.18371" lon="55.44475">
        <ele>554</ele>
        <time>2013-01-28T03:08:13Z</time>
      </trkpt>
      <trkpt lat="-21.18367" lon="55.44476">
        <ele>553</ele>
        <time>2013-01-28T03:08:23Z</time>
      </trkpt>
      <trkpt lat="-21.18365" lon="55.44476">
        <ele>553</ele>
        <time>2013-01-28T03:08:33Z</time>
      </trkpt>
      <trkpt lat="-21.18354" lon="55.44471">
        <ele>552</ele>
        <time>2013-01-28T03:08:43Z</time>
      </trkpt>
      <trkpt lat="-21.18354" lon="55.44457">
        <ele>548</ele>
        <time>2013-01-28T03:08:53Z</time>
      </trkpt>
      <trkpt lat="-21.1836" lon="55.44442">
        <ele>548</ele>
        <time>2013-01-28T03:09:03Z</time>
      </trkpt>
      <trkpt lat="-21.18359" lon="55.44437">
        <ele>548</ele>
        <time>2013-01-28T03:09:13Z</time>
      </trkpt>
      <trkpt lat="-21.1836" lon="55.44427">
        <ele>548</ele>
        <time>2013-01-28T03:09:24Z</time>
      </trkpt>
      <trkpt lat="-21.18368" lon="55.44412">
        <ele>549</ele>
        <time>2013-01-28T03:09:34Z</time>
      </trkpt>
      <trkpt lat="-21.18367" lon="55.44402">
        <ele>551</ele>
        <time>2013-01-28T03:09:44Z</time>
      </trkpt>
      <trkpt lat="-21.18348" lon="55.44399">
        <ele>552</ele>
        <time>2013-01-28T03:09:54Z</time>
      </trkpt>
      <trkpt lat="-21.18327" lon="55.44399">
        <ele>552</ele>
        <time>2013-01-28T03:10:04Z</time>
      </trkpt>
      <trkpt lat="-21.18313" lon="55.44396">
        <ele>551</ele>
        <time>2013-01-28T03:10:14Z</time>
      </trkpt>
      <trkpt lat="-21.18301" lon="55.44393">
        <ele>549</ele>
        <time>2013-01-28T03:10:24Z</time>
      </trkpt>
      <trkpt lat="-21.18293" lon="55.44383">
        <ele>548</ele>
        <time>2013-01-28T03:10:34Z</time>
      </trkpt>
      <trkpt lat="-21.1828" lon="55.44379">
        <ele>547</ele>
        <time>2013-01-28T03:10:44Z</time>
      </trkpt>
      <trkpt lat="-21.18264" lon="55.44377">
        <ele>545</ele>
        <time>2013-01-28T03:10:54Z</time>
      </trkpt>
      <trkpt lat="-21.18256" lon="55.44377">
        <ele>544</ele>
        <time>2013-01-28T03:11:04Z</time>
      </trkpt>
      <trkpt lat="-21.18242" lon="55.44379">
        <ele>543</ele>
        <time>2013-01-28T03:11:14Z</time>
      </trkpt>
      <trkpt lat="-21.18233" lon="55.44384">
        <ele>541</ele>
        <time>2013-01-28T03:11:24Z</time>
      </trkpt>
      <trkpt lat="-21.18224" lon="55.44376">
        <ele>540</ele>
        <time>2013-01-28T03:11:34Z</time>
      </trkpt>
      <trkpt lat="-21.18212" lon="55.44372">
        <ele>539</ele>
        <time>2013-01-28T03:11:45Z</time>
      </trkpt>
      <trkpt lat="-21.18203" lon="55.44368">
        <ele>538</ele>
        <time>2013-01-28T03:11:55Z</time>
      </trkpt>
      <trkpt lat="-21.182" lon="55.44367">
        <ele>538</ele>
        <time>2013-01-28T03:12:05Z</time>
      </trkpt>
      <trkpt lat="-21.18198" lon="55.44366">
        <ele>537</ele>
        <time>2013-01-28T03:12:15Z</time>
      </trkpt>
      <trkpt lat="-21.18192" lon="55.44367">
        <ele>536</ele>
        <time>2013-01-28T03:12:25Z</time>
      </trkpt>
      <trkpt lat="-21.18179" lon="55.44368">
        <ele>534</ele>
        <time>2013-01-28T03:12:35Z</time>
      </trkpt>
      <trkpt lat="-21.18161" lon="55.44366">
        <ele>532</ele>
        <time>2013-01-28T03:12:45Z</time>
      </trkpt>
      <trkpt lat="-21.18139" lon="55.44367">
        <ele>528</ele>
        <time>2013-01-28T03:12:57Z</time>
      </trkpt>
      <trkpt lat="-21.18096" lon="55.44374">
        <ele>520</ele>
        <time>2013-01-28T03:13:25Z</time>
      </trkpt>
      <trkpt lat="-21.18085" lon="55.44384">
        <ele>518</ele>
        <time>2013-01-28T03:13:36Z</time>
      </trkpt>
      <trkpt lat="-21.18084" lon="55.44398">
        <ele>515</ele>
        <time>2013-01-28T03:13:46Z</time>
      </trkpt>
      <trkpt lat="-21.18085" lon="55.44403">
        <ele>514</ele>
        <time>2013-01-28T03:13:56Z</time>
      </trkpt>
      <trkpt lat="-21.18089" lon="55.44416">
        <ele>512</ele>
        <time>2013-01-28T03:14:06Z</time>
      </trkpt>
      <trkpt lat="-21.18098" lon="55.44424">
        <ele>509</ele>
        <time>2013-01-28T03:14:16Z</time>
      </trkpt>
      <trkpt lat="-21.18106" lon="55.44429">
        <ele>505</ele>
        <time>2013-01-28T03:14:26Z</time>
      </trkpt>
      <trkpt lat="-21.18116" lon="55.44438">
        <ele>502</ele>
        <time>2013-01-28T03:14:36Z</time>
      </trkpt>
      <trkpt lat="-21.18129" lon="55.44444">
        <ele>500</ele>
        <time>2013-01-28T03:14:46Z</time>
      </trkpt>
      <trkpt lat="-21.18128" lon="55.44447">
        <ele>496</ele>
        <time>2013-01-28T03:14:56Z</time>
      </trkpt>
      <trkpt lat="-21.18127" lon="55.44456">
        <ele>494</ele>
        <time>2013-01-28T03:15:06Z</time>
      </trkpt>
      <trkpt lat="-21.18122" lon="55.44461">
        <ele>493</ele>
        <time>2013-01-28T03:15:16Z</time>
      </trkpt>
      <trkpt lat="-21.18127" lon="55.44469">
        <ele>492</ele>
        <time>2013-01-28T03:15:26Z</time>
      </trkpt>
      <trkpt lat="-21.18135" lon="55.44479">
        <ele>490</ele>
        <time>2013-01-28T03:15:36Z</time>
      </trkpt>
      <trkpt lat="-21.1814" lon="55.44489">
        <ele>489</ele>
        <time>2013-01-28T03:15:46Z</time>
      </trkpt>
      <trkpt lat="-21.18147" lon="55.44499">
        <ele>488</ele>
        <time>2013-01-28T03:15:56Z</time>
      </trkpt>
      <trkpt lat="-21.18141" lon="55.44503">
        <ele>487</ele>
        <time>2013-01-28T03:16:06Z</time>
      </trkpt>
      <trkpt lat="-21.18139" lon="55.44508">
        <ele>487</ele>
        <time>2013-01-28T03:16:16Z</time>
      </trkpt>
      <trkpt lat="-21.18148" lon="55.44514">
        <ele>486</ele>
        <time>2013-01-28T03:16:26Z</time>
      </trkpt>
      <trkpt lat="-21.18156" lon="55.44516">
        <ele>485</ele>
        <time>2013-01-28T03:16:37Z</time>
      </trkpt>
      <trkpt lat="-21.1816" lon="55.44516">
        <ele>486</ele>
        <time>2013-01-28T03:16:47Z</time>
      </trkpt>
      <trkpt lat="-21.18158" lon="55.44516">
        <ele>486</ele>
        <time>2013-01-28T03:16:57Z</time>
      </trkpt>
      <trkpt lat="-21.18157" lon="55.44517">
        <ele>486</ele>
        <time>2013-01-28T03:17:07Z</time>
      </trkpt>
      <trkpt lat="-21.18158" lon="55.44518">
        <ele>486</ele>
        <time>2013-01-28T03:17:17Z</time>
      </trkpt>
      <trkpt lat="-21.18161" lon="55.44518">
        <ele>486</ele>
        <time>2013-01-28T03:17:27Z</time>
      </trkpt>
      <trkpt lat="-21.18163" lon="55.44516">
        <ele>486</ele>
        <time>2013-01-28T03:17:37Z</time>
      </trkpt>
      <trkpt lat="-21.1817" lon="55.44519">
        <ele>486</ele>
        <time>2013-01-28T03:17:47Z</time>
      </trkpt>
      <trkpt lat="-21.18171" lon="55.44521">
        <ele>486</ele>
        <time>2013-01-28T03:17:57Z</time>
      </trkpt>
      <trkpt lat="-21.18174" lon="55.44524">
        <ele>485</ele>
        <time>2013-01-28T03:18:07Z</time>
      </trkpt>
      <trkpt lat="-21.18172" lon="55.44529">
        <ele>486</ele>
        <time>2013-01-28T03:18:17Z</time>
      </trkpt>
      <trkpt lat="-21.18166" lon="55.4454">
        <ele>487</ele>
        <time>2013-01-28T03:18:27Z</time>
      </trkpt>
      <trkpt lat="-21.18159" lon="55.44543">
        <ele>488</ele>
        <time>2013-01-28T03:18:37Z</time>
      </trkpt>
      <trkpt lat="-21.18155" lon="55.44544">
        <ele>488</ele>
        <time>2013-01-28T03:18:48Z</time>
      </trkpt>
      <trkpt lat="-21.18154" lon="55.44544">
        <ele>488</ele>
        <time>2013-01-28T03:18:58Z</time>
      </trkpt>
      <trkpt lat="-21.18152" lon="55.44544">
        <ele>488</ele>
        <time>2013-01-28T03:19:08Z</time>
      </trkpt>
      <trkpt lat="-21.18157" lon="55.44542">
        <ele>487</ele>
        <time>2013-01-28T03:19:18Z</time>
      </trkpt>
      <trkpt lat="-21.18163" lon="55.44542">
        <ele>488</ele>
        <time>2013-01-28T03:19:28Z</time>
      </trkpt>
      <trkpt lat="-21.18165" lon="55.44546">
        <ele>488</ele>
        <time>2013-01-28T03:19:38Z</time>
      </trkpt>
      <trkpt lat="-21.18159" lon="55.44559">
        <ele>488</ele>
        <time>2013-01-28T03:19:48Z</time>
      </trkpt>
      <trkpt lat="-21.1815" lon="55.44564">
        <ele>488</ele>
        <time>2013-01-28T03:19:58Z</time>
      </trkpt>
      <trkpt lat="-21.18142" lon="55.44571">
        <ele>489</ele>
        <time>2013-01-28T03:20:08Z</time>
      </trkpt>
      <trkpt lat="-21.18133" lon="55.4458">
        <ele>488</ele>
        <time>2013-01-28T03:20:18Z</time>
      </trkpt>
      <trkpt lat="-21.18121" lon="55.44587">
        <ele>488</ele>
        <time>2013-01-28T03:20:28Z</time>
      </trkpt>
      <trkpt lat="-21.18122" lon="55.44592">
        <ele>488</ele>
        <time>2013-01-28T03:20:38Z</time>
      </trkpt>
      <trkpt lat="-21.18126" lon="55.44587">
        <ele>488</ele>
        <time>2013-01-28T03:20:48Z</time>
      </trkpt>
      <trkpt lat="-21.1813" lon="55.4458">
        <ele>488</ele>
        <time>2013-01-28T03:20:58Z</time>
      </trkpt>
      <trkpt lat="-21.18127" lon="55.4458">
        <ele>487</ele>
        <time>2013-01-28T03:21:08Z</time>
      </trkpt>
      <trkpt lat="-21.18124" lon="55.44575">
        <ele>487</ele>
        <time>2013-01-28T03:21:19Z</time>
      </trkpt>
      <trkpt lat="-21.18126" lon="55.44572">
        <ele>487</ele>
        <time>2013-01-28T03:21:29Z</time>
      </trkpt>
      <trkpt lat="-21.18128" lon="55.44569">
        <ele>487</ele>
        <time>2013-01-28T03:21:39Z</time>
      </trkpt>
      <trkpt lat="-21.18128" lon="55.44569">
        <ele>487</ele>
        <time>2013-01-28T03:21:49Z</time>
      </trkpt>
      <trkpt lat="-21.18129" lon="55.44567">
        <ele>487</ele>
        <time>2013-01-28T03:21:59Z</time>
      </trkpt>
      <trkpt lat="-21.18129" lon="55.44566">
        <ele>487</ele>
        <time>2013-01-28T03:22:09Z</time>
      </trkpt>
      <trkpt lat="-21.18129" lon="55.44571">
        <ele>487</ele>
        <time>2013-01-28T03:22:19Z</time>
      </trkpt>
      <trkpt lat="-21.1813" lon="55.44574">
        <ele>487</ele>
        <time>2013-01-28T03:22:29Z</time>
      </trkpt>
      <trkpt lat="-21.18129" lon="55.44574">
        <ele>486</ele>
        <time>2013-01-28T03:22:39Z</time>
      </trkpt>
      <trkpt lat="-21.18127" lon="55.44572">
        <ele>487</ele>
        <time>2013-01-28T03:22:49Z</time>
      </trkpt>
      <trkpt lat="-21.18117" lon="55.44579">
        <ele>487</ele>
        <time>2013-01-28T03:22:59Z</time>
      </trkpt>
      <trkpt lat="-21.1811" lon="55.44585">
        <ele>487</ele>
        <time>2013-01-28T03:23:09Z</time>
      </trkpt>
      <trkpt lat="-21.18108" lon="55.44589">
        <ele>487</ele>
        <time>2013-01-28T03:23:19Z</time>
      </trkpt>
      <trkpt lat="-21.18099" lon="55.44595">
        <ele>487</ele>
        <time>2013-01-28T03:23:30Z</time>
      </trkpt>
      <trkpt lat="-21.18089" lon="55.44599">
        <ele>487</ele>
        <time>2013-01-28T03:23:40Z</time>
      </trkpt>
      <trkpt lat="-21.18082" lon="55.44604">
        <ele>488</ele>
        <time>2013-01-28T03:23:50Z</time>
      </trkpt>
      <trkpt lat="-21.1808" lon="55.44608">
        <ele>488</ele>
        <time>2013-01-28T03:24:00Z</time>
      </trkpt>
      <trkpt lat="-21.18076" lon="55.44613">
        <ele>489</ele>
        <time>2013-01-28T03:24:10Z</time>
      </trkpt>
      <trkpt lat="-21.18073" lon="55.44619">
        <ele>489</ele>
        <time>2013-01-28T03:24:20Z</time>
      </trkpt>
      <trkpt lat="-21.18069" lon="55.44625">
        <ele>488</ele>
        <time>2013-01-28T03:24:30Z</time>
      </trkpt>
      <trkpt lat="-21.18063" lon="55.44629">
        <ele>489</ele>
        <time>2013-01-28T03:24:40Z</time>
      </trkpt>
      <trkpt lat="-21.18058" lon="55.44631">
        <ele>490</ele>
        <time>2013-01-28T03:24:50Z</time>
      </trkpt>
      <trkpt lat="-21.18056" lon="55.44636">
        <ele>491</ele>
        <time>2013-01-28T03:25:00Z</time>
      </trkpt>
      <trkpt lat="-21.18048" lon="55.44643">
        <ele>491</ele>
        <time>2013-01-28T03:25:10Z</time>
      </trkpt>
      <trkpt lat="-21.18041" lon="55.44644">
        <ele>491</ele>
        <time>2013-01-28T03:25:20Z</time>
      </trkpt>
      <trkpt lat="-21.18038" lon="55.44644">
        <ele>492</ele>
        <time>2013-01-28T03:25:31Z</time>
      </trkpt>
      <trkpt lat="-21.18036" lon="55.44641">
        <ele>493</ele>
        <time>2013-01-28T03:25:41Z</time>
      </trkpt>
      <trkpt lat="-21.18036" lon="55.44641">
        <ele>494</ele>
        <time>2013-01-28T03:25:51Z</time>
      </trkpt>
      <trkpt lat="-21.18036" lon="55.44641">
        <ele>494</ele>
        <time>2013-01-28T03:26:01Z</time>
      </trkpt>
      <trkpt lat="-21.18031" lon="55.44644">
        <ele>495</ele>
        <time>2013-01-28T03:26:11Z</time>
      </trkpt>
      <trkpt lat="-21.1803" lon="55.44645">
        <ele>496</ele>
        <time>2013-01-28T03:26:21Z</time>
      </trkpt>
      <trkpt lat="-21.18031" lon="55.44644">
        <ele>495</ele>
        <time>2013-01-28T03:26:31Z</time>
      </trkpt>
      <trkpt lat="-21.18031" lon="55.44643">
        <ele>496</ele>
        <time>2013-01-28T03:26:41Z</time>
      </trkpt>
      <trkpt lat="-21.18032" lon="55.44644">
        <ele>495</ele>
        <time>2013-01-28T03:26:51Z</time>
      </trkpt>
      <trkpt lat="-21.18032" lon="55.44645">
        <ele>496</ele>
        <time>2013-01-28T03:27:01Z</time>
      </trkpt>
      <trkpt lat="-21.18023" lon="55.44645">
        <ele>496</ele>
        <time>2013-01-28T03:27:11Z</time>
      </trkpt>
      <trkpt lat="-21.18012" lon="55.44646">
        <ele>497</ele>
        <time>2013-01-28T03:27:21Z</time>
      </trkpt>
      <trkpt lat="-21.18003" lon="55.44647">
        <ele>497</ele>
        <time>2013-01-28T03:27:31Z</time>
      </trkpt>
      <trkpt lat="-21.17993" lon="55.4465">
        <ele>498</ele>
        <time>2013-01-28T03:27:42Z</time>
      </trkpt>
      <trkpt lat="-21.17982" lon="55.44656">
        <ele>498</ele>
        <time>2013-01-28T03:27:52Z</time>
      </trkpt>
      <trkpt lat="-21.17971" lon="55.44664">
        <ele>499</ele>
        <time>2013-01-28T03:28:02Z</time>
      </trkpt>
      <trkpt lat="-21.1796" lon="55.44666">
        <ele>499</ele>
        <time>2013-01-28T03:28:12Z</time>
      </trkpt>
      <trkpt lat="-21.17948" lon="55.44667">
        <ele>500</ele>
        <time>2013-01-28T03:28:22Z</time>
      </trkpt>
      <trkpt lat="-21.17937" lon="55.4467">
        <ele>500</ele>
        <time>2013-01-28T03:28:32Z</time>
      </trkpt>
      <trkpt lat="-21.17922" lon="55.44672">
        <ele>501</ele>
        <time>2013-01-28T03:28:42Z</time>
      </trkpt>
      <trkpt lat="-21.17905" lon="55.44675">
        <ele>501</ele>
        <time>2013-01-28T03:28:52Z</time>
      </trkpt>
      <trkpt lat="-21.17891" lon="55.44677">
        <ele>502</ele>
        <time>2013-01-28T03:29:02Z</time>
      </trkpt>
      <trkpt lat="-21.17876" lon="55.44676">
        <ele>503</ele>
        <time>2013-01-28T03:29:12Z</time>
      </trkpt>
      <trkpt lat="-21.17864" lon="55.44679">
        <ele>503</ele>
        <time>2013-01-28T03:29:22Z</time>
      </trkpt>
      <trkpt lat="-21.17853" lon="55.44682">
        <ele>503</ele>
        <time>2013-01-28T03:29:32Z</time>
      </trkpt>
      <trkpt lat="-21.17851" lon="55.44683">
        <ele>503</ele>
        <time>2013-01-28T03:29:42Z</time>
      </trkpt>
      <trkpt lat="-21.17846" lon="55.44685">
        <ele>502</ele>
        <time>2013-01-28T03:29:52Z</time>
      </trkpt>
      <trkpt lat="-21.17842" lon="55.44689">
        <ele>501</ele>
        <time>2013-01-28T03:30:02Z</time>
      </trkpt>
      <trkpt lat="-21.1783" lon="55.44691">
        <ele>500</ele>
        <time>2013-01-28T03:30:12Z</time>
      </trkpt>
      <trkpt lat="-21.17822" lon="55.4469">
        <ele>500</ele>
        <time>2013-01-28T03:30:22Z</time>
      </trkpt>
      <trkpt lat="-21.17816" lon="55.44688">
        <ele>503</ele>
        <time>2013-01-28T03:30:32Z</time>
      </trkpt>
      <trkpt lat="-21.17807" lon="55.44686">
        <ele>505</ele>
        <time>2013-01-28T03:30:43Z</time>
      </trkpt>
      <trkpt lat="-21.17794" lon="55.44686">
        <ele>506</ele>
        <time>2013-01-28T03:30:53Z</time>
      </trkpt>
      <trkpt lat="-21.17783" lon="55.44682">
        <ele>506</ele>
        <time>2013-01-28T03:31:03Z</time>
      </trkpt>
      <trkpt lat="-21.17771" lon="55.44679">
        <ele>507</ele>
        <time>2013-01-28T03:31:13Z</time>
      </trkpt>
      <trkpt lat="-21.17758" lon="55.44676">
        <ele>507</ele>
        <time>2013-01-28T03:31:23Z</time>
      </trkpt>
      <trkpt lat="-21.17747" lon="55.44682">
        <ele>504</ele>
        <time>2013-01-28T03:31:33Z</time>
      </trkpt>
      <trkpt lat="-21.17736" lon="55.44676">
        <ele>503</ele>
        <time>2013-01-28T03:31:43Z</time>
      </trkpt>
      <trkpt lat="-21.17724" lon="55.44675">
        <ele>502</ele>
        <time>2013-01-28T03:31:53Z</time>
      </trkpt>
      <trkpt lat="-21.17715" lon="55.44673">
        <ele>502</ele>
        <time>2013-01-28T03:32:03Z</time>
      </trkpt>
      <trkpt lat="-21.17703" lon="55.44668">
        <ele>503</ele>
        <time>2013-01-28T03:32:13Z</time>
      </trkpt>
      <trkpt lat="-21.17693" lon="55.44664">
        <ele>503</ele>
        <time>2013-01-28T03:32:23Z</time>
      </trkpt>
      <trkpt lat="-21.17693" lon="55.44664">
        <ele>503</ele>
        <time>2013-01-28T03:32:33Z</time>
      </trkpt>
      <trkpt lat="-21.17688" lon="55.44664">
        <ele>503</ele>
        <time>2013-01-28T03:32:43Z</time>
      </trkpt>
      <trkpt lat="-21.17685" lon="55.44663">
        <ele>503</ele>
        <time>2013-01-28T03:32:53Z</time>
      </trkpt>
      <trkpt lat="-21.17686" lon="55.44661">
        <ele>502</ele>
        <time>2013-01-28T03:33:03Z</time>
      </trkpt>
      <trkpt lat="-21.17688" lon="55.44661">
        <ele>503</ele>
        <time>2013-01-28T03:33:13Z</time>
      </trkpt>
      <trkpt lat="-21.17686" lon="55.44659">
        <ele>503</ele>
        <time>2013-01-28T03:33:24Z</time>
      </trkpt>
      <trkpt lat="-21.17678" lon="55.44653">
        <ele>504</ele>
        <time>2013-01-28T03:33:34Z</time>
      </trkpt>
      <trkpt lat="-21.17667" lon="55.44646">
        <ele>504</ele>
        <time>2013-01-28T03:33:44Z</time>
      </trkpt>
      <trkpt lat="-21.17654" lon="55.44643">
        <ele>504</ele>
        <time>2013-01-28T03:33:54Z</time>
      </trkpt>
      <trkpt lat="-21.17641" lon="55.44638">
        <ele>505</ele>
        <time>2013-01-28T03:34:04Z</time>
      </trkpt>
      <trkpt lat="-21.17629" lon="55.44633">
        <ele>504</ele>
        <time>2013-01-28T03:34:14Z</time>
      </trkpt>
      <trkpt lat="-21.17619" lon="55.44629">
        <ele>505</ele>
        <time>2013-01-28T03:34:24Z</time>
      </trkpt>
      <trkpt lat="-21.17612" lon="55.44634">
        <ele>505</ele>
        <time>2013-01-28T03:34:34Z</time>
      </trkpt>
      <trkpt lat="-21.17603" lon="55.44634">
        <ele>505</ele>
        <time>2013-01-28T03:34:44Z</time>
      </trkpt>
      <trkpt lat="-21.17592" lon="55.4463">
        <ele>506</ele>
        <time>2013-01-28T03:34:54Z</time>
      </trkpt>
      <trkpt lat="-21.17586" lon="55.44629">
        <ele>507</ele>
        <time>2013-01-28T03:35:04Z</time>
      </trkpt>
      <trkpt lat="-21.17575" lon="55.44628">
        <ele>507</ele>
        <time>2013-01-28T03:35:14Z</time>
      </trkpt>
      <trkpt lat="-21.17564" lon="55.44623">
        <ele>507</ele>
        <time>2013-01-28T03:35:24Z</time>
      </trkpt>
      <trkpt lat="-21.17559" lon="55.44621">
        <ele>507</ele>
        <time>2013-01-28T03:35:34Z</time>
      </trkpt>
      <trkpt lat="-21.17551" lon="55.44619">
        <ele>507</ele>
        <time>2013-01-28T03:35:45Z</time>
      </trkpt>
      <trkpt lat="-21.17544" lon="55.44613">
        <ele>508</ele>
        <time>2013-01-28T03:35:55Z</time>
      </trkpt>
      <trkpt lat="-21.17534" lon="55.44608">
        <ele>508</ele>
        <time>2013-01-28T03:36:05Z</time>
      </trkpt>
      <trkpt lat="-21.17524" lon="55.44604">
        <ele>508</ele>
        <time>2013-01-28T03:36:15Z</time>
      </trkpt>
      <trkpt lat="-21.17516" lon="55.44601">
        <ele>508</ele>
        <time>2013-01-28T03:36:25Z</time>
      </trkpt>
      <trkpt lat="-21.17509" lon="55.44606">
        <ele>507</ele>
        <time>2013-01-28T03:36:35Z</time>
      </trkpt>
      <trkpt lat="-21.17499" lon="55.44609">
        <ele>506</ele>
        <time>2013-01-28T03:36:45Z</time>
      </trkpt>
      <trkpt lat="-21.17489" lon="55.44607">
        <ele>506</ele>
        <time>2013-01-28T03:36:55Z</time>
      </trkpt>
      <trkpt lat="-21.17478" lon="55.44603">
        <ele>506</ele>
        <time>2013-01-28T03:37:05Z</time>
      </trkpt>
      <trkpt lat="-21.17466" lon="55.44603">
        <ele>507</ele>
        <time>2013-01-28T03:37:15Z</time>
      </trkpt>
      <trkpt lat="-21.17455" lon="55.44597">
        <ele>507</ele>
        <time>2013-01-28T03:37:25Z</time>
      </trkpt>
      <trkpt lat="-21.17444" lon="55.44592">
        <ele>508</ele>
        <time>2013-01-28T03:37:35Z</time>
      </trkpt>
      <trkpt lat="-21.17435" lon="55.44585">
        <ele>507</ele>
        <time>2013-01-28T03:37:45Z</time>
      </trkpt>
      <trkpt lat="-21.17424" lon="55.4458">
        <ele>508</ele>
        <time>2013-01-28T03:37:55Z</time>
      </trkpt>
      <trkpt lat="-21.17414" lon="55.44578">
        <ele>509</ele>
        <time>2013-01-28T03:38:06Z</time>
      </trkpt>
      <trkpt lat="-21.17403" lon="55.4458">
        <ele>507</ele>
        <time>2013-01-28T03:38:16Z</time>
      </trkpt>
      <trkpt lat="-21.17391" lon="55.44577">
        <ele>507</ele>
        <time>2013-01-28T03:38:26Z</time>
      </trkpt>
      <trkpt lat="-21.17378" lon="55.44571">
        <ele>508</ele>
        <time>2013-01-28T03:38:36Z</time>
      </trkpt>
      <trkpt lat="-21.17372" lon="55.44563">
        <ele>508</ele>
        <time>2013-01-28T03:38:46Z</time>
      </trkpt>
      <trkpt lat="-21.17363" lon="55.44555">
        <ele>510</ele>
        <time>2013-01-28T03:38:56Z</time>
      </trkpt>
      <trkpt lat="-21.17356" lon="55.44549">
        <ele>511</ele>
        <time>2013-01-28T03:39:06Z</time>
      </trkpt>
      <trkpt lat="-21.17349" lon="55.44538">
        <ele>512</ele>
        <time>2013-01-28T03:39:16Z</time>
      </trkpt>
      <trkpt lat="-21.17348" lon="55.44534">
        <ele>512</ele>
        <time>2013-01-28T03:39:26Z</time>
      </trkpt>
      <trkpt lat="-21.17342" lon="55.44539">
        <ele>512</ele>
        <time>2013-01-28T03:39:36Z</time>
      </trkpt>
      <trkpt lat="-21.17342" lon="55.4454">
        <ele>512</ele>
        <time>2013-01-28T03:39:46Z</time>
      </trkpt>
      <trkpt lat="-21.17342" lon="55.44539">
        <ele>511</ele>
        <time>2013-01-28T03:39:56Z</time>
      </trkpt>
      <trkpt lat="-21.17344" lon="55.44539">
        <ele>512</ele>
        <time>2013-01-28T03:40:06Z</time>
      </trkpt>
      <trkpt lat="-21.17344" lon="55.44539">
        <ele>512</ele>
        <time>2013-01-28T03:40:16Z</time>
      </trkpt>
      <trkpt lat="-21.17344" lon="55.44535">
        <ele>512</ele>
        <time>2013-01-28T03:40:26Z</time>
      </trkpt>
      <trkpt lat="-21.17348" lon="55.44536">
        <ele>512</ele>
        <time>2013-01-28T03:40:37Z</time>
      </trkpt>
      <trkpt lat="-21.17348" lon="55.44537">
        <ele>512</ele>
        <time>2013-01-28T03:40:47Z</time>
      </trkpt>
      <trkpt lat="-21.17347" lon="55.44535">
        <ele>512</ele>
        <time>2013-01-28T03:40:57Z</time>
      </trkpt>
      <trkpt lat="-21.17346" lon="55.44535">
        <ele>512</ele>
        <time>2013-01-28T03:41:07Z</time>
      </trkpt>
      <trkpt lat="-21.17346" lon="55.44535">
        <ele>512</ele>
        <time>2013-01-28T03:41:17Z</time>
      </trkpt>
      <trkpt lat="-21.17347" lon="55.44533">
        <ele>512</ele>
        <time>2013-01-28T03:41:27Z</time>
      </trkpt>
      <trkpt lat="-21.17351" lon="55.44526">
        <ele>512</ele>
        <time>2013-01-28T03:41:37Z</time>
      </trkpt>
      <trkpt lat="-21.1735" lon="55.44514">
        <ele>513</ele>
        <time>2013-01-28T03:41:47Z</time>
      </trkpt>
      <trkpt lat="-21.1734" lon="55.44505">
        <ele>514</ele>
        <time>2013-01-28T03:41:57Z</time>
      </trkpt>
      <trkpt lat="-21.1733" lon="55.44495">
        <ele>514</ele>
        <time>2013-01-28T03:42:07Z</time>
      </trkpt>
      <trkpt lat="-21.17317" lon="55.44487">
        <ele>514</ele>
        <time>2013-01-28T03:42:17Z</time>
      </trkpt>
      <trkpt lat="-21.17306" lon="55.44481">
        <ele>515</ele>
        <time>2013-01-28T03:42:27Z</time>
      </trkpt>
      <trkpt lat="-21.173" lon="55.44473">
        <ele>515</ele>
        <time>2013-01-28T03:42:37Z</time>
      </trkpt>
      <trkpt lat="-21.173" lon="55.44468">
        <ele>515</ele>
        <time>2013-01-28T03:42:47Z</time>
      </trkpt>
      <trkpt lat="-21.17299" lon="55.44465">
        <ele>516</ele>
        <time>2013-01-28T03:42:58Z</time>
      </trkpt>
      <trkpt lat="-21.17297" lon="55.44467">
        <ele>516</ele>
        <time>2013-01-28T03:43:08Z</time>
      </trkpt>
      <trkpt lat="-21.17296" lon="55.44466">
        <ele>515</ele>
        <time>2013-01-28T03:43:18Z</time>
      </trkpt>
      <trkpt lat="-21.17298" lon="55.4446">
        <ele>516</ele>
        <time>2013-01-28T03:43:28Z</time>
      </trkpt>
      <trkpt lat="-21.17298" lon="55.44461">
        <ele>516</ele>
        <time>2013-01-28T03:43:38Z</time>
      </trkpt>
      <trkpt lat="-21.17296" lon="55.4447">
        <ele>516</ele>
        <time>2013-01-28T03:43:48Z</time>
      </trkpt>
      <trkpt lat="-21.17295" lon="55.44477">
        <ele>514</ele>
        <time>2013-01-28T03:43:58Z</time>
      </trkpt>
      <trkpt lat="-21.1729" lon="55.44474">
        <ele>513</ele>
        <time>2013-01-28T03:44:08Z</time>
      </trkpt>
      <trkpt lat="-21.17286" lon="55.44471">
        <ele>513</ele>
        <time>2013-01-28T03:44:18Z</time>
      </trkpt>
      <trkpt lat="-21.17284" lon="55.44468">
        <ele>513</ele>
        <time>2013-01-28T03:44:28Z</time>
      </trkpt>
      <trkpt lat="-21.17279" lon="55.44466">
        <ele>514</ele>
        <time>2013-01-28T03:44:39Z</time>
      </trkpt>
      <trkpt lat="-21.17275" lon="55.4446">
        <ele>515</ele>
        <time>2013-01-28T03:44:49Z</time>
      </trkpt>
      <trkpt lat="-21.17272" lon="55.44454">
        <ele>517</ele>
        <time>2013-01-28T03:44:59Z</time>
      </trkpt>
      <trkpt lat="-21.17266" lon="55.44452">
        <ele>520</ele>
        <time>2013-01-28T03:45:09Z</time>
      </trkpt>
      <trkpt lat="-21.17266" lon="55.44447">
        <ele>522</ele>
        <time>2013-01-28T03:45:19Z</time>
      </trkpt>
      <trkpt lat="-21.17265" lon="55.44442">
        <ele>524</ele>
        <time>2013-01-28T03:45:29Z</time>
      </trkpt>
      <trkpt lat="-21.17262" lon="55.4444">
        <ele>527</ele>
        <time>2013-01-28T03:45:39Z</time>
      </trkpt>
      <trkpt lat="-21.17262" lon="55.4444">
        <ele>528</ele>
        <time>2013-01-28T03:45:49Z</time>
      </trkpt>
      <trkpt lat="-21.17264" lon="55.44439">
        <ele>530</ele>
        <time>2013-01-28T03:45:59Z</time>
      </trkpt>
      <trkpt lat="-21.17262" lon="55.44434">
        <ele>532</ele>
        <time>2013-01-28T03:46:09Z</time>
      </trkpt>
      <trkpt lat="-21.17258" lon="55.4443">
        <ele>535</ele>
        <time>2013-01-28T03:46:19Z</time>
      </trkpt>
      <trkpt lat="-21.17251" lon="55.44426">
        <ele>537</ele>
        <time>2013-01-28T03:46:30Z</time>
      </trkpt>
      <trkpt lat="-21.17246" lon="55.44423">
        <ele>539</ele>
        <time>2013-01-28T03:46:40Z</time>
      </trkpt>
      <trkpt lat="-21.17238" lon="55.44422">
        <ele>541</ele>
        <time>2013-01-28T03:46:50Z</time>
      </trkpt>
      <trkpt lat="-21.17231" lon="55.4442">
        <ele>542</ele>
        <time>2013-01-28T03:47:00Z</time>
      </trkpt>
      <trkpt lat="-21.17227" lon="55.44415">
        <ele>545</ele>
        <time>2013-01-28T03:47:10Z</time>
      </trkpt>
      <trkpt lat="-21.17219" lon="55.44415">
        <ele>547</ele>
        <time>2013-01-28T03:47:20Z</time>
      </trkpt>
      <trkpt lat="-21.17212" lon="55.44413">
        <ele>548</ele>
        <time>2013-01-28T03:47:30Z</time>
      </trkpt>
      <trkpt lat="-21.17203" lon="55.44412">
        <ele>550</ele>
        <time>2013-01-28T03:47:40Z</time>
      </trkpt>
      <trkpt lat="-21.17199" lon="55.44405">
        <ele>553</ele>
        <time>2013-01-28T03:47:50Z</time>
      </trkpt>
      <trkpt lat="-21.17187" lon="55.4441">
        <ele>551</ele>
        <time>2013-01-28T03:48:00Z</time>
      </trkpt>
      <trkpt lat="-21.17178" lon="55.44409">
        <ele>551</ele>
        <time>2013-01-28T03:48:10Z</time>
      </trkpt>
      <trkpt lat="-21.17167" lon="55.44413">
        <ele>551</ele>
        <time>2013-01-28T03:48:20Z</time>
      </trkpt>
      <trkpt lat="-21.17159" lon="55.44411">
        <ele>552</ele>
        <time>2013-01-28T03:48:30Z</time>
      </trkpt>
      <trkpt lat="-21.17153" lon="55.4441">
        <ele>554</ele>
        <time>2013-01-28T03:48:40Z</time>
      </trkpt>
      <trkpt lat="-21.1715" lon="55.44406">
        <ele>557</ele>
        <time>2013-01-28T03:48:50Z</time>
      </trkpt>
      <trkpt lat="-21.17142" lon="55.44406">
        <ele>558</ele>
        <time>2013-01-28T03:49:00Z</time>
      </trkpt>
      <trkpt lat="-21.17132" lon="55.44405">
        <ele>560</ele>
        <time>2013-01-28T03:49:11Z</time>
      </trkpt>
      <trkpt lat="-21.17125" lon="55.444">
        <ele>561</ele>
        <time>2013-01-28T03:49:21Z</time>
      </trkpt>
      <trkpt lat="-21.17114" lon="55.44396">
        <ele>562</ele>
        <time>2013-01-28T03:49:31Z</time>
      </trkpt>
      <trkpt lat="-21.17102" lon="55.44393">
        <ele>562</ele>
        <time>2013-01-28T03:49:41Z</time>
      </trkpt>
      <trkpt lat="-21.17089" lon="55.44387">
        <ele>562</ele>
        <time>2013-01-28T03:49:51Z</time>
      </trkpt>
      <trkpt lat="-21.17078" lon="55.44384">
        <ele>562</ele>
        <time>2013-01-28T03:50:01Z</time>
      </trkpt>
      <trkpt lat="-21.17067" lon="55.44382">
        <ele>562</ele>
        <time>2013-01-28T03:50:11Z</time>
      </trkpt>
      <trkpt lat="-21.17053" lon="55.44385">
        <ele>563</ele>
        <time>2013-01-28T03:50:21Z</time>
      </trkpt>
      <trkpt lat="-21.17041" lon="55.44386">
        <ele>563</ele>
        <time>2013-01-28T03:50:31Z</time>
      </trkpt>
      <trkpt lat="-21.17029" lon="55.44389">
        <ele>564</ele>
        <time>2013-01-28T03:50:41Z</time>
      </trkpt>
      <trkpt lat="-21.17016" lon="55.44392">
        <ele>566</ele>
        <time>2013-01-28T03:50:51Z</time>
      </trkpt>
      <trkpt lat="-21.17003" lon="55.44395">
        <ele>566</ele>
        <time>2013-01-28T03:51:01Z</time>
      </trkpt>
      <trkpt lat="-21.16992" lon="55.44398">
        <ele>566</ele>
        <time>2013-01-28T03:51:11Z</time>
      </trkpt>
      <trkpt lat="-21.16979" lon="55.44403">
        <ele>566</ele>
        <time>2013-01-28T03:51:21Z</time>
      </trkpt>
      <trkpt lat="-21.16967" lon="55.44404">
        <ele>567</ele>
        <time>2013-01-28T03:51:32Z</time>
      </trkpt>
      <trkpt lat="-21.16955" lon="55.44402">
        <ele>568</ele>
        <time>2013-01-28T03:51:42Z</time>
      </trkpt>
      <trkpt lat="-21.16945" lon="55.444">
        <ele>569</ele>
        <time>2013-01-28T03:51:52Z</time>
      </trkpt>
      <trkpt lat="-21.16937" lon="55.44399">
        <ele>571</ele>
        <time>2013-01-28T03:52:02Z</time>
      </trkpt>
      <trkpt lat="-21.16925" lon="55.44399">
        <ele>573</ele>
        <time>2013-01-28T03:52:12Z</time>
      </trkpt>
      <trkpt lat="-21.16919" lon="55.444">
        <ele>575</ele>
        <time>2013-01-28T03:52:22Z</time>
      </trkpt>
      <trkpt lat="-21.16913" lon="55.44397">
        <ele>576</ele>
        <time>2013-01-28T03:52:32Z</time>
      </trkpt>
      <trkpt lat="-21.16903" lon="55.44395">
        <ele>578</ele>
        <time>2013-01-28T03:52:42Z</time>
      </trkpt>
      <trkpt lat="-21.16894" lon="55.44392">
        <ele>580</ele>
        <time>2013-01-28T03:52:52Z</time>
      </trkpt>
      <trkpt lat="-21.16885" lon="55.44388">
        <ele>581</ele>
        <time>2013-01-28T03:53:02Z</time>
      </trkpt>
      <trkpt lat="-21.16877" lon="55.44386">
        <ele>583</ele>
        <time>2013-01-28T03:53:12Z</time>
      </trkpt>
      <trkpt lat="-21.16871" lon="55.44386">
        <ele>586</ele>
        <time>2013-01-28T03:53:22Z</time>
      </trkpt>
      <trkpt lat="-21.16865" lon="55.44381">
        <ele>588</ele>
        <time>2013-01-28T03:53:33Z</time>
      </trkpt>
      <trkpt lat="-21.16855" lon="55.44375">
        <ele>589</ele>
        <time>2013-01-28T03:53:43Z</time>
      </trkpt>
      <trkpt lat="-21.16854" lon="55.44369">
        <ele>590</ele>
        <time>2013-01-28T03:53:53Z</time>
      </trkpt>
      <trkpt lat="-21.1685" lon="55.44362">
        <ele>591</ele>
        <time>2013-01-28T03:54:03Z</time>
      </trkpt>
      <trkpt lat="-21.16842" lon="55.44361">
        <ele>593</ele>
        <time>2013-01-28T03:54:13Z</time>
      </trkpt>
      <trkpt lat="-21.16836" lon="55.4436">
        <ele>595</ele>
        <time>2013-01-28T03:54:23Z</time>
      </trkpt>
      <trkpt lat="-21.16831" lon="55.44359">
        <ele>597</ele>
        <time>2013-01-28T03:54:33Z</time>
      </trkpt>
      <trkpt lat="-21.16821" lon="55.44358">
        <ele>600</ele>
        <time>2013-01-28T03:54:43Z</time>
      </trkpt>
      <trkpt lat="-21.16813" lon="55.44356">
        <ele>602</ele>
        <time>2013-01-28T03:54:53Z</time>
      </trkpt>
      <trkpt lat="-21.16807" lon="55.4435">
        <ele>602</ele>
        <time>2013-01-28T03:55:03Z</time>
      </trkpt>
      <trkpt lat="-21.16802" lon="55.4434">
        <ele>598</ele>
        <time>2013-01-28T03:55:13Z</time>
      </trkpt>
      <trkpt lat="-21.16796" lon="55.44332">
        <ele>596</ele>
        <time>2013-01-28T03:55:23Z</time>
      </trkpt>
      <trkpt lat="-21.1679" lon="55.44329">
        <ele>598</ele>
        <time>2013-01-28T03:55:33Z</time>
      </trkpt>
      <trkpt lat="-21.16784" lon="55.44323">
        <ele>600</ele>
        <time>2013-01-28T03:55:43Z</time>
      </trkpt>
      <trkpt lat="-21.16781" lon="55.44316">
        <ele>601</ele>
        <time>2013-01-28T03:55:53Z</time>
      </trkpt>
      <trkpt lat="-21.16779" lon="55.44308">
        <ele>603</ele>
        <time>2013-01-28T03:56:04Z</time>
      </trkpt>
      <trkpt lat="-21.16772" lon="55.44305">
        <ele>603</ele>
        <time>2013-01-28T03:56:14Z</time>
      </trkpt>
      <trkpt lat="-21.16766" lon="55.44296">
        <ele>603</ele>
        <time>2013-01-28T03:56:24Z</time>
      </trkpt>
      <trkpt lat="-21.16762" lon="55.44291">
        <ele>604</ele>
        <time>2013-01-28T03:56:34Z</time>
      </trkpt>
      <trkpt lat="-21.16762" lon="55.44285">
        <ele>605</ele>
        <time>2013-01-28T03:56:44Z</time>
      </trkpt>
      <trkpt lat="-21.16764" lon="55.44278">
        <ele>605</ele>
        <time>2013-01-28T03:56:54Z</time>
      </trkpt>
      <trkpt lat="-21.16765" lon="55.44275">
        <ele>605</ele>
        <time>2013-01-28T03:57:04Z</time>
      </trkpt>
      <trkpt lat="-21.16768" lon="55.4427">
        <ele>605</ele>
        <time>2013-01-28T03:57:14Z</time>
      </trkpt>
      <trkpt lat="-21.1677" lon="55.44255">
        <ele>605</ele>
        <time>2013-01-28T03:57:24Z</time>
      </trkpt>
      <trkpt lat="-21.16765" lon="55.44243">
        <ele>606</ele>
        <time>2013-01-28T03:57:34Z</time>
      </trkpt>
      <trkpt lat="-21.16756" lon="55.44234">
        <ele>607</ele>
        <time>2013-01-28T03:57:44Z</time>
      </trkpt>
      <trkpt lat="-21.16747" lon="55.44229">
        <ele>607</ele>
        <time>2013-01-28T03:57:54Z</time>
      </trkpt>
      <trkpt lat="-21.16735" lon="55.44228">
        <ele>609</ele>
        <time>2013-01-28T03:58:04Z</time>
      </trkpt>
      <trkpt lat="-21.1673" lon="55.44224">
        <ele>611</ele>
        <time>2013-01-28T03:58:14Z</time>
      </trkpt>
      <trkpt lat="-21.16731" lon="55.44219">
        <ele>612</ele>
        <time>2013-01-28T03:58:24Z</time>
      </trkpt>
      <trkpt lat="-21.16722" lon="55.44213">
        <ele>613</ele>
        <time>2013-01-28T03:58:34Z</time>
      </trkpt>
      <trkpt lat="-21.16722" lon="55.44211">
        <ele>614</ele>
        <time>2013-01-28T03:58:44Z</time>
      </trkpt>
      <trkpt lat="-21.16716" lon="55.4421">
        <ele>614</ele>
        <time>2013-01-28T03:58:54Z</time>
      </trkpt>
      <trkpt lat="-21.16704" lon="55.44204">
        <ele>617</ele>
        <time>2013-01-28T03:59:04Z</time>
      </trkpt>
      <trkpt lat="-21.16698" lon="55.44203">
        <ele>618</ele>
        <time>2013-01-28T03:59:14Z</time>
      </trkpt>
      <trkpt lat="-21.16689" lon="55.44201">
        <ele>619</ele>
        <time>2013-01-28T03:59:24Z</time>
      </trkpt>
      <trkpt lat="-21.16678" lon="55.44196">
        <ele>621</ele>
        <time>2013-01-28T03:59:35Z</time>
      </trkpt>
      <trkpt lat="-21.16672" lon="55.44195">
        <ele>622</ele>
        <time>2013-01-28T03:59:45Z</time>
      </trkpt>
      <trkpt lat="-21.16671" lon="55.44194">
        <ele>623</ele>
        <time>2013-01-28T03:59:55Z</time>
      </trkpt>
      <trkpt lat="-21.16667" lon="55.44193">
        <ele>623</ele>
        <time>2013-01-28T04:00:05Z</time>
      </trkpt>
      <trkpt lat="-21.16657" lon="55.44189">
        <ele>625</ele>
        <time>2013-01-28T04:00:15Z</time>
      </trkpt>
      <trkpt lat="-21.16657" lon="55.4419">
        <ele>625</ele>
        <time>2013-01-28T04:00:25Z</time>
      </trkpt>
      <trkpt lat="-21.16653" lon="55.44187">
        <ele>625</ele>
        <time>2013-01-28T04:00:35Z</time>
      </trkpt>
      <trkpt lat="-21.16646" lon="55.4418">
        <ele>627</ele>
        <time>2013-01-28T04:00:45Z</time>
      </trkpt>
      <trkpt lat="-21.16643" lon="55.44179">
        <ele>628</ele>
        <time>2013-01-28T04:00:55Z</time>
      </trkpt>
      <trkpt lat="-21.16635" lon="55.44173">
        <ele>630</ele>
        <time>2013-01-28T04:01:05Z</time>
      </trkpt>
      <trkpt lat="-21.16627" lon="55.44168">
        <ele>632</ele>
        <time>2013-01-28T04:01:15Z</time>
      </trkpt>
      <trkpt lat="-21.16625" lon="55.44169">
        <ele>635</ele>
        <time>2013-01-28T04:01:25Z</time>
      </trkpt>
      <trkpt lat="-21.16626" lon="55.44168">
        <ele>635</ele>
        <time>2013-01-28T04:01:35Z</time>
      </trkpt>
      <trkpt lat="-21.16626" lon="55.44165">
        <ele>634</ele>
        <time>2013-01-28T04:01:45Z</time>
      </trkpt>
      <trkpt lat="-21.16616" lon="55.4416">
        <ele>635</ele>
        <time>2013-01-28T04:01:55Z</time>
      </trkpt>
      <trkpt lat="-21.16603" lon="55.4416">
        <ele>636</ele>
        <time>2013-01-28T04:02:05Z</time>
      </trkpt>
      <trkpt lat="-21.16595" lon="55.44156">
        <ele>636</ele>
        <time>2013-01-28T04:02:15Z</time>
      </trkpt>
      <trkpt lat="-21.16595" lon="55.44156">
        <ele>636</ele>
        <time>2013-01-28T04:02:26Z</time>
      </trkpt>
      <trkpt lat="-21.16586" lon="55.44149">
        <ele>637</ele>
        <time>2013-01-28T04:02:36Z</time>
      </trkpt>
      <trkpt lat="-21.16573" lon="55.4415">
        <ele>638</ele>
        <time>2013-01-28T04:02:46Z</time>
      </trkpt>
      <trkpt lat="-21.16562" lon="55.44144">
        <ele>640</ele>
        <time>2013-01-28T04:02:56Z</time>
      </trkpt>
      <trkpt lat="-21.16556" lon="55.44146">
        <ele>642</ele>
        <time>2013-01-28T04:03:06Z</time>
      </trkpt>
      <trkpt lat="-21.16545" lon="55.44143">
        <ele>645</ele>
        <time>2013-01-28T04:03:16Z</time>
      </trkpt>
      <trkpt lat="-21.16536" lon="55.44142">
        <ele>647</ele>
        <time>2013-01-28T04:03:26Z</time>
      </trkpt>
      <trkpt lat="-21.16539" lon="55.4415">
        <ele>650</ele>
        <time>2013-01-28T04:03:36Z</time>
      </trkpt>
      <trkpt lat="-21.16536" lon="55.44154">
        <ele>652</ele>
        <time>2013-01-28T04:03:46Z</time>
      </trkpt>
      <trkpt lat="-21.16531" lon="55.44154">
        <ele>654</ele>
        <time>2013-01-28T04:03:56Z</time>
      </trkpt>
      <trkpt lat="-21.1653" lon="55.44157">
        <ele>655</ele>
        <time>2013-01-28T04:04:06Z</time>
      </trkpt>
      <trkpt lat="-21.16529" lon="55.44157">
        <ele>655</ele>
        <time>2013-01-28T04:04:16Z</time>
      </trkpt>
      <trkpt lat="-21.16528" lon="55.44157">
        <ele>655</ele>
        <time>2013-01-28T04:04:26Z</time>
      </trkpt>
      <trkpt lat="-21.16529" lon="55.44156">
        <ele>656</ele>
        <time>2013-01-28T04:04:36Z</time>
      </trkpt>
      <trkpt lat="-21.16528" lon="55.44156">
        <ele>656</ele>
        <time>2013-01-28T04:04:46Z</time>
      </trkpt>
      <trkpt lat="-21.16528" lon="55.44156">
        <ele>656</ele>
        <time>2013-01-28T04:04:57Z</time>
      </trkpt>
      <trkpt lat="-21.16517" lon="55.44151">
        <ele>658</ele>
        <time>2013-01-28T04:05:07Z</time>
      </trkpt>
      <trkpt lat="-21.16507" lon="55.44149">
        <ele>661</ele>
        <time>2013-01-28T04:05:17Z</time>
      </trkpt>
      <trkpt lat="-21.165" lon="55.44149">
        <ele>663</ele>
        <time>2013-01-28T04:05:27Z</time>
      </trkpt>
      <trkpt lat="-21.16493" lon="55.44143">
        <ele>666</ele>
        <time>2013-01-28T04:05:37Z</time>
      </trkpt>
      <trkpt lat="-21.16491" lon="55.44151">
        <ele>669</ele>
        <time>2013-01-28T04:05:47Z</time>
      </trkpt>
      <trkpt lat="-21.16492" lon="55.44157">
        <ele>671</ele>
        <time>2013-01-28T04:05:57Z</time>
      </trkpt>
      <trkpt lat="-21.16488" lon="55.44156">
        <ele>673</ele>
        <time>2013-01-28T04:06:07Z</time>
      </trkpt>
      <trkpt lat="-21.16481" lon="55.4415">
        <ele>675</ele>
        <time>2013-01-28T04:06:17Z</time>
      </trkpt>
      <trkpt lat="-21.16475" lon="55.4414">
        <ele>677</ele>
        <time>2013-01-28T04:06:28Z</time>
      </trkpt>
      <trkpt lat="-21.16473" lon="55.44136">
        <ele>679</ele>
        <time>2013-01-28T04:06:38Z</time>
      </trkpt>
      <trkpt lat="-21.1647" lon="55.44136">
        <ele>680</ele>
        <time>2013-01-28T04:06:48Z</time>
      </trkpt>
      <trkpt lat="-21.16468" lon="55.44134">
        <ele>682</ele>
        <time>2013-01-28T04:06:58Z</time>
      </trkpt>
      <trkpt lat="-21.1647" lon="55.44142">
        <ele>686</ele>
        <time>2013-01-28T04:07:08Z</time>
      </trkpt>
      <trkpt lat="-21.16471" lon="55.44149">
        <ele>688</ele>
        <time>2013-01-28T04:07:18Z</time>
      </trkpt>
      <trkpt lat="-21.16471" lon="55.44159">
        <ele>690</ele>
        <time>2013-01-28T04:07:28Z</time>
      </trkpt>
      <trkpt lat="-21.16468" lon="55.44159">
        <ele>692</ele>
        <time>2013-01-28T04:07:38Z</time>
      </trkpt>
      <trkpt lat="-21.16467" lon="55.44158">
        <ele>693</ele>
        <time>2013-01-28T04:07:48Z</time>
      </trkpt>
      <trkpt lat="-21.16465" lon="55.44156">
        <ele>694</ele>
        <time>2013-01-28T04:07:58Z</time>
      </trkpt>
      <trkpt lat="-21.16462" lon="55.44154">
        <ele>695</ele>
        <time>2013-01-28T04:08:09Z</time>
      </trkpt>
      <trkpt lat="-21.16464" lon="55.44158">
        <ele>696</ele>
        <time>2013-01-28T04:08:19Z</time>
      </trkpt>
      <trkpt lat="-21.16464" lon="55.44159">
        <ele>697</ele>
        <time>2013-01-28T04:08:29Z</time>
      </trkpt>
      <trkpt lat="-21.16462" lon="55.44161">
        <ele>697</ele>
        <time>2013-01-28T04:08:39Z</time>
      </trkpt>
      <trkpt lat="-21.16458" lon="55.44151">
        <ele>699</ele>
        <time>2013-01-28T04:08:49Z</time>
      </trkpt>
      <trkpt lat="-21.16452" lon="55.44141">
        <ele>702</ele>
        <time>2013-01-28T04:08:59Z</time>
      </trkpt>
      <trkpt lat="-21.16449" lon="55.44133">
        <ele>705</ele>
        <time>2013-01-28T04:09:09Z</time>
      </trkpt>
      <trkpt lat="-21.16445" lon="55.44125">
        <ele>707</ele>
        <time>2013-01-28T04:09:19Z</time>
      </trkpt>
      <trkpt lat="-21.16442" lon="55.44118">
        <ele>710</ele>
        <time>2013-01-28T04:09:29Z</time>
      </trkpt>
      <trkpt lat="-21.16439" lon="55.44115">
        <ele>711</ele>
        <time>2013-01-28T04:09:39Z</time>
      </trkpt>
      <trkpt lat="-21.16438" lon="55.4412">
        <ele>713</ele>
        <time>2013-01-28T04:09:49Z</time>
      </trkpt>
      <trkpt lat="-21.16439" lon="55.44128">
        <ele>715</ele>
        <time>2013-01-28T04:09:59Z</time>
      </trkpt>
      <trkpt lat="-21.16438" lon="55.44135">
        <ele>717</ele>
        <time>2013-01-28T04:10:09Z</time>
      </trkpt>
      <trkpt lat="-21.1644" lon="55.44142">
        <ele>719</ele>
        <time>2013-01-28T04:10:19Z</time>
      </trkpt>
      <trkpt lat="-21.1644" lon="55.44149">
        <ele>722</ele>
        <time>2013-01-28T04:10:29Z</time>
      </trkpt>
      <trkpt lat="-21.1644" lon="55.44154">
        <ele>724</ele>
        <time>2013-01-28T04:10:40Z</time>
      </trkpt>
      <trkpt lat="-21.16437" lon="55.44158">
        <ele>725</ele>
        <time>2013-01-28T04:10:50Z</time>
      </trkpt>
      <trkpt lat="-21.16431" lon="55.44152">
        <ele>726</ele>
        <time>2013-01-28T04:11:00Z</time>
      </trkpt>
      <trkpt lat="-21.1643" lon="55.44152">
        <ele>728</ele>
        <time>2013-01-28T04:11:10Z</time>
      </trkpt>
      <trkpt lat="-21.16424" lon="55.44145">
        <ele>728</ele>
        <time>2013-01-28T04:11:20Z</time>
      </trkpt>
      <trkpt lat="-21.16421" lon="55.44135">
        <ele>729</ele>
        <time>2013-01-28T04:11:30Z</time>
      </trkpt>
      <trkpt lat="-21.16419" lon="55.44127">
        <ele>732</ele>
        <time>2013-01-28T04:11:40Z</time>
      </trkpt>
      <trkpt lat="-21.16419" lon="55.44122">
        <ele>735</ele>
        <time>2013-01-28T04:11:50Z</time>
      </trkpt>
      <trkpt lat="-21.16419" lon="55.4413">
        <ele>737</ele>
        <time>2013-01-28T04:12:00Z</time>
      </trkpt>
      <trkpt lat="-21.16417" lon="55.44133">
        <ele>738</ele>
        <time>2013-01-28T04:12:10Z</time>
      </trkpt>
      <trkpt lat="-21.16415" lon="55.44126">
        <ele>741</ele>
        <time>2013-01-28T04:12:20Z</time>
      </trkpt>
      <trkpt lat="-21.16413" lon="55.44129">
        <ele>743</ele>
        <time>2013-01-28T04:12:30Z</time>
      </trkpt>
      <trkpt lat="-21.16414" lon="55.44132">
        <ele>743</ele>
        <time>2013-01-28T04:12:40Z</time>
      </trkpt>
      <trkpt lat="-21.16413" lon="55.44141">
        <ele>745</ele>
        <time>2013-01-28T04:12:50Z</time>
      </trkpt>
      <trkpt lat="-21.1641" lon="55.44136">
        <ele>747</ele>
        <time>2013-01-28T04:13:00Z</time>
      </trkpt>
      <trkpt lat="-21.16404" lon="55.44128">
        <ele>749</ele>
        <time>2013-01-28T04:13:10Z</time>
      </trkpt>
      <trkpt lat="-21.16401" lon="55.44122">
        <ele>752</ele>
        <time>2013-01-28T04:13:20Z</time>
      </trkpt>
      <trkpt lat="-21.16401" lon="55.44116">
        <ele>754</ele>
        <time>2013-01-28T04:13:30Z</time>
      </trkpt>
      <trkpt lat="-21.164" lon="55.4411">
        <ele>756</ele>
        <time>2013-01-28T04:13:40Z</time>
      </trkpt>
      <trkpt lat="-21.164" lon="55.4411">
        <ele>758</ele>
        <time>2013-01-28T04:13:51Z</time>
      </trkpt>
      <trkpt lat="-21.16399" lon="55.44111">
        <ele>760</ele>
        <time>2013-01-28T04:14:01Z</time>
      </trkpt>
      <trkpt lat="-21.16397" lon="55.4411">
        <ele>760</ele>
        <time>2013-01-28T04:14:11Z</time>
      </trkpt>
      <trkpt lat="-21.16395" lon="55.44102">
        <ele>763</ele>
        <time>2013-01-28T04:14:21Z</time>
      </trkpt>
      <trkpt lat="-21.16395" lon="55.44094">
        <ele>764</ele>
        <time>2013-01-28T04:14:31Z</time>
      </trkpt>
      <trkpt lat="-21.16396" lon="55.44092">
        <ele>766</ele>
        <time>2013-01-28T04:14:41Z</time>
      </trkpt>
      <trkpt lat="-21.16394" lon="55.44088">
        <ele>766</ele>
        <time>2013-01-28T04:14:51Z</time>
      </trkpt>
      <trkpt lat="-21.16394" lon="55.44078">
        <ele>767</ele>
        <time>2013-01-28T04:15:01Z</time>
      </trkpt>
      <trkpt lat="-21.16397" lon="55.4407">
        <ele>770</ele>
        <time>2013-01-28T04:15:11Z</time>
      </trkpt>
      <trkpt lat="-21.16398" lon="55.44064">
        <ele>772</ele>
        <time>2013-01-28T04:15:21Z</time>
      </trkpt>
      <trkpt lat="-21.16397" lon="55.44068">
        <ele>775</ele>
        <time>2013-01-28T04:15:31Z</time>
      </trkpt>
      <trkpt lat="-21.16401" lon="55.4406">
        <ele>777</ele>
        <time>2013-01-28T04:15:41Z</time>
      </trkpt>
      <trkpt lat="-21.16399" lon="55.44055">
        <ele>779</ele>
        <time>2013-01-28T04:15:51Z</time>
      </trkpt>
      <trkpt lat="-21.16397" lon="55.4406">
        <ele>782</ele>
        <time>2013-01-28T04:16:01Z</time>
      </trkpt>
      <trkpt lat="-21.16392" lon="55.44054">
        <ele>783</ele>
        <time>2013-01-28T04:16:12Z</time>
      </trkpt>
      <trkpt lat="-21.16386" lon="55.44054">
        <ele>785</ele>
        <time>2013-01-28T04:16:22Z</time>
      </trkpt>
      <trkpt lat="-21.16383" lon="55.44057">
        <ele>788</ele>
        <time>2013-01-28T04:16:32Z</time>
      </trkpt>
      <trkpt lat="-21.16378" lon="55.44059">
        <ele>790</ele>
        <time>2013-01-28T04:16:42Z</time>
      </trkpt>
      <trkpt lat="-21.16382" lon="55.44062">
        <ele>792</ele>
        <time>2013-01-28T04:16:52Z</time>
      </trkpt>
      <trkpt lat="-21.16376" lon="55.44064">
        <ele>794</ele>
        <time>2013-01-28T04:17:02Z</time>
      </trkpt>
      <trkpt lat="-21.1637" lon="55.44067">
        <ele>796</ele>
        <time>2013-01-28T04:17:12Z</time>
      </trkpt>
      <trkpt lat="-21.16364" lon="55.44069">
        <ele>798</ele>
        <time>2013-01-28T04:17:22Z</time>
      </trkpt>
      <trkpt lat="-21.1636" lon="55.4406">
        <ele>800</ele>
        <time>2013-01-28T04:17:32Z</time>
      </trkpt>
      <trkpt lat="-21.16357" lon="55.44064">
        <ele>801</ele>
        <time>2013-01-28T04:17:42Z</time>
      </trkpt>
      <trkpt lat="-21.16353" lon="55.44073">
        <ele>805</ele>
        <time>2013-01-28T04:17:52Z</time>
      </trkpt>
      <trkpt lat="-21.16356" lon="55.44073">
        <ele>806</ele>
        <time>2013-01-28T04:18:02Z</time>
      </trkpt>
      <trkpt lat="-21.16363" lon="55.44074">
        <ele>807</ele>
        <time>2013-01-28T04:18:12Z</time>
      </trkpt>
      <trkpt lat="-21.16371" lon="55.44077">
        <ele>810</ele>
        <time>2013-01-28T04:18:23Z</time>
      </trkpt>
      <trkpt lat="-21.16374" lon="55.44078">
        <ele>811</ele>
        <time>2013-01-28T04:18:33Z</time>
      </trkpt>
      <trkpt lat="-21.16375" lon="55.44085">
        <ele>813</ele>
        <time>2013-01-28T04:18:43Z</time>
      </trkpt>
      <trkpt lat="-21.1637" lon="55.44088">
        <ele>816</ele>
        <time>2013-01-28T04:18:53Z</time>
      </trkpt>
      <trkpt lat="-21.16373" lon="55.4409">
        <ele>817</ele>
        <time>2013-01-28T04:19:03Z</time>
      </trkpt>
      <trkpt lat="-21.16372" lon="55.44089">
        <ele>818</ele>
        <time>2013-01-28T04:19:13Z</time>
      </trkpt>
      <trkpt lat="-21.16368" lon="55.44089">
        <ele>819</ele>
        <time>2013-01-28T04:19:23Z</time>
      </trkpt>
      <trkpt lat="-21.16368" lon="55.4409">
        <ele>821</ele>
        <time>2013-01-28T04:19:33Z</time>
      </trkpt>
      <trkpt lat="-21.16367" lon="55.44091">
        <ele>823</ele>
        <time>2013-01-28T04:19:43Z</time>
      </trkpt>
      <trkpt lat="-21.1636" lon="55.44091">
        <ele>825</ele>
        <time>2013-01-28T04:19:53Z</time>
      </trkpt>
      <trkpt lat="-21.16355" lon="55.4409">
        <ele>827</ele>
        <time>2013-01-28T04:20:03Z</time>
      </trkpt>
      <trkpt lat="-21.16356" lon="55.44087">
        <ele>829</ele>
        <time>2013-01-28T04:20:13Z</time>
      </trkpt>
      <trkpt lat="-21.1636" lon="55.44088">
        <ele>830</ele>
        <time>2013-01-28T04:20:23Z</time>
      </trkpt>
      <trkpt lat="-21.16361" lon="55.44095">
        <ele>831</ele>
        <time>2013-01-28T04:20:33Z</time>
      </trkpt>
      <trkpt lat="-21.16357" lon="55.44094">
        <ele>834</ele>
        <time>2013-01-28T04:20:43Z</time>
      </trkpt>
      <trkpt lat="-21.16356" lon="55.44095">
        <ele>835</ele>
        <time>2013-01-28T04:20:53Z</time>
      </trkpt>
      <trkpt lat="-21.16359" lon="55.44101">
        <ele>837</ele>
        <time>2013-01-28T04:21:03Z</time>
      </trkpt>
      <trkpt lat="-21.16363" lon="55.44099">
        <ele>839</ele>
        <time>2013-01-28T04:21:14Z</time>
      </trkpt>
      <trkpt lat="-21.16364" lon="55.441">
        <ele>840</ele>
        <time>2013-01-28T04:21:24Z</time>
      </trkpt>
      <trkpt lat="-21.16357" lon="55.44103">
        <ele>842</ele>
        <time>2013-01-28T04:21:34Z</time>
      </trkpt>
      <trkpt lat="-21.16352" lon="55.44104">
        <ele>844</ele>
        <time>2013-01-28T04:21:44Z</time>
      </trkpt>
      <trkpt lat="-21.16358" lon="55.44105">
        <ele>846</ele>
        <time>2013-01-28T04:21:54Z</time>
      </trkpt>
      <trkpt lat="-21.16364" lon="55.44106">
        <ele>848</ele>
        <time>2013-01-28T04:22:04Z</time>
      </trkpt>
      <trkpt lat="-21.1636" lon="55.4411">
        <ele>849</ele>
        <time>2013-01-28T04:22:14Z</time>
      </trkpt>
      <trkpt lat="-21.16358" lon="55.44113">
        <ele>849</ele>
        <time>2013-01-28T04:22:24Z</time>
      </trkpt>
      <trkpt lat="-21.16352" lon="55.44113">
        <ele>850</ele>
        <time>2013-01-28T04:22:34Z</time>
      </trkpt>
      <trkpt lat="-21.16343" lon="55.44114">
        <ele>851</ele>
        <time>2013-01-28T04:22:44Z</time>
      </trkpt>
      <trkpt lat="-21.16337" lon="55.44107">
        <ele>852</ele>
        <time>2013-01-28T04:22:54Z</time>
      </trkpt>
      <trkpt lat="-21.16334" lon="55.44112">
        <ele>855</ele>
        <time>2013-01-28T04:23:04Z</time>
      </trkpt>
      <trkpt lat="-21.1633" lon="55.44111">
        <ele>857</ele>
        <time>2013-01-28T04:23:14Z</time>
      </trkpt>
      <trkpt lat="-21.16327" lon="55.4411">
        <ele>857</ele>
        <time>2013-01-28T04:23:25Z</time>
      </trkpt>
      <trkpt lat="-21.16322" lon="55.44113">
        <ele>860</ele>
        <time>2013-01-28T04:23:35Z</time>
      </trkpt>
      <trkpt lat="-21.16314" lon="55.44116">
        <ele>862</ele>
        <time>2013-01-28T04:23:45Z</time>
      </trkpt>
      <trkpt lat="-21.16306" lon="55.44116">
        <ele>863</ele>
        <time>2013-01-28T04:23:55Z</time>
      </trkpt>
      <trkpt lat="-21.16303" lon="55.44112">
        <ele>864</ele>
        <time>2013-01-28T04:24:05Z</time>
      </trkpt>
      <trkpt lat="-21.163" lon="55.44112">
        <ele>866</ele>
        <time>2013-01-28T04:24:15Z</time>
      </trkpt>
      <trkpt lat="-21.16296" lon="55.44106">
        <ele>868</ele>
        <time>2013-01-28T04:24:25Z</time>
      </trkpt>
      <trkpt lat="-21.16292" lon="55.44099">
        <ele>870</ele>
        <time>2013-01-28T04:24:35Z</time>
      </trkpt>
      <trkpt lat="-21.16289" lon="55.44091">
        <ele>872</ele>
        <time>2013-01-28T04:24:45Z</time>
      </trkpt>
      <trkpt lat="-21.16285" lon="55.44097">
        <ele>874</ele>
        <time>2013-01-28T04:24:55Z</time>
      </trkpt>
      <trkpt lat="-21.16278" lon="55.44101">
        <ele>876</ele>
        <time>2013-01-28T04:25:05Z</time>
      </trkpt>
      <trkpt lat="-21.16271" lon="55.44107">
        <ele>878</ele>
        <time>2013-01-28T04:25:15Z</time>
      </trkpt>
      <trkpt lat="-21.16262" lon="55.44111">
        <ele>880</ele>
        <time>2013-01-28T04:25:26Z</time>
      </trkpt>
      <trkpt lat="-21.16261" lon="55.44115">
        <ele>883</ele>
        <time>2013-01-28T04:25:36Z</time>
      </trkpt>
      <trkpt lat="-21.16269" lon="55.44116">
        <ele>884</ele>
        <time>2013-01-28T04:25:46Z</time>
      </trkpt>
      <trkpt lat="-21.1627" lon="55.44117">
        <ele>885</ele>
        <time>2013-01-28T04:25:56Z</time>
      </trkpt>
      <trkpt lat="-21.16271" lon="55.44118">
        <ele>886</ele>
        <time>2013-01-28T04:26:06Z</time>
      </trkpt>
      <trkpt lat="-21.16264" lon="55.44122">
        <ele>886</ele>
        <time>2013-01-28T04:26:16Z</time>
      </trkpt>
      <trkpt lat="-21.16252" lon="55.44122">
        <ele>887</ele>
        <time>2013-01-28T04:26:26Z</time>
      </trkpt>
      <trkpt lat="-21.16243" lon="55.4412">
        <ele>888</ele>
        <time>2013-01-28T04:26:36Z</time>
      </trkpt>
      <trkpt lat="-21.16241" lon="55.4412">
        <ele>889</ele>
        <time>2013-01-28T04:26:46Z</time>
      </trkpt>
      <trkpt lat="-21.16233" lon="55.44115">
        <ele>889</ele>
        <time>2013-01-28T04:26:56Z</time>
      </trkpt>
      <trkpt lat="-21.16224" lon="55.44115">
        <ele>892</ele>
        <time>2013-01-28T04:27:06Z</time>
      </trkpt>
      <trkpt lat="-21.16213" lon="55.44115">
        <ele>894</ele>
        <time>2013-01-28T04:27:16Z</time>
      </trkpt>
      <trkpt lat="-21.16204" lon="55.44115">
        <ele>896</ele>
        <time>2013-01-28T04:27:26Z</time>
      </trkpt>
      <trkpt lat="-21.16202" lon="55.44117">
        <ele>898</ele>
        <time>2013-01-28T04:27:36Z</time>
      </trkpt>
      <trkpt lat="-21.16202" lon="55.44117">
        <ele>898</ele>
        <time>2013-01-28T04:27:46Z</time>
      </trkpt>
      <trkpt lat="-21.16202" lon="55.44117">
        <ele>897</ele>
        <time>2013-01-28T04:27:56Z</time>
      </trkpt>
      <trkpt lat="-21.16201" lon="55.44117">
        <ele>897</ele>
        <time>2013-01-28T04:28:06Z</time>
      </trkpt>
      <trkpt lat="-21.16201" lon="55.44116">
        <ele>897</ele>
        <time>2013-01-28T04:28:16Z</time>
      </trkpt>
      <trkpt lat="-21.16205" lon="55.44109">
        <ele>898</ele>
        <time>2013-01-28T04:28:26Z</time>
      </trkpt>
      <trkpt lat="-21.16197" lon="55.44105">
        <ele>901</ele>
        <time>2013-01-28T04:28:36Z</time>
      </trkpt>
      <trkpt lat="-21.16191" lon="55.44099">
        <ele>903</ele>
        <time>2013-01-28T04:28:46Z</time>
      </trkpt>
      <trkpt lat="-21.16192" lon="55.44091">
        <ele>904</ele>
        <time>2013-01-28T04:28:56Z</time>
      </trkpt>
      <trkpt lat="-21.16193" lon="55.44083">
        <ele>907</ele>
        <time>2013-01-28T04:29:07Z</time>
      </trkpt>
      <trkpt lat="-21.16188" lon="55.44078">
        <ele>910</ele>
        <time>2013-01-28T04:29:17Z</time>
      </trkpt>
      <trkpt lat="-21.1618" lon="55.44075">
        <ele>912</ele>
        <time>2013-01-28T04:29:27Z</time>
      </trkpt>
      <trkpt lat="-21.16171" lon="55.44078">
        <ele>913</ele>
        <time>2013-01-28T04:29:37Z</time>
      </trkpt>
      <trkpt lat="-21.16165" lon="55.4408">
        <ele>915</ele>
        <time>2013-01-28T04:29:47Z</time>
      </trkpt>
      <trkpt lat="-21.1616" lon="55.44082">
        <ele>917</ele>
        <time>2013-01-28T04:29:57Z</time>
      </trkpt>
      <trkpt lat="-21.16154" lon="55.44087">
        <ele>920</ele>
        <time>2013-01-28T04:30:07Z</time>
      </trkpt>
      <trkpt lat="-21.16152" lon="55.44093">
        <ele>922</ele>
        <time>2013-01-28T04:30:17Z</time>
      </trkpt>
      <trkpt lat="-21.16146" lon="55.44099">
        <ele>924</ele>
        <time>2013-01-28T04:30:27Z</time>
      </trkpt>
      <trkpt lat="-21.16139" lon="55.44096">
        <ele>926</ele>
        <time>2013-01-28T04:30:37Z</time>
      </trkpt>
      <trkpt lat="-21.16131" lon="55.441">
        <ele>928</ele>
        <time>2013-01-28T04:30:47Z</time>
      </trkpt>
      <trkpt lat="-21.16123" lon="55.44097">
        <ele>929</ele>
        <time>2013-01-28T04:30:57Z</time>
      </trkpt>
      <trkpt lat="-21.16119" lon="55.44096">
        <ele>932</ele>
        <time>2013-01-28T04:31:07Z</time>
      </trkpt>
      <trkpt lat="-21.16119" lon="55.44096">
        <ele>931</ele>
        <time>2013-01-28T04:31:17Z</time>
      </trkpt>
      <trkpt lat="-21.16119" lon="55.44093">
        <ele>931</ele>
        <time>2013-01-28T04:31:27Z</time>
      </trkpt>
      <trkpt lat="-21.16123" lon="55.44088">
        <ele>933</ele>
        <time>2013-01-28T04:31:37Z</time>
      </trkpt>
      <trkpt lat="-21.16116" lon="55.44086">
        <ele>935</ele>
        <time>2013-01-28T04:31:47Z</time>
      </trkpt>
      <trkpt lat="-21.1612" lon="55.44081">
        <ele>937</ele>
        <time>2013-01-28T04:31:57Z</time>
      </trkpt>
      <trkpt lat="-21.16126" lon="55.44077">
        <ele>939</ele>
        <time>2013-01-28T04:32:08Z</time>
      </trkpt>
      <trkpt lat="-21.16133" lon="55.44071">
        <ele>942</ele>
        <time>2013-01-28T04:32:18Z</time>
      </trkpt>
      <trkpt lat="-21.16137" lon="55.44065">
        <ele>944</ele>
        <time>2013-01-28T04:32:28Z</time>
      </trkpt>
      <trkpt lat="-21.1613" lon="55.44064">
        <ele>947</ele>
        <time>2013-01-28T04:32:38Z</time>
      </trkpt>
      <trkpt lat="-21.16137" lon="55.44059">
        <ele>948</ele>
        <time>2013-01-28T04:32:48Z</time>
      </trkpt>
      <trkpt lat="-21.16138" lon="55.44058">
        <ele>950</ele>
        <time>2013-01-28T04:32:58Z</time>
      </trkpt>
      <trkpt lat="-21.16138" lon="55.44058">
        <ele>950</ele>
        <time>2013-01-28T04:33:08Z</time>
      </trkpt>
      <trkpt lat="-21.16139" lon="55.44057">
        <ele>950</ele>
        <time>2013-01-28T04:33:18Z</time>
      </trkpt>
      <trkpt lat="-21.1614" lon="55.44056">
        <ele>951</ele>
        <time>2013-01-28T04:33:28Z</time>
      </trkpt>
      <trkpt lat="-21.16134" lon="55.44056">
        <ele>952</ele>
        <time>2013-01-28T04:33:38Z</time>
      </trkpt>
      <trkpt lat="-21.16125" lon="55.44056">
        <ele>954</ele>
        <time>2013-01-28T04:33:48Z</time>
      </trkpt>
      <trkpt lat="-21.16116" lon="55.44052">
        <ele>955</ele>
        <time>2013-01-28T04:33:58Z</time>
      </trkpt>
      <trkpt lat="-21.16108" lon="55.44049">
        <ele>958</ele>
        <time>2013-01-28T04:34:08Z</time>
      </trkpt>
      <trkpt lat="-21.16103" lon="55.44045">
        <ele>959</ele>
        <time>2013-01-28T04:34:18Z</time>
      </trkpt>
      <trkpt lat="-21.16109" lon="55.44043">
        <ele>961</ele>
        <time>2013-01-28T04:34:28Z</time>
      </trkpt>
      <trkpt lat="-21.16102" lon="55.44041">
        <ele>963</ele>
        <time>2013-01-28T04:34:38Z</time>
      </trkpt>
      <trkpt lat="-21.16102" lon="55.44039">
        <ele>964</ele>
        <time>2013-01-28T04:34:48Z</time>
      </trkpt>
      <trkpt lat="-21.16104" lon="55.44037">
        <ele>965</ele>
        <time>2013-01-28T04:34:58Z</time>
      </trkpt>
      <trkpt lat="-21.16109" lon="55.44034">
        <ele>967</ele>
        <time>2013-01-28T04:35:09Z</time>
      </trkpt>
      <trkpt lat="-21.16113" lon="55.44029">
        <ele>970</ele>
        <time>2013-01-28T04:35:19Z</time>
      </trkpt>
      <trkpt lat="-21.16111" lon="55.44028">
        <ele>970</ele>
        <time>2013-01-28T04:35:29Z</time>
      </trkpt>
      <trkpt lat="-21.16106" lon="55.44025">
        <ele>972</ele>
        <time>2013-01-28T04:35:39Z</time>
      </trkpt>
      <trkpt lat="-21.16105" lon="55.4402">
        <ele>974</ele>
        <time>2013-01-28T04:35:49Z</time>
      </trkpt>
      <trkpt lat="-21.16095" lon="55.44019">
        <ele>976</ele>
        <time>2013-01-28T04:35:59Z</time>
      </trkpt>
      <trkpt lat="-21.16091" lon="55.44018">
        <ele>978</ele>
        <time>2013-01-28T04:36:09Z</time>
      </trkpt>
      <trkpt lat="-21.16082" lon="55.44016">
        <ele>979</ele>
        <time>2013-01-28T04:36:19Z</time>
      </trkpt>
      <trkpt lat="-21.1608" lon="55.44017">
        <ele>981</ele>
        <time>2013-01-28T04:36:29Z</time>
      </trkpt>
      <trkpt lat="-21.1608" lon="55.44017">
        <ele>979</ele>
        <time>2013-01-28T04:36:39Z</time>
      </trkpt>
      <trkpt lat="-21.1608" lon="55.44018">
        <ele>979</ele>
        <time>2013-01-28T04:36:49Z</time>
      </trkpt>
      <trkpt lat="-21.1608" lon="55.44018">
        <ele>979</ele>
        <time>2013-01-28T04:36:59Z</time>
      </trkpt>
      <trkpt lat="-21.16082" lon="55.44018">
        <ele>978</ele>
        <time>2013-01-28T04:37:09Z</time>
      </trkpt>
      <trkpt lat="-21.16083" lon="55.44018">
        <ele>979</ele>
        <time>2013-01-28T04:37:19Z</time>
      </trkpt>
      <trkpt lat="-21.16083" lon="55.44019">
        <ele>978</ele>
        <time>2013-01-28T04:37:29Z</time>
      </trkpt>
      <trkpt lat="-21.16083" lon="55.44019">
        <ele>979</ele>
        <time>2013-01-28T04:37:39Z</time>
      </trkpt>
      <trkpt lat="-21.16081" lon="55.44019">
        <ele>979</ele>
        <time>2013-01-28T04:37:49Z</time>
      </trkpt>
      <trkpt lat="-21.16079" lon="55.44019">
        <ele>980</ele>
        <time>2013-01-28T04:38:00Z</time>
      </trkpt>
      <trkpt lat="-21.16075" lon="55.44019">
        <ele>979</ele>
        <time>2013-01-28T04:38:10Z</time>
      </trkpt>
      <trkpt lat="-21.16068" lon="55.44017">
        <ele>982</ele>
        <time>2013-01-28T04:38:20Z</time>
      </trkpt>
      <trkpt lat="-21.16065" lon="55.44013">
        <ele>982</ele>
        <time>2013-01-28T04:38:30Z</time>
      </trkpt>
      <trkpt lat="-21.16074" lon="55.44009">
        <ele>983</ele>
        <time>2013-01-28T04:38:40Z</time>
      </trkpt>
      <trkpt lat="-21.16081" lon="55.44003">
        <ele>984</ele>
        <time>2013-01-28T04:38:50Z</time>
      </trkpt>
      <trkpt lat="-21.16079" lon="55.43998">
        <ele>986</ele>
        <time>2013-01-28T04:39:00Z</time>
      </trkpt>
      <trkpt lat="-21.1608" lon="55.43999">
        <ele>986</ele>
        <time>2013-01-28T04:39:10Z</time>
      </trkpt>
      <trkpt lat="-21.16076" lon="55.43999">
        <ele>986</ele>
        <time>2013-01-28T04:39:20Z</time>
      </trkpt>
      <trkpt lat="-21.16068" lon="55.43998">
        <ele>987</ele>
        <time>2013-01-28T04:39:30Z</time>
      </trkpt>
      <trkpt lat="-21.16058" lon="55.43999">
        <ele>990</ele>
        <time>2013-01-28T04:39:40Z</time>
      </trkpt>
      <trkpt lat="-21.16048" lon="55.43997">
        <ele>992</ele>
        <time>2013-01-28T04:39:50Z</time>
      </trkpt>
      <trkpt lat="-21.16039" lon="55.43995">
        <ele>993</ele>
        <time>2013-01-28T04:40:00Z</time>
      </trkpt>
      <trkpt lat="-21.1603" lon="55.43993">
        <ele>995</ele>
        <time>2013-01-28T04:40:10Z</time>
      </trkpt>
      <trkpt lat="-21.1602" lon="55.4399">
        <ele>996</ele>
        <time>2013-01-28T04:40:20Z</time>
      </trkpt>
      <trkpt lat="-21.16012" lon="55.43986">
        <ele>998</ele>
        <time>2013-01-28T04:40:30Z</time>
      </trkpt>
      <trkpt lat="-21.16011" lon="55.43984">
        <ele>1000</ele>
        <time>2013-01-28T04:40:41Z</time>
      </trkpt>
      <trkpt lat="-21.16011" lon="55.43985">
        <ele>1000</ele>
        <time>2013-01-28T04:40:51Z</time>
      </trkpt>
      <trkpt lat="-21.16011" lon="55.43985">
        <ele>1002</ele>
        <time>2013-01-28T04:41:01Z</time>
      </trkpt>
      <trkpt lat="-21.16014" lon="55.43984">
        <ele>999</ele>
        <time>2013-01-28T04:41:11Z</time>
      </trkpt>
      <trkpt lat="-21.16024" lon="55.43982">
        <ele>1001</ele>
        <time>2013-01-28T04:41:21Z</time>
      </trkpt>
      <trkpt lat="-21.16021" lon="55.43975">
        <ele>1003</ele>
        <time>2013-01-28T04:41:31Z</time>
      </trkpt>
      <trkpt lat="-21.16017" lon="55.43963">
        <ele>1005</ele>
        <time>2013-01-28T04:41:41Z</time>
      </trkpt>
      <trkpt lat="-21.16012" lon="55.43951">
        <ele>1006</ele>
        <time>2013-01-28T04:41:51Z</time>
      </trkpt>
      <trkpt lat="-21.16008" lon="55.4394">
        <ele>1008</ele>
        <time>2013-01-28T04:42:01Z</time>
      </trkpt>
      <trkpt lat="-21.16002" lon="55.43931">
        <ele>1010</ele>
        <time>2013-01-28T04:42:11Z</time>
      </trkpt>
      <trkpt lat="-21.15997" lon="55.43924">
        <ele>1013</ele>
        <time>2013-01-28T04:42:21Z</time>
      </trkpt>
      <trkpt lat="-21.15993" lon="55.43919">
        <ele>1015</ele>
        <time>2013-01-28T04:42:31Z</time>
      </trkpt>
      <trkpt lat="-21.15992" lon="55.43919">
        <ele>1016</ele>
        <time>2013-01-28T04:42:42Z</time>
      </trkpt>
      <trkpt lat="-21.15992" lon="55.43919">
        <ele>1016</ele>
        <time>2013-01-28T04:42:52Z</time>
      </trkpt>
      <trkpt lat="-21.1599" lon="55.43919">
        <ele>1017</ele>
        <time>2013-01-28T04:43:02Z</time>
      </trkpt>
      <trkpt lat="-21.15984" lon="55.4392">
        <ele>1018</ele>
        <time>2013-01-28T04:43:12Z</time>
      </trkpt>
      <trkpt lat="-21.15983" lon="55.4392">
        <ele>1020</ele>
        <time>2013-01-28T04:43:22Z</time>
      </trkpt>
      <trkpt lat="-21.15982" lon="55.43921">
        <ele>1020</ele>
        <time>2013-01-28T04:43:32Z</time>
      </trkpt>
      <trkpt lat="-21.15977" lon="55.43919">
        <ele>1020</ele>
        <time>2013-01-28T04:43:42Z</time>
      </trkpt>
      <trkpt lat="-21.15967" lon="55.43918">
        <ele>1022</ele>
        <time>2013-01-28T04:43:52Z</time>
      </trkpt>
      <trkpt lat="-21.15959" lon="55.43913">
        <ele>1024</ele>
        <time>2013-01-28T04:44:02Z</time>
      </trkpt>
      <trkpt lat="-21.15962" lon="55.43905">
        <ele>1025</ele>
        <time>2013-01-28T04:44:12Z</time>
      </trkpt>
      <trkpt lat="-21.15956" lon="55.43898">
        <ele>1028</ele>
        <time>2013-01-28T04:44:22Z</time>
      </trkpt>
      <trkpt lat="-21.15954" lon="55.43894">
        <ele>1030</ele>
        <time>2013-01-28T04:44:32Z</time>
      </trkpt>
      <trkpt lat="-21.15951" lon="55.4389">
        <ele>1029</ele>
        <time>2013-01-28T04:44:42Z</time>
      </trkpt>
      <trkpt lat="-21.15943" lon="55.43885">
        <ele>1031</ele>
        <time>2013-01-28T04:44:53Z</time>
      </trkpt>
      <trkpt lat="-21.15936" lon="55.43879">
        <ele>1033</ele>
        <time>2013-01-28T04:45:03Z</time>
      </trkpt>
      <trkpt lat="-21.15928" lon="55.4388">
        <ele>1035</ele>
        <time>2013-01-28T04:45:13Z</time>
      </trkpt>
      <trkpt lat="-21.15922" lon="55.43885">
        <ele>1038</ele>
        <time>2013-01-28T04:45:23Z</time>
      </trkpt>
      <trkpt lat="-21.15914" lon="55.43891">
        <ele>1041</ele>
        <time>2013-01-28T04:45:33Z</time>
      </trkpt>
      <trkpt lat="-21.15907" lon="55.43887">
        <ele>1042</ele>
        <time>2013-01-28T04:45:43Z</time>
      </trkpt>
      <trkpt lat="-21.15909" lon="55.43883">
        <ele>1044</ele>
        <time>2013-01-28T04:45:53Z</time>
      </trkpt>
      <trkpt lat="-21.15902" lon="55.43876">
        <ele>1045</ele>
        <time>2013-01-28T04:46:03Z</time>
      </trkpt>
      <trkpt lat="-21.15894" lon="55.43867">
        <ele>1048</ele>
        <time>2013-01-28T04:46:13Z</time>
      </trkpt>
      <trkpt lat="-21.15887" lon="55.43858">
        <ele>1048</ele>
        <time>2013-01-28T04:46:23Z</time>
      </trkpt>
      <trkpt lat="-21.15882" lon="55.43854">
        <ele>1048</ele>
        <time>2013-01-28T04:46:33Z</time>
      </trkpt>
      <trkpt lat="-21.1587" lon="55.43852">
        <ele>1049</ele>
        <time>2013-01-28T04:46:43Z</time>
      </trkpt>
      <trkpt lat="-21.15857" lon="55.43858">
        <ele>1049</ele>
        <time>2013-01-28T04:46:53Z</time>
      </trkpt>
      <trkpt lat="-21.1585" lon="55.43862">
        <ele>1050</ele>
        <time>2013-01-28T04:47:04Z</time>
      </trkpt>
      <trkpt lat="-21.1585" lon="55.43861">
        <ele>1050</ele>
        <time>2013-01-28T04:47:14Z</time>
      </trkpt>
      <trkpt lat="-21.1585" lon="55.43861">
        <ele>1050</ele>
        <time>2013-01-28T04:47:24Z</time>
      </trkpt>
      <trkpt lat="-21.15849" lon="55.4386">
        <ele>1050</ele>
        <time>2013-01-28T04:47:34Z</time>
      </trkpt>
      <trkpt lat="-21.15842" lon="55.43856">
        <ele>1051</ele>
        <time>2013-01-28T04:47:44Z</time>
      </trkpt>
      <trkpt lat="-21.15834" lon="55.43852">
        <ele>1052</ele>
        <time>2013-01-28T04:47:54Z</time>
      </trkpt>
      <trkpt lat="-21.15821" lon="55.4385">
        <ele>1053</ele>
        <time>2013-01-28T04:48:04Z</time>
      </trkpt>
      <trkpt lat="-21.15813" lon="55.43844">
        <ele>1053</ele>
        <time>2013-01-28T04:48:14Z</time>
      </trkpt>
      <trkpt lat="-21.1581" lon="55.43837">
        <ele>1055</ele>
        <time>2013-01-28T04:48:24Z</time>
      </trkpt>
      <trkpt lat="-21.15807" lon="55.43833">
        <ele>1056</ele>
        <time>2013-01-28T04:48:34Z</time>
      </trkpt>
      <trkpt lat="-21.15804" lon="55.43832">
        <ele>1059</ele>
        <time>2013-01-28T04:48:44Z</time>
      </trkpt>
      <trkpt lat="-21.15799" lon="55.43835">
        <ele>1061</ele>
        <time>2013-01-28T04:48:54Z</time>
      </trkpt>
      <trkpt lat="-21.15796" lon="55.43831">
        <ele>1062</ele>
        <time>2013-01-28T04:49:04Z</time>
      </trkpt>
      <trkpt lat="-21.15791" lon="55.43832">
        <ele>1064</ele>
        <time>2013-01-28T04:49:14Z</time>
      </trkpt>
      <trkpt lat="-21.15785" lon="55.43834">
        <ele>1066</ele>
        <time>2013-01-28T04:49:24Z</time>
      </trkpt>
      <trkpt lat="-21.15788" lon="55.43833">
        <ele>1066</ele>
        <time>2013-01-28T04:49:35Z</time>
      </trkpt>
      <trkpt lat="-21.15793" lon="55.43827">
        <ele>1065</ele>
        <time>2013-01-28T04:49:45Z</time>
      </trkpt>
      <trkpt lat="-21.15787" lon="55.43821">
        <ele>1064</ele>
        <time>2013-01-28T04:49:55Z</time>
      </trkpt>
      <trkpt lat="-21.15777" lon="55.43821">
        <ele>1066</ele>
        <time>2013-01-28T04:50:05Z</time>
      </trkpt>
      <trkpt lat="-21.15769" lon="55.43814">
        <ele>1067</ele>
        <time>2013-01-28T04:50:15Z</time>
      </trkpt>
      <trkpt lat="-21.15772" lon="55.43802">
        <ele>1066</ele>
        <time>2013-01-28T04:50:25Z</time>
      </trkpt>
      <trkpt lat="-21.15773" lon="55.43801">
        <ele>1066</ele>
        <time>2013-01-28T04:50:35Z</time>
      </trkpt>
      <trkpt lat="-21.15773" lon="55.43801">
        <ele>1065</ele>
        <time>2013-01-28T04:50:45Z</time>
      </trkpt>
      <trkpt lat="-21.15775" lon="55.43797">
        <ele>1066</ele>
        <time>2013-01-28T04:50:55Z</time>
      </trkpt>
      <trkpt lat="-21.15784" lon="55.4379">
        <ele>1065</ele>
        <time>2013-01-28T04:51:05Z</time>
      </trkpt>
      <trkpt lat="-21.15786" lon="55.43788">
        <ele>1065</ele>
        <time>2013-01-28T04:51:15Z</time>
      </trkpt>
      <trkpt lat="-21.15786" lon="55.43788">
        <ele>1065</ele>
        <time>2013-01-28T04:51:25Z</time>
      </trkpt>
      <trkpt lat="-21.15786" lon="55.43788">
        <ele>1065</ele>
        <time>2013-01-28T04:51:35Z</time>
      </trkpt>
      <trkpt lat="-21.15787" lon="55.43784">
        <ele>1065</ele>
        <time>2013-01-28T04:51:46Z</time>
      </trkpt>
      <trkpt lat="-21.15785" lon="55.43777">
        <ele>1066</ele>
        <time>2013-01-28T04:51:56Z</time>
      </trkpt>
      <trkpt lat="-21.15784" lon="55.43776">
        <ele>1067</ele>
        <time>2013-01-28T04:52:06Z</time>
      </trkpt>
      <trkpt lat="-21.15783" lon="55.43773">
        <ele>1067</ele>
        <time>2013-01-28T04:52:16Z</time>
      </trkpt>
      <trkpt lat="-21.15779" lon="55.43768">
        <ele>1069</ele>
        <time>2013-01-28T04:52:26Z</time>
      </trkpt>
      <trkpt lat="-21.1578" lon="55.43766">
        <ele>1070</ele>
        <time>2013-01-28T04:52:36Z</time>
      </trkpt>
      <trkpt lat="-21.15781" lon="55.4376">
        <ele>1070</ele>
        <time>2013-01-28T04:52:46Z</time>
      </trkpt>
      <trkpt lat="-21.15783" lon="55.43755">
        <ele>1072</ele>
        <time>2013-01-28T04:52:56Z</time>
      </trkpt>
      <trkpt lat="-21.15784" lon="55.43748">
        <ele>1073</ele>
        <time>2013-01-28T04:53:06Z</time>
      </trkpt>
      <trkpt lat="-21.15784" lon="55.43743">
        <ele>1075</ele>
        <time>2013-01-28T04:53:16Z</time>
      </trkpt>
      <trkpt lat="-21.15783" lon="55.43739">
        <ele>1076</ele>
        <time>2013-01-28T04:53:26Z</time>
      </trkpt>
      <trkpt lat="-21.15784" lon="55.43737">
        <ele>1077</ele>
        <time>2013-01-28T04:53:36Z</time>
      </trkpt>
      <trkpt lat="-21.15784" lon="55.43738">
        <ele>1077</ele>
        <time>2013-01-28T04:53:46Z</time>
      </trkpt>
      <trkpt lat="-21.15784" lon="55.43739">
        <ele>1077</ele>
        <time>2013-01-28T04:53:57Z</time>
      </trkpt>
      <trkpt lat="-21.15783" lon="55.43735">
        <ele>1077</ele>
        <time>2013-01-28T04:54:07Z</time>
      </trkpt>
      <trkpt lat="-21.15782" lon="55.43724">
        <ele>1079</ele>
        <time>2013-01-28T04:54:17Z</time>
      </trkpt>
      <trkpt lat="-21.15779" lon="55.43714">
        <ele>1081</ele>
        <time>2013-01-28T04:54:27Z</time>
      </trkpt>
      <trkpt lat="-21.15776" lon="55.43705">
        <ele>1083</ele>
        <time>2013-01-28T04:54:37Z</time>
      </trkpt>
      <trkpt lat="-21.15774" lon="55.437">
        <ele>1085</ele>
        <time>2013-01-28T04:54:47Z</time>
      </trkpt>
      <trkpt lat="-21.15773" lon="55.43696">
        <ele>1086</ele>
        <time>2013-01-28T04:54:57Z</time>
      </trkpt>
      <trkpt lat="-21.15772" lon="55.43695">
        <ele>1086</ele>
        <time>2013-01-28T04:55:07Z</time>
      </trkpt>
      <trkpt lat="-21.15773" lon="55.43689">
        <ele>1086</ele>
        <time>2013-01-28T04:55:17Z</time>
      </trkpt>
      <trkpt lat="-21.15776" lon="55.43677">
        <ele>1087</ele>
        <time>2013-01-28T04:55:27Z</time>
      </trkpt>
      <trkpt lat="-21.1578" lon="55.43672">
        <ele>1087</ele>
        <time>2013-01-28T04:55:37Z</time>
      </trkpt>
      <trkpt lat="-21.15785" lon="55.43663">
        <ele>1088</ele>
        <time>2013-01-28T04:55:47Z</time>
      </trkpt>
      <trkpt lat="-21.15787" lon="55.43655">
        <ele>1090</ele>
        <time>2013-01-28T04:55:57Z</time>
      </trkpt>
      <trkpt lat="-21.15791" lon="55.43648">
        <ele>1089</ele>
        <time>2013-01-28T04:56:07Z</time>
      </trkpt>
      <trkpt lat="-21.15795" lon="55.43639">
        <ele>1087</ele>
        <time>2013-01-28T04:56:17Z</time>
      </trkpt>
      <trkpt lat="-21.15796" lon="55.43636">
        <ele>1087</ele>
        <time>2013-01-28T04:56:27Z</time>
      </trkpt>
      <trkpt lat="-21.158" lon="55.43624">
        <ele>1085</ele>
        <time>2013-01-28T04:56:37Z</time>
      </trkpt>
      <trkpt lat="-21.15802" lon="55.43611">
        <ele>1085</ele>
        <time>2013-01-28T04:56:47Z</time>
      </trkpt>
      <trkpt lat="-21.15799" lon="55.43601">
        <ele>1085</ele>
        <time>2013-01-28T04:56:57Z</time>
      </trkpt>
      <trkpt lat="-21.15788" lon="55.43596">
        <ele>1084</ele>
        <time>2013-01-28T04:57:07Z</time>
      </trkpt>
      <trkpt lat="-21.15778" lon="55.43589">
        <ele>1084</ele>
        <time>2013-01-28T04:57:17Z</time>
      </trkpt>
      <trkpt lat="-21.15768" lon="55.43582">
        <ele>1084</ele>
        <time>2013-01-28T04:57:27Z</time>
      </trkpt>
      <trkpt lat="-21.15756" lon="55.43577">
        <ele>1084</ele>
        <time>2013-01-28T04:57:38Z</time>
      </trkpt>
      <trkpt lat="-21.15746" lon="55.4357">
        <ele>1084</ele>
        <time>2013-01-28T04:57:48Z</time>
      </trkpt>
      <trkpt lat="-21.15739" lon="55.43562">
        <ele>1083</ele>
        <time>2013-01-28T04:57:58Z</time>
      </trkpt>
      <trkpt lat="-21.15738" lon="55.43561">
        <ele>1084</ele>
        <time>2013-01-28T04:58:08Z</time>
      </trkpt>
      <trkpt lat="-21.15741" lon="55.43562">
        <ele>1084</ele>
        <time>2013-01-28T04:58:18Z</time>
      </trkpt>
      <trkpt lat="-21.15741" lon="55.43562">
        <ele>1084</ele>
        <time>2013-01-28T04:58:28Z</time>
      </trkpt>
      <trkpt lat="-21.15741" lon="55.43561">
        <ele>1084</ele>
        <time>2013-01-28T04:58:38Z</time>
      </trkpt>
      <trkpt lat="-21.15741" lon="55.43563">
        <ele>1084</ele>
        <time>2013-01-28T04:58:48Z</time>
      </trkpt>
      <trkpt lat="-21.15738" lon="55.43563">
        <ele>1084</ele>
        <time>2013-01-28T04:58:58Z</time>
      </trkpt>
      <trkpt lat="-21.15738" lon="55.43564">
        <ele>1084</ele>
        <time>2013-01-28T04:59:08Z</time>
      </trkpt>
      <trkpt lat="-21.15734" lon="55.43562">
        <ele>1084</ele>
        <time>2013-01-28T04:59:18Z</time>
      </trkpt>
      <trkpt lat="-21.15732" lon="55.43562">
        <ele>1084</ele>
        <time>2013-01-28T04:59:28Z</time>
      </trkpt>
      <trkpt lat="-21.15728" lon="55.43559">
        <ele>1084</ele>
        <time>2013-01-28T04:59:38Z</time>
      </trkpt>
      <trkpt lat="-21.15718" lon="55.43552">
        <ele>1085</ele>
        <time>2013-01-28T04:59:48Z</time>
      </trkpt>
      <trkpt lat="-21.15705" lon="55.43541">
        <ele>1085</ele>
        <time>2013-01-28T04:59:58Z</time>
      </trkpt>
      <trkpt lat="-21.15694" lon="55.43533">
        <ele>1085</ele>
        <time>2013-01-28T05:00:08Z</time>
      </trkpt>
      <trkpt lat="-21.1568" lon="55.43533">
        <ele>1085</ele>
        <time>2013-01-28T05:00:18Z</time>
      </trkpt>
      <trkpt lat="-21.15667" lon="55.43535">
        <ele>1086</ele>
        <time>2013-01-28T05:00:28Z</time>
      </trkpt>
      <trkpt lat="-21.15654" lon="55.43534">
        <ele>1087</ele>
        <time>2013-01-28T05:00:38Z</time>
      </trkpt>
      <trkpt lat="-21.15641" lon="55.4353">
        <ele>1087</ele>
        <time>2013-01-28T05:00:48Z</time>
      </trkpt>
      <trkpt lat="-21.1563" lon="55.43523">
        <ele>1087</ele>
        <time>2013-01-28T05:00:59Z</time>
      </trkpt>
      <trkpt lat="-21.15617" lon="55.43516">
        <ele>1087</ele>
        <time>2013-01-28T05:01:09Z</time>
      </trkpt>
      <trkpt lat="-21.15604" lon="55.43517">
        <ele>1088</ele>
        <time>2013-01-28T05:01:19Z</time>
      </trkpt>
      <trkpt lat="-21.15594" lon="55.43525">
        <ele>1089</ele>
        <time>2013-01-28T05:01:29Z</time>
      </trkpt>
      <trkpt lat="-21.15591" lon="55.4354">
        <ele>1090</ele>
        <time>2013-01-28T05:01:39Z</time>
      </trkpt>
      <trkpt lat="-21.15589" lon="55.43555">
        <ele>1091</ele>
        <time>2013-01-28T05:01:49Z</time>
      </trkpt>
      <trkpt lat="-21.15589" lon="55.4357">
        <ele>1091</ele>
        <time>2013-01-28T05:01:59Z</time>
      </trkpt>
      <trkpt lat="-21.15588" lon="55.43584">
        <ele>1091</ele>
        <time>2013-01-28T05:02:09Z</time>
      </trkpt>
      <trkpt lat="-21.15585" lon="55.436">
        <ele>1092</ele>
        <time>2013-01-28T05:02:19Z</time>
      </trkpt>
      <trkpt lat="-21.15583" lon="55.43615">
        <ele>1092</ele>
        <time>2013-01-28T05:02:29Z</time>
      </trkpt>
      <trkpt lat="-21.1558" lon="55.4363">
        <ele>1092</ele>
        <time>2013-01-28T05:02:39Z</time>
      </trkpt>
      <trkpt lat="-21.15577" lon="55.43639">
        <ele>1093</ele>
        <time>2013-01-28T05:02:50Z</time>
      </trkpt>
      <trkpt lat="-21.15575" lon="55.43645">
        <ele>1093</ele>
        <time>2013-01-28T05:03:00Z</time>
      </trkpt>
      <trkpt lat="-21.15571" lon="55.43657">
        <ele>1093</ele>
        <time>2013-01-28T05:03:10Z</time>
      </trkpt>
      <trkpt lat="-21.15562" lon="55.43669">
        <ele>1093</ele>
        <time>2013-01-28T05:03:20Z</time>
      </trkpt>
      <trkpt lat="-21.15553" lon="55.43679">
        <ele>1093</ele>
        <time>2013-01-28T05:03:30Z</time>
      </trkpt>
      <trkpt lat="-21.15542" lon="55.43685">
        <ele>1094</ele>
        <time>2013-01-28T05:03:40Z</time>
      </trkpt>
      <trkpt lat="-21.15528" lon="55.43688">
        <ele>1095</ele>
        <time>2013-01-28T05:03:50Z</time>
      </trkpt>
      <trkpt lat="-21.15515" lon="55.43687">
        <ele>1095</ele>
        <time>2013-01-28T05:04:00Z</time>
      </trkpt>
      <trkpt lat="-21.15501" lon="55.43685">
        <ele>1095</ele>
        <time>2013-01-28T05:04:10Z</time>
      </trkpt>
      <trkpt lat="-21.15488" lon="55.4368">
        <ele>1095</ele>
        <time>2013-01-28T05:04:20Z</time>
      </trkpt>
      <trkpt lat="-21.15473" lon="55.43676">
        <ele>1096</ele>
        <time>2013-01-28T05:04:30Z</time>
      </trkpt>
      <trkpt lat="-21.15458" lon="55.43673">
        <ele>1095</ele>
        <time>2013-01-28T05:04:40Z</time>
      </trkpt>
      <trkpt lat="-21.15445" lon="55.43671">
        <ele>1095</ele>
        <time>2013-01-28T05:04:50Z</time>
      </trkpt>
      <trkpt lat="-21.15436" lon="55.43684">
        <ele>1095</ele>
        <time>2013-01-28T05:05:00Z</time>
      </trkpt>
      <trkpt lat="-21.15433" lon="55.437">
        <ele>1096</ele>
        <time>2013-01-28T05:05:10Z</time>
      </trkpt>
      <trkpt lat="-21.15428" lon="55.43715">
        <ele>1096</ele>
        <time>2013-01-28T05:05:20Z</time>
      </trkpt>
      <trkpt lat="-21.15424" lon="55.43731">
        <ele>1095</ele>
        <time>2013-01-28T05:05:30Z</time>
      </trkpt>
      <trkpt lat="-21.15419" lon="55.43746">
        <ele>1094</ele>
        <time>2013-01-28T05:05:40Z</time>
      </trkpt>
      <trkpt lat="-21.15412" lon="55.4376">
        <ele>1093</ele>
        <time>2013-01-28T05:05:51Z</time>
      </trkpt>
      <trkpt lat="-21.154" lon="55.43766">
        <ele>1094</ele>
        <time>2013-01-28T05:06:01Z</time>
      </trkpt>
      <trkpt lat="-21.15387" lon="55.43772">
        <ele>1094</ele>
        <time>2013-01-28T05:06:11Z</time>
      </trkpt>
      <trkpt lat="-21.15373" lon="55.43781">
        <ele>1093</ele>
        <time>2013-01-28T05:06:21Z</time>
      </trkpt>
      <trkpt lat="-21.15363" lon="55.43793">
        <ele>1093</ele>
        <time>2013-01-28T05:06:31Z</time>
      </trkpt>
      <trkpt lat="-21.1535" lon="55.43802">
        <ele>1094</ele>
        <time>2013-01-28T05:06:41Z</time>
      </trkpt>
      <trkpt lat="-21.15337" lon="55.43811">
        <ele>1093</ele>
        <time>2013-01-28T05:06:51Z</time>
      </trkpt>
      <trkpt lat="-21.15325" lon="55.43818">
        <ele>1094</ele>
        <time>2013-01-28T05:07:01Z</time>
      </trkpt>
      <trkpt lat="-21.15312" lon="55.43828">
        <ele>1092</ele>
        <time>2013-01-28T05:07:11Z</time>
      </trkpt>
      <trkpt lat="-21.15309" lon="55.4383">
        <ele>1092</ele>
        <time>2013-01-28T05:07:21Z</time>
      </trkpt>
      <trkpt lat="-21.15301" lon="55.43836">
        <ele>1092</ele>
        <time>2013-01-28T05:07:31Z</time>
      </trkpt>
      <trkpt lat="-21.15289" lon="55.43846">
        <ele>1092</ele>
        <time>2013-01-28T05:07:41Z</time>
      </trkpt>
      <trkpt lat="-21.15274" lon="55.43853">
        <ele>1091</ele>
        <time>2013-01-28T05:07:51Z</time>
      </trkpt>
      <trkpt lat="-21.1526" lon="55.43858">
        <ele>1090</ele>
        <time>2013-01-28T05:08:01Z</time>
      </trkpt>
      <trkpt lat="-21.15249" lon="55.43858">
        <ele>1090</ele>
        <time>2013-01-28T05:08:12Z</time>
      </trkpt>
      <trkpt lat="-21.15243" lon="55.43856">
        <ele>1089</ele>
        <time>2013-01-28T05:08:22Z</time>
      </trkpt>
      <trkpt lat="-21.1524" lon="55.43858">
        <ele>1089</ele>
        <time>2013-01-28T05:08:32Z</time>
      </trkpt>
      <trkpt lat="-21.15224" lon="55.43857">
        <ele>1087</ele>
        <time>2013-01-28T05:08:42Z</time>
      </trkpt>
      <trkpt lat="-21.15215" lon="55.4385">
        <ele>1086</ele>
        <time>2013-01-28T05:08:52Z</time>
      </trkpt>
      <trkpt lat="-21.15205" lon="55.4384">
        <ele>1084</ele>
        <time>2013-01-28T05:09:02Z</time>
      </trkpt>
      <trkpt lat="-21.15195" lon="55.43829">
        <ele>1083</ele>
        <time>2013-01-28T05:09:12Z</time>
      </trkpt>
      <trkpt lat="-21.15187" lon="55.43818">
        <ele>1081</ele>
        <time>2013-01-28T05:09:22Z</time>
      </trkpt>
      <trkpt lat="-21.15171" lon="55.43816">
        <ele>1080</ele>
        <time>2013-01-28T05:09:32Z</time>
      </trkpt>
      <trkpt lat="-21.15157" lon="55.43818">
        <ele>1078</ele>
        <time>2013-01-28T05:09:42Z</time>
      </trkpt>
      <trkpt lat="-21.15145" lon="55.43819">
        <ele>1077</ele>
        <time>2013-01-28T05:09:52Z</time>
      </trkpt>
      <trkpt lat="-21.15129" lon="55.43821">
        <ele>1076</ele>
        <time>2013-01-28T05:10:02Z</time>
      </trkpt>
      <trkpt lat="-21.15116" lon="55.43821">
        <ele>1076</ele>
        <time>2013-01-28T05:10:12Z</time>
      </trkpt>
      <trkpt lat="-21.15102" lon="55.43827">
        <ele>1075</ele>
        <time>2013-01-28T05:10:23Z</time>
      </trkpt>
      <trkpt lat="-21.15088" lon="55.4383">
        <ele>1076</ele>
        <time>2013-01-28T05:10:33Z</time>
      </trkpt>
      <trkpt lat="-21.15072" lon="55.43828">
        <ele>1077</ele>
        <time>2013-01-28T05:10:43Z</time>
      </trkpt>
      <trkpt lat="-21.15057" lon="55.43827">
        <ele>1077</ele>
        <time>2013-01-28T05:10:53Z</time>
      </trkpt>
      <trkpt lat="-21.15043" lon="55.43824">
        <ele>1078</ele>
        <time>2013-01-28T05:11:03Z</time>
      </trkpt>
      <trkpt lat="-21.15028" lon="55.43825">
        <ele>1077</ele>
        <time>2013-01-28T05:11:13Z</time>
      </trkpt>
      <trkpt lat="-21.15016" lon="55.43835">
        <ele>1075</ele>
        <time>2013-01-28T05:11:23Z</time>
      </trkpt>
      <trkpt lat="-21.15006" lon="55.43848">
        <ele>1076</ele>
        <time>2013-01-28T05:11:33Z</time>
      </trkpt>
      <trkpt lat="-21.15004" lon="55.43863">
        <ele>1076</ele>
        <time>2013-01-28T05:11:43Z</time>
      </trkpt>
      <trkpt lat="-21.14999" lon="55.43879">
        <ele>1077</ele>
        <time>2013-01-28T05:11:53Z</time>
      </trkpt>
      <trkpt lat="-21.14991" lon="55.43892">
        <ele>1078</ele>
        <time>2013-01-28T05:12:03Z</time>
      </trkpt>
      <trkpt lat="-21.14982" lon="55.43901">
        <ele>1079</ele>
        <time>2013-01-28T05:12:13Z</time>
      </trkpt>
      <trkpt lat="-21.14974" lon="55.43909">
        <ele>1081</ele>
        <time>2013-01-28T05:12:23Z</time>
      </trkpt>
      <trkpt lat="-21.14972" lon="55.43912">
        <ele>1082</ele>
        <time>2013-01-28T05:12:33Z</time>
      </trkpt>
      <trkpt lat="-21.14971" lon="55.43912">
        <ele>1082</ele>
        <time>2013-01-28T05:12:44Z</time>
      </trkpt>
      <trkpt lat="-21.14971" lon="55.43913">
        <ele>1082</ele>
        <time>2013-01-28T05:12:54Z</time>
      </trkpt>
      <trkpt lat="-21.14976" lon="55.43916">
        <ele>1082</ele>
        <time>2013-01-28T05:13:04Z</time>
      </trkpt>
      <trkpt lat="-21.1499" lon="55.43919">
        <ele>1079</ele>
        <time>2013-01-28T05:13:14Z</time>
      </trkpt>
      <trkpt lat="-21.15002" lon="55.43925">
        <ele>1077</ele>
        <time>2013-01-28T05:13:24Z</time>
      </trkpt>
      <trkpt lat="-21.15009" lon="55.43924">
        <ele>1077</ele>
        <time>2013-01-28T05:13:34Z</time>
      </trkpt>
      <trkpt lat="-21.15015" lon="55.43927">
        <ele>1076</ele>
        <time>2013-01-28T05:13:44Z</time>
      </trkpt>
      <trkpt lat="-21.15026" lon="55.4393">
        <ele>1077</ele>
        <time>2013-01-28T05:13:54Z</time>
      </trkpt>
      <trkpt lat="-21.15037" lon="55.43933">
        <ele>1076</ele>
        <time>2013-01-28T05:14:04Z</time>
      </trkpt>
      <trkpt lat="-21.15047" lon="55.43929">
        <ele>1075</ele>
        <time>2013-01-28T05:14:14Z</time>
      </trkpt>
      <trkpt lat="-21.15044" lon="55.43937">
        <ele>1072</ele>
        <time>2013-01-28T05:14:24Z</time>
      </trkpt>
      <trkpt lat="-21.15039" lon="55.43943">
        <ele>1069</ele>
        <time>2013-01-28T05:14:34Z</time>
      </trkpt>
      <trkpt lat="-21.1505" lon="55.43936">
        <ele>1068</ele>
        <time>2013-01-28T05:14:44Z</time>
      </trkpt>
      <trkpt lat="-21.15059" lon="55.43937">
        <ele>1067</ele>
        <time>2013-01-28T05:14:54Z</time>
      </trkpt>
      <trkpt lat="-21.15054" lon="55.43942">
        <ele>1063</ele>
        <time>2013-01-28T05:15:04Z</time>
      </trkpt>
      <trkpt lat="-21.15047" lon="55.43953">
        <ele>1060</ele>
        <time>2013-01-28T05:15:14Z</time>
      </trkpt>
      <trkpt lat="-21.15044" lon="55.43962">
        <ele>1056</ele>
        <time>2013-01-28T05:15:24Z</time>
      </trkpt>
      <trkpt lat="-21.15053" lon="55.4396">
        <ele>1053</ele>
        <time>2013-01-28T05:15:34Z</time>
      </trkpt>
      <trkpt lat="-21.1506" lon="55.43967">
        <ele>1049</ele>
        <time>2013-01-28T05:15:44Z</time>
      </trkpt>
      <trkpt lat="-21.15055" lon="55.43971">
        <ele>1046</ele>
        <time>2013-01-28T05:15:54Z</time>
      </trkpt>
      <trkpt lat="-21.15046" lon="55.43976">
        <ele>1043</ele>
        <time>2013-01-28T05:16:04Z</time>
      </trkpt>
      <trkpt lat="-21.15057" lon="55.43976">
        <ele>1041</ele>
        <time>2013-01-28T05:16:14Z</time>
      </trkpt>
      <trkpt lat="-21.15063" lon="55.43977">
        <ele>1038</ele>
        <time>2013-01-28T05:16:24Z</time>
      </trkpt>
      <trkpt lat="-21.15067" lon="55.43977">
        <ele>1035</ele>
        <time>2013-01-28T05:16:35Z</time>
      </trkpt>
      <trkpt lat="-21.15072" lon="55.43983">
        <ele>1034</ele>
        <time>2013-01-28T05:16:45Z</time>
      </trkpt>
      <trkpt lat="-21.15062" lon="55.43991">
        <ele>1032</ele>
        <time>2013-01-28T05:16:55Z</time>
      </trkpt>
      <trkpt lat="-21.15055" lon="55.44004">
        <ele>1027</ele>
        <time>2013-01-28T05:17:05Z</time>
      </trkpt>
      <trkpt lat="-21.15051" lon="55.44018">
        <ele>1024</ele>
        <time>2013-01-28T05:17:15Z</time>
      </trkpt>
      <trkpt lat="-21.15048" lon="55.44027">
        <ele>1021</ele>
        <time>2013-01-28T05:17:25Z</time>
      </trkpt>
      <trkpt lat="-21.15048" lon="55.44038">
        <ele>1018</ele>
        <time>2013-01-28T05:17:35Z</time>
      </trkpt>
      <trkpt lat="-21.15043" lon="55.44041">
        <ele>1014</ele>
        <time>2013-01-28T05:17:45Z</time>
      </trkpt>
      <trkpt lat="-21.15045" lon="55.44047">
        <ele>1011</ele>
        <time>2013-01-28T05:17:55Z</time>
      </trkpt>
      <trkpt lat="-21.15048" lon="55.44059">
        <ele>1007</ele>
        <time>2013-01-28T05:18:05Z</time>
      </trkpt>
      <trkpt lat="-21.1505" lon="55.44065">
        <ele>1003</ele>
        <time>2013-01-28T05:18:15Z</time>
      </trkpt>
      <trkpt lat="-21.15047" lon="55.44065">
        <ele>1000</ele>
        <time>2013-01-28T05:18:25Z</time>
      </trkpt>
      <trkpt lat="-21.1505" lon="55.44077">
        <ele>997</ele>
        <time>2013-01-28T05:18:35Z</time>
      </trkpt>
      <trkpt lat="-21.15045" lon="55.44083">
        <ele>994</ele>
        <time>2013-01-28T05:18:45Z</time>
      </trkpt>
      <trkpt lat="-21.15048" lon="55.44092">
        <ele>991</ele>
        <time>2013-01-28T05:18:56Z</time>
      </trkpt>
      <trkpt lat="-21.15044" lon="55.44094">
        <ele>988</ele>
        <time>2013-01-28T05:19:06Z</time>
      </trkpt>
      <trkpt lat="-21.15046" lon="55.44103">
        <ele>985</ele>
        <time>2013-01-28T05:19:16Z</time>
      </trkpt>
      <trkpt lat="-21.15043" lon="55.44112">
        <ele>981</ele>
        <time>2013-01-28T05:19:26Z</time>
      </trkpt>
      <trkpt lat="-21.15046" lon="55.44126">
        <ele>979</ele>
        <time>2013-01-28T05:19:36Z</time>
      </trkpt>
      <trkpt lat="-21.15047" lon="55.44138">
        <ele>975</ele>
        <time>2013-01-28T05:19:46Z</time>
      </trkpt>
      <trkpt lat="-21.15047" lon="55.4415">
        <ele>971</ele>
        <time>2013-01-28T05:19:56Z</time>
      </trkpt>
      <trkpt lat="-21.15046" lon="55.4415">
        <ele>970</ele>
        <time>2013-01-28T05:20:06Z</time>
      </trkpt>
      <trkpt lat="-21.15042" lon="55.44139">
        <ele>968</ele>
        <time>2013-01-28T05:20:16Z</time>
      </trkpt>
      <trkpt lat="-21.15036" lon="55.44132">
        <ele>965</ele>
        <time>2013-01-28T05:20:26Z</time>
      </trkpt>
      <trkpt lat="-21.15035" lon="55.44138">
        <ele>962</ele>
        <time>2013-01-28T05:20:36Z</time>
      </trkpt>
      <trkpt lat="-21.15026" lon="55.44134">
        <ele>959</ele>
        <time>2013-01-28T05:20:46Z</time>
      </trkpt>
      <trkpt lat="-21.15023" lon="55.44134">
        <ele>956</ele>
        <time>2013-01-28T05:20:56Z</time>
      </trkpt>
      <trkpt lat="-21.15024" lon="55.44146">
        <ele>952</ele>
        <time>2013-01-28T05:21:06Z</time>
      </trkpt>
      <trkpt lat="-21.15025" lon="55.44159">
        <ele>948</ele>
        <time>2013-01-28T05:21:16Z</time>
      </trkpt>
      <trkpt lat="-21.15028" lon="55.44174">
        <ele>943</ele>
        <time>2013-01-28T05:21:26Z</time>
      </trkpt>
      <trkpt lat="-21.15031" lon="55.44183">
        <ele>941</ele>
        <time>2013-01-28T05:21:36Z</time>
      </trkpt>
      <trkpt lat="-21.15034" lon="55.44193">
        <ele>937</ele>
        <time>2013-01-28T05:21:46Z</time>
      </trkpt>
      <trkpt lat="-21.15039" lon="55.44205">
        <ele>932</ele>
        <time>2013-01-28T05:21:56Z</time>
      </trkpt>
      <trkpt lat="-21.15041" lon="55.44221">
        <ele>929</ele>
        <time>2013-01-28T05:22:06Z</time>
      </trkpt>
      <trkpt lat="-21.15043" lon="55.44237">
        <ele>927</ele>
        <time>2013-01-28T05:22:16Z</time>
      </trkpt>
      <trkpt lat="-21.15049" lon="55.44249">
        <ele>925</ele>
        <time>2013-01-28T05:22:27Z</time>
      </trkpt>
      <trkpt lat="-21.15059" lon="55.44257">
        <ele>921</ele>
        <time>2013-01-28T05:22:37Z</time>
      </trkpt>
      <trkpt lat="-21.15069" lon="55.44268">
        <ele>917</ele>
        <time>2013-01-28T05:22:47Z</time>
      </trkpt>
      <trkpt lat="-21.1508" lon="55.44274">
        <ele>915</ele>
        <time>2013-01-28T05:22:57Z</time>
      </trkpt>
      <trkpt lat="-21.15089" lon="55.44278">
        <ele>914</ele>
        <time>2013-01-28T05:23:07Z</time>
      </trkpt>
      <trkpt lat="-21.15094" lon="55.4429">
        <ele>911</ele>
        <time>2013-01-28T05:23:17Z</time>
      </trkpt>
      <trkpt lat="-21.15099" lon="55.44304">
        <ele>909</ele>
        <time>2013-01-28T05:23:27Z</time>
      </trkpt>
      <trkpt lat="-21.15105" lon="55.44316">
        <ele>906</ele>
        <time>2013-01-28T05:23:37Z</time>
      </trkpt>
      <trkpt lat="-21.151" lon="55.44318">
        <ele>903</ele>
        <time>2013-01-28T05:23:47Z</time>
      </trkpt>
      <trkpt lat="-21.15096" lon="55.44323">
        <ele>900</ele>
        <time>2013-01-28T05:23:57Z</time>
      </trkpt>
      <trkpt lat="-21.15096" lon="55.44337">
        <ele>897</ele>
        <time>2013-01-28T05:24:07Z</time>
      </trkpt>
      <trkpt lat="-21.15097" lon="55.44347">
        <ele>893</ele>
        <time>2013-01-28T05:24:17Z</time>
      </trkpt>
      <trkpt lat="-21.15102" lon="55.44357">
        <ele>889</ele>
        <time>2013-01-28T05:24:28Z</time>
      </trkpt>
      <trkpt lat="-21.15102" lon="55.44367">
        <ele>887</ele>
        <time>2013-01-28T05:24:38Z</time>
      </trkpt>
      <trkpt lat="-21.1511" lon="55.44374">
        <ele>884</ele>
        <time>2013-01-28T05:24:48Z</time>
      </trkpt>
      <trkpt lat="-21.1512" lon="55.44378">
        <ele>880</ele>
        <time>2013-01-28T05:24:58Z</time>
      </trkpt>
      <trkpt lat="-21.15115" lon="55.44382">
        <ele>877</ele>
        <time>2013-01-28T05:25:08Z</time>
      </trkpt>
      <trkpt lat="-21.15116" lon="55.44384">
        <ele>875</ele>
        <time>2013-01-28T05:25:18Z</time>
      </trkpt>
      <trkpt lat="-21.15114" lon="55.44392">
        <ele>875</ele>
        <time>2013-01-28T05:25:28Z</time>
      </trkpt>
      <trkpt lat="-21.15117" lon="55.44398">
        <ele>875</ele>
        <time>2013-01-28T05:25:38Z</time>
      </trkpt>
      <trkpt lat="-21.15117" lon="55.44399">
        <ele>875</ele>
        <time>2013-01-28T05:25:48Z</time>
      </trkpt>
      <trkpt lat="-21.15119" lon="55.44403">
        <ele>875</ele>
        <time>2013-01-28T05:25:58Z</time>
      </trkpt>
      <trkpt lat="-21.15119" lon="55.44405">
        <ele>875</ele>
        <time>2013-01-28T05:26:08Z</time>
      </trkpt>
      <trkpt lat="-21.15122" lon="55.44409">
        <ele>874</ele>
        <time>2013-01-28T05:26:18Z</time>
      </trkpt>
      <trkpt lat="-21.15125" lon="55.44414">
        <ele>873</ele>
        <time>2013-01-28T05:26:28Z</time>
      </trkpt>
      <trkpt lat="-21.15124" lon="55.44424">
        <ele>870</ele>
        <time>2013-01-28T05:26:38Z</time>
      </trkpt>
      <trkpt lat="-21.15127" lon="55.44423">
        <ele>870</ele>
        <time>2013-01-28T05:26:48Z</time>
      </trkpt>
      <trkpt lat="-21.15126" lon="55.44424">
        <ele>869</ele>
        <time>2013-01-28T05:26:58Z</time>
      </trkpt>
      <trkpt lat="-21.15125" lon="55.44432">
        <ele>868</ele>
        <time>2013-01-28T05:27:08Z</time>
      </trkpt>
      <trkpt lat="-21.15128" lon="55.44439">
        <ele>868</ele>
        <time>2013-01-28T05:27:18Z</time>
      </trkpt>
      <trkpt lat="-21.15126" lon="55.44449">
        <ele>870</ele>
        <time>2013-01-28T05:27:28Z</time>
      </trkpt>
      <trkpt lat="-21.15121" lon="55.44457">
        <ele>870</ele>
        <time>2013-01-28T05:27:38Z</time>
      </trkpt>
      <trkpt lat="-21.15124" lon="55.44472">
        <ele>871</ele>
        <time>2013-01-28T05:27:49Z</time>
      </trkpt>
      <trkpt lat="-21.1512" lon="55.44485">
        <ele>871</ele>
        <time>2013-01-28T05:27:59Z</time>
      </trkpt>
      <trkpt lat="-21.15116" lon="55.44503">
        <ele>870</ele>
        <time>2013-01-28T05:28:09Z</time>
      </trkpt>
      <trkpt lat="-21.15112" lon="55.44513">
        <ele>867</ele>
        <time>2013-01-28T05:28:19Z</time>
      </trkpt>
      <trkpt lat="-21.15107" lon="55.44529">
        <ele>864</ele>
        <time>2013-01-28T05:28:29Z</time>
      </trkpt>
      <trkpt lat="-21.15112" lon="55.44536">
        <ele>863</ele>
        <time>2013-01-28T05:28:39Z</time>
      </trkpt>
      <trkpt lat="-21.15117" lon="55.44543">
        <ele>864</ele>
        <time>2013-01-28T05:28:49Z</time>
      </trkpt>
      <trkpt lat="-21.15111" lon="55.44551">
        <ele>862</ele>
        <time>2013-01-28T05:28:59Z</time>
      </trkpt>
      <trkpt lat="-21.15106" lon="55.44556">
        <ele>861</ele>
        <time>2013-01-28T05:29:09Z</time>
      </trkpt>
      <trkpt lat="-21.1511" lon="55.44558">
        <ele>859</ele>
        <time>2013-01-28T05:29:19Z</time>
      </trkpt>
      <trkpt lat="-21.15117" lon="55.44549">
        <ele>856</ele>
        <time>2013-01-28T05:29:29Z</time>
      </trkpt>
      <trkpt lat="-21.15121" lon="55.44551">
        <ele>855</ele>
        <time>2013-01-28T05:29:39Z</time>
      </trkpt>
      <trkpt lat="-21.15123" lon="55.44557">
        <ele>850</ele>
        <time>2013-01-28T05:29:49Z</time>
      </trkpt>
      <trkpt lat="-21.15126" lon="55.44559">
        <ele>847</ele>
        <time>2013-01-28T05:30:00Z</time>
      </trkpt>
      <trkpt lat="-21.15122" lon="55.44575">
        <ele>843</ele>
        <time>2013-01-28T05:30:10Z</time>
      </trkpt>
      <trkpt lat="-21.15118" lon="55.44582">
        <ele>841</ele>
        <time>2013-01-28T05:30:20Z</time>
      </trkpt>
      <trkpt lat="-21.15123" lon="55.44591">
        <ele>839</ele>
        <time>2013-01-28T05:30:30Z</time>
      </trkpt>
      <trkpt lat="-21.15129" lon="55.44588">
        <ele>835</ele>
        <time>2013-01-28T05:30:40Z</time>
      </trkpt>
      <trkpt lat="-21.15121" lon="55.44598">
        <ele>833</ele>
        <time>2013-01-28T05:30:50Z</time>
      </trkpt>
      <trkpt lat="-21.15115" lon="55.44596">
        <ele>830</ele>
        <time>2013-01-28T05:31:00Z</time>
      </trkpt>
      <trkpt lat="-21.15112" lon="55.44599">
        <ele>828</ele>
        <time>2013-01-28T05:31:10Z</time>
      </trkpt>
      <trkpt lat="-21.15106" lon="55.44607">
        <ele>824</ele>
        <time>2013-01-28T05:31:20Z</time>
      </trkpt>
      <trkpt lat="-21.15106" lon="55.44619">
        <ele>822</ele>
        <time>2013-01-28T05:31:30Z</time>
      </trkpt>
      <trkpt lat="-21.15105" lon="55.44627">
        <ele>822</ele>
        <time>2013-01-28T05:31:40Z</time>
      </trkpt>
      <trkpt lat="-21.15107" lon="55.44636">
        <ele>821</ele>
        <time>2013-01-28T05:31:50Z</time>
      </trkpt>
      <trkpt lat="-21.15103" lon="55.44645">
        <ele>820</ele>
        <time>2013-01-28T05:32:01Z</time>
      </trkpt>
      <trkpt lat="-21.15096" lon="55.44657">
        <ele>821</ele>
        <time>2013-01-28T05:32:11Z</time>
      </trkpt>
      <trkpt lat="-21.15085" lon="55.44644">
        <ele>820</ele>
        <time>2013-01-28T05:32:21Z</time>
      </trkpt>
      <trkpt lat="-21.15073" lon="55.44633">
        <ele>819</ele>
        <time>2013-01-28T05:32:31Z</time>
      </trkpt>
      <trkpt lat="-21.15067" lon="55.4463">
        <ele>815</ele>
        <time>2013-01-28T05:32:41Z</time>
      </trkpt>
      <trkpt lat="-21.15072" lon="55.44622">
        <ele>814</ele>
        <time>2013-01-28T05:32:51Z</time>
      </trkpt>
      <trkpt lat="-21.15077" lon="55.44625">
        <ele>811</ele>
        <time>2013-01-28T05:33:01Z</time>
      </trkpt>
      <trkpt lat="-21.15073" lon="55.44623">
        <ele>809</ele>
        <time>2013-01-28T05:33:11Z</time>
      </trkpt>
      <trkpt lat="-21.15065" lon="55.44622">
        <ele>806</ele>
        <time>2013-01-28T05:33:21Z</time>
      </trkpt>
      <trkpt lat="-21.15057" lon="55.44619">
        <ele>803</ele>
        <time>2013-01-28T05:33:31Z</time>
      </trkpt>
      <trkpt lat="-21.1505" lon="55.44625">
        <ele>800</ele>
        <time>2013-01-28T05:33:41Z</time>
      </trkpt>
      <trkpt lat="-21.15051" lon="55.44631">
        <ele>799</ele>
        <time>2013-01-28T05:33:51Z</time>
      </trkpt>
      <trkpt lat="-21.15052" lon="55.44641">
        <ele>795</ele>
        <time>2013-01-28T05:34:01Z</time>
      </trkpt>
      <trkpt lat="-21.15048" lon="55.44653">
        <ele>793</ele>
        <time>2013-01-28T05:34:11Z</time>
      </trkpt>
      <trkpt lat="-21.15036" lon="55.44656">
        <ele>790</ele>
        <time>2013-01-28T05:34:22Z</time>
      </trkpt>
      <trkpt lat="-21.15031" lon="55.44658">
        <ele>789</ele>
        <time>2013-01-28T05:34:32Z</time>
      </trkpt>
      <trkpt lat="-21.15033" lon="55.44664">
        <ele>787</ele>
        <time>2013-01-28T05:34:42Z</time>
      </trkpt>
      <trkpt lat="-21.15039" lon="55.44671">
        <ele>784</ele>
        <time>2013-01-28T05:34:52Z</time>
      </trkpt>
      <trkpt lat="-21.15043" lon="55.44676">
        <ele>781</ele>
        <time>2013-01-28T05:35:02Z</time>
      </trkpt>
      <trkpt lat="-21.15035" lon="55.44685">
        <ele>778</ele>
        <time>2013-01-28T05:35:12Z</time>
      </trkpt>
      <trkpt lat="-21.15027" lon="55.44688">
        <ele>775</ele>
        <time>2013-01-28T05:35:22Z</time>
      </trkpt>
      <trkpt lat="-21.15031" lon="55.44694">
        <ele>772</ele>
        <time>2013-01-28T05:35:32Z</time>
      </trkpt>
      <trkpt lat="-21.15037" lon="55.44695">
        <ele>768</ele>
        <time>2013-01-28T05:35:42Z</time>
      </trkpt>
      <trkpt lat="-21.15039" lon="55.447">
        <ele>765</ele>
        <time>2013-01-28T05:35:52Z</time>
      </trkpt>
      <trkpt lat="-21.15036" lon="55.44708">
        <ele>763</ele>
        <time>2013-01-28T05:36:02Z</time>
      </trkpt>
      <trkpt lat="-21.15043" lon="55.44724">
        <ele>749</ele>
        <time>2013-01-28T05:36:45Z</time>
      </trkpt>
      <trkpt lat="-21.15038" lon="55.44734">
        <ele>745</ele>
        <time>2013-01-28T05:36:55Z</time>
      </trkpt>
      <trkpt lat="-21.1503" lon="55.44741">
        <ele>742</ele>
        <time>2013-01-28T05:37:05Z</time>
      </trkpt>
      <trkpt lat="-21.15021" lon="55.44741">
        <ele>739</ele>
        <time>2013-01-28T05:37:15Z</time>
      </trkpt>
      <trkpt lat="-21.15016" lon="55.44745">
        <ele>734</ele>
        <time>2013-01-28T05:37:25Z</time>
      </trkpt>
      <trkpt lat="-21.15011" lon="55.44749">
        <ele>731</ele>
        <time>2013-01-28T05:37:35Z</time>
      </trkpt>
      <trkpt lat="-21.14934" lon="55.44851">
        <ele>690</ele>
        <time>2013-01-28T05:42:04Z</time>
      </trkpt>
      <trkpt lat="-21.1493" lon="55.4484">
        <ele>691</ele>
        <time>2013-01-28T05:42:14Z</time>
      </trkpt>
      <trkpt lat="-21.14916" lon="55.44824">
        <ele>691</ele>
        <time>2013-01-28T05:42:55Z</time>
      </trkpt>
      <trkpt lat="-21.14915" lon="55.44824">
        <ele>691</ele>
        <time>2013-01-28T05:43:05Z</time>
      </trkpt>
      <trkpt lat="-21.14912" lon="55.44821">
        <ele>691</ele>
        <time>2013-01-28T05:43:15Z</time>
      </trkpt>
      <trkpt lat="-21.149" lon="55.44812">
        <ele>690</ele>
        <time>2013-01-28T05:43:25Z</time>
      </trkpt>
      <trkpt lat="-21.14894" lon="55.44808">
        <ele>690</ele>
        <time>2013-01-28T05:43:35Z</time>
      </trkpt>
      <trkpt lat="-21.14895" lon="55.4481">
        <ele>691</ele>
        <time>2013-01-28T05:43:45Z</time>
      </trkpt>
      <trkpt lat="-21.14897" lon="55.44814">
        <ele>691</ele>
        <time>2013-01-28T05:43:55Z</time>
      </trkpt>
      <trkpt lat="-21.14897" lon="55.44823">
        <ele>691</ele>
        <time>2013-01-28T05:44:05Z</time>
      </trkpt>
      <trkpt lat="-21.14895" lon="55.44828">
        <ele>690</ele>
        <time>2013-01-28T05:44:15Z</time>
      </trkpt>
      <trkpt lat="-21.14897" lon="55.44834">
        <ele>691</ele>
        <time>2013-01-28T05:44:25Z</time>
      </trkpt>
      <trkpt lat="-21.14894" lon="55.44838">
        <ele>691</ele>
        <time>2013-01-28T05:44:35Z</time>
      </trkpt>
      <trkpt lat="-21.1489" lon="55.44839">
        <ele>691</ele>
        <time>2013-01-28T05:44:46Z</time>
      </trkpt>
      <trkpt lat="-21.14887" lon="55.44838">
        <ele>692</ele>
        <time>2013-01-28T05:44:56Z</time>
      </trkpt>
      <trkpt lat="-21.14886" lon="55.44837">
        <ele>693</ele>
        <time>2013-01-28T05:45:06Z</time>
      </trkpt>
      <trkpt lat="-21.14894" lon="55.44841">
        <ele>692</ele>
        <time>2013-01-28T05:45:16Z</time>
      </trkpt>
      <trkpt lat="-21.14899" lon="55.44844">
        <ele>691</ele>
        <time>2013-01-28T05:45:26Z</time>
      </trkpt>
      <trkpt lat="-21.14904" lon="55.44853">
        <ele>691</ele>
        <time>2013-01-28T05:45:36Z</time>
      </trkpt>
      <trkpt lat="-21.14907" lon="55.44862">
        <ele>691</ele>
        <time>2013-01-28T05:45:46Z</time>
      </trkpt>
      <trkpt lat="-21.14909" lon="55.44868">
        <ele>690</ele>
        <time>2013-01-28T05:45:56Z</time>
      </trkpt>
      <trkpt lat="-21.1491" lon="55.44868">
        <ele>689</ele>
        <time>2013-01-28T05:46:06Z</time>
      </trkpt>
      <trkpt lat="-21.1491" lon="55.44868">
        <ele>690</ele>
        <time>2013-01-28T05:46:16Z</time>
      </trkpt>
      <trkpt lat="-21.14911" lon="55.4487">
        <ele>689</ele>
        <time>2013-01-28T05:46:26Z</time>
      </trkpt>
      <trkpt lat="-21.14912" lon="55.44869">
        <ele>689</ele>
        <time>2013-01-28T05:46:36Z</time>
      </trkpt>
      <trkpt lat="-21.14908" lon="55.44862">
        <ele>690</ele>
        <time>2013-01-28T05:46:46Z</time>
      </trkpt>
      <trkpt lat="-21.14907" lon="55.4486">
        <ele>690</ele>
        <time>2013-01-28T05:46:56Z</time>
      </trkpt>
      <trkpt lat="-21.14906" lon="55.44859">
        <ele>689</ele>
        <time>2013-01-28T05:47:07Z</time>
      </trkpt>
      <trkpt lat="-21.14902" lon="55.44851">
        <ele>689</ele>
        <time>2013-01-28T05:47:17Z</time>
      </trkpt>
      <trkpt lat="-21.14902" lon="55.44859">
        <ele>690</ele>
        <time>2013-01-28T05:47:27Z</time>
      </trkpt>
      <trkpt lat="-21.14905" lon="55.44873">
        <ele>690</ele>
        <time>2013-01-28T05:47:37Z</time>
      </trkpt>
      <trkpt lat="-21.14909" lon="55.44883">
        <ele>690</ele>
        <time>2013-01-28T05:47:47Z</time>
      </trkpt>
      <trkpt lat="-21.14911" lon="55.44884">
        <ele>690</ele>
        <time>2013-01-28T05:47:57Z</time>
      </trkpt>
      <trkpt lat="-21.14906" lon="55.44885">
        <ele>696</ele>
        <time>2013-01-28T05:48:31Z</time>
      </trkpt>
      <trkpt lat="-21.14906" lon="55.44886">
        <ele>698</ele>
        <time>2013-01-28T05:48:41Z</time>
      </trkpt>
      <trkpt lat="-21.14908" lon="55.44884">
        <ele>698</ele>
        <time>2013-01-28T05:48:51Z</time>
      </trkpt>
      <trkpt lat="-21.14909" lon="55.44882">
        <ele>699</ele>
        <time>2013-01-28T05:49:01Z</time>
      </trkpt>
      <trkpt lat="-21.14865" lon="55.44895">
        <ele>703</ele>
        <time>2013-01-28T05:49:56Z</time>
      </trkpt>
      <trkpt lat="-21.14858" lon="55.44903">
        <ele>701</ele>
        <time>2013-01-28T05:50:06Z</time>
      </trkpt>
      <trkpt lat="-21.14852" lon="55.44912">
        <ele>699</ele>
        <time>2013-01-28T05:50:16Z</time>
      </trkpt>
      <trkpt lat="-21.1484" lon="55.4492">
        <ele>700</ele>
        <time>2013-01-28T05:50:26Z</time>
      </trkpt>
      <trkpt lat="-21.14704" lon="55.44955">
        <ele>703</ele>
        <time>2013-01-28T05:52:08Z</time>
      </trkpt>
      <trkpt lat="-21.14697" lon="55.44958">
        <ele>703</ele>
        <time>2013-01-28T05:52:18Z</time>
      </trkpt>
      <trkpt lat="-21.1473" lon="55.45008">
        <ele>708</ele>
        <time>2013-01-28T05:53:11Z</time>
      </trkpt>
      <trkpt lat="-21.14764" lon="55.45024">
        <ele>707</ele>
        <time>2013-01-28T05:53:29Z</time>
      </trkpt>
      <trkpt lat="-21.14745" lon="55.45009">
        <ele>707</ele>
        <time>2013-01-28T05:53:39Z</time>
      </trkpt>
      <trkpt lat="-21.14727" lon="55.45">
        <ele>708</ele>
        <time>2013-01-28T05:53:49Z</time>
      </trkpt>
      <trkpt lat="-21.14713" lon="55.44994">
        <ele>707</ele>
        <time>2013-01-28T05:53:59Z</time>
      </trkpt>
      <trkpt lat="-21.147" lon="55.44987">
        <ele>708</ele>
        <time>2013-01-28T05:54:09Z</time>
      </trkpt>
      <trkpt lat="-21.14686" lon="55.44981">
        <ele>708</ele>
        <time>2013-01-28T05:54:19Z</time>
      </trkpt>
      <trkpt lat="-21.14682" lon="55.44979">
        <ele>709</ele>
        <time>2013-01-28T05:54:29Z</time>
      </trkpt>
      <trkpt lat="-21.14678" lon="55.44979">
        <ele>709</ele>
        <time>2013-01-28T05:54:39Z</time>
      </trkpt>
      <trkpt lat="-21.14667" lon="55.44977">
        <ele>710</ele>
        <time>2013-01-28T05:54:50Z</time>
      </trkpt>
      <trkpt lat="-21.14658" lon="55.44975">
        <ele>709</ele>
        <time>2013-01-28T05:55:00Z</time>
      </trkpt>
      <trkpt lat="-21.14649" lon="55.44978">
        <ele>710</ele>
        <time>2013-01-28T05:55:10Z</time>
      </trkpt>
      <trkpt lat="-21.14642" lon="55.44978">
        <ele>711</ele>
        <time>2013-01-28T05:55:20Z</time>
      </trkpt>
      <trkpt lat="-21.14638" lon="55.44978">
        <ele>711</ele>
        <time>2013-01-28T05:55:30Z</time>
      </trkpt>
      <trkpt lat="-21.14635" lon="55.4498">
        <ele>713</ele>
        <time>2013-01-28T05:55:40Z</time>
      </trkpt>
      <trkpt lat="-21.1463" lon="55.44984">
        <ele>715</ele>
        <time>2013-01-28T05:55:50Z</time>
      </trkpt>
      <trkpt lat="-21.14624" lon="55.44987">
        <ele>716</ele>
        <time>2013-01-28T05:56:00Z</time>
      </trkpt>
      <trkpt lat="-21.14624" lon="55.4499">
        <ele>718</ele>
        <time>2013-01-28T05:56:10Z</time>
      </trkpt>
      <trkpt lat="-21.1462" lon="55.44989">
        <ele>720</ele>
        <time>2013-01-28T05:56:20Z</time>
      </trkpt>
      <trkpt lat="-21.14619" lon="55.44986">
        <ele>722</ele>
        <time>2013-01-28T05:56:30Z</time>
      </trkpt>
      <trkpt lat="-21.14617" lon="55.44985">
        <ele>723</ele>
        <time>2013-01-28T05:56:40Z</time>
      </trkpt>
      <trkpt lat="-21.14613" lon="55.44988">
        <ele>725</ele>
        <time>2013-01-28T05:56:50Z</time>
      </trkpt>
      <trkpt lat="-21.14609" lon="55.4499">
        <ele>727</ele>
        <time>2013-01-28T05:57:00Z</time>
      </trkpt>
      <trkpt lat="-21.14606" lon="55.44993">
        <ele>730</ele>
        <time>2013-01-28T05:57:10Z</time>
      </trkpt>
      <trkpt lat="-21.14602" lon="55.44994">
        <ele>731</ele>
        <time>2013-01-28T05:57:21Z</time>
      </trkpt>
      <trkpt lat="-21.14596" lon="55.44989">
        <ele>733</ele>
        <time>2013-01-28T05:57:31Z</time>
      </trkpt>
      <trkpt lat="-21.14599" lon="55.44999">
        <ele>735</ele>
        <time>2013-01-28T05:57:41Z</time>
      </trkpt>
      <trkpt lat="-21.14594" lon="55.44995">
        <ele>736</ele>
        <time>2013-01-28T05:57:51Z</time>
      </trkpt>
      <trkpt lat="-21.14589" lon="55.44991">
        <ele>739</ele>
        <time>2013-01-28T05:58:01Z</time>
      </trkpt>
      <trkpt lat="-21.14584" lon="55.44989">
        <ele>739</ele>
        <time>2013-01-28T05:58:11Z</time>
      </trkpt>
      <trkpt lat="-21.14576" lon="55.4499">
        <ele>742</ele>
        <time>2013-01-28T05:58:21Z</time>
      </trkpt>
      <trkpt lat="-21.1457" lon="55.44992">
        <ele>742</ele>
        <time>2013-01-28T05:58:31Z</time>
      </trkpt>
      <trkpt lat="-21.14562" lon="55.44992">
        <ele>744</ele>
        <time>2013-01-28T05:58:41Z</time>
      </trkpt>
      <trkpt lat="-21.1455" lon="55.44988">
        <ele>745</ele>
        <time>2013-01-28T05:58:51Z</time>
      </trkpt>
      <trkpt lat="-21.1454" lon="55.44989">
        <ele>745</ele>
        <time>2013-01-28T05:59:01Z</time>
      </trkpt>
      <trkpt lat="-21.14526" lon="55.4499">
        <ele>744</ele>
        <time>2013-01-28T05:59:11Z</time>
      </trkpt>
      <trkpt lat="-21.14516" lon="55.44995">
        <ele>743</ele>
        <time>2013-01-28T05:59:21Z</time>
      </trkpt>
      <trkpt lat="-21.14508" lon="55.44999">
        <ele>744</ele>
        <time>2013-01-28T05:59:31Z</time>
      </trkpt>
      <trkpt lat="-21.14499" lon="55.44989">
        <ele>743</ele>
        <time>2013-01-28T05:59:41Z</time>
      </trkpt>
      <trkpt lat="-21.14491" lon="55.44985">
        <ele>741</ele>
        <time>2013-01-28T05:59:51Z</time>
      </trkpt>
      <trkpt lat="-21.14484" lon="55.44979">
        <ele>740</ele>
        <time>2013-01-28T06:00:01Z</time>
      </trkpt>
      <trkpt lat="-21.14472" lon="55.4498">
        <ele>742</ele>
        <time>2013-01-28T06:00:11Z</time>
      </trkpt>
      <trkpt lat="-21.14464" lon="55.44984">
        <ele>745</ele>
        <time>2013-01-28T06:00:22Z</time>
      </trkpt>
      <trkpt lat="-21.14454" lon="55.44983">
        <ele>746</ele>
        <time>2013-01-28T06:00:32Z</time>
      </trkpt>
      <trkpt lat="-21.14444" lon="55.44984">
        <ele>748</ele>
        <time>2013-01-28T06:00:42Z</time>
      </trkpt>
      <trkpt lat="-21.14441" lon="55.44987">
        <ele>750</ele>
        <time>2013-01-28T06:00:52Z</time>
      </trkpt>
      <trkpt lat="-21.14437" lon="55.44987">
        <ele>751</ele>
        <time>2013-01-28T06:01:02Z</time>
      </trkpt>
      <trkpt lat="-21.14434" lon="55.44995">
        <ele>753</ele>
        <time>2013-01-28T06:01:12Z</time>
      </trkpt>
      <trkpt lat="-21.1442" lon="55.45">
        <ele>754</ele>
        <time>2013-01-28T06:01:22Z</time>
      </trkpt>
      <trkpt lat="-21.14414" lon="55.45008">
        <ele>752</ele>
        <time>2013-01-28T06:01:32Z</time>
      </trkpt>
      <trkpt lat="-21.14407" lon="55.45012">
        <ele>750</ele>
        <time>2013-01-28T06:01:42Z</time>
      </trkpt>
      <trkpt lat="-21.14388" lon="55.4501">
        <ele>748</ele>
        <time>2013-01-28T06:01:52Z</time>
      </trkpt>
      <trkpt lat="-21.14373" lon="55.45007">
        <ele>748</ele>
        <time>2013-01-28T06:02:02Z</time>
      </trkpt>
      <trkpt lat="-21.14359" lon="55.45007">
        <ele>749</ele>
        <time>2013-01-28T06:02:12Z</time>
      </trkpt>
      <trkpt lat="-21.14354" lon="55.45007">
        <ele>750</ele>
        <time>2013-01-28T06:02:22Z</time>
      </trkpt>
      <trkpt lat="-21.14349" lon="55.4501">
        <ele>752</ele>
        <time>2013-01-28T06:02:33Z</time>
      </trkpt>
      <trkpt lat="-21.14349" lon="55.4501">
        <ele>754</ele>
        <time>2013-01-28T06:02:43Z</time>
      </trkpt>
      <trkpt lat="-21.14349" lon="55.45007">
        <ele>756</ele>
        <time>2013-01-28T06:02:53Z</time>
      </trkpt>
      <trkpt lat="-21.14348" lon="55.45008">
        <ele>758</ele>
        <time>2013-01-28T06:03:03Z</time>
      </trkpt>
      <trkpt lat="-21.14353" lon="55.4501">
        <ele>760</ele>
        <time>2013-01-28T06:03:13Z</time>
      </trkpt>
      <trkpt lat="-21.14349" lon="55.45016">
        <ele>762</ele>
        <time>2013-01-28T06:03:23Z</time>
      </trkpt>
      <trkpt lat="-21.14347" lon="55.45023">
        <ele>764</ele>
        <time>2013-01-28T06:03:33Z</time>
      </trkpt>
      <trkpt lat="-21.14347" lon="55.4503">
        <ele>766</ele>
        <time>2013-01-28T06:03:43Z</time>
      </trkpt>
      <trkpt lat="-21.14342" lon="55.45035">
        <ele>767</ele>
        <time>2013-01-28T06:03:53Z</time>
      </trkpt>
      <trkpt lat="-21.14338" lon="55.45039">
        <ele>769</ele>
        <time>2013-01-28T06:04:03Z</time>
      </trkpt>
      <trkpt lat="-21.14336" lon="55.45036">
        <ele>772</ele>
        <time>2013-01-28T06:04:13Z</time>
      </trkpt>
      <trkpt lat="-21.1433" lon="55.45042">
        <ele>773</ele>
        <time>2013-01-28T06:04:23Z</time>
      </trkpt>
      <trkpt lat="-21.14329" lon="55.45052">
        <ele>774</ele>
        <time>2013-01-28T06:04:33Z</time>
      </trkpt>
      <trkpt lat="-21.14325" lon="55.45063">
        <ele>775</ele>
        <time>2013-01-28T06:04:43Z</time>
      </trkpt>
      <trkpt lat="-21.14318" lon="55.4507">
        <ele>776</ele>
        <time>2013-01-28T06:04:53Z</time>
      </trkpt>
      <trkpt lat="-21.14309" lon="55.45078">
        <ele>778</ele>
        <time>2013-01-28T06:05:03Z</time>
      </trkpt>
      <trkpt lat="-21.143" lon="55.45087">
        <ele>779</ele>
        <time>2013-01-28T06:05:13Z</time>
      </trkpt>
      <trkpt lat="-21.14291" lon="55.45095">
        <ele>780</ele>
        <time>2013-01-28T06:05:23Z</time>
      </trkpt>
      <trkpt lat="-21.14284" lon="55.451">
        <ele>781</ele>
        <time>2013-01-28T06:05:33Z</time>
      </trkpt>
      <trkpt lat="-21.14282" lon="55.45101">
        <ele>783</ele>
        <time>2013-01-28T06:05:43Z</time>
      </trkpt>
      <trkpt lat="-21.14279" lon="55.451">
        <ele>785</ele>
        <time>2013-01-28T06:05:53Z</time>
      </trkpt>
      <trkpt lat="-21.14272" lon="55.45098">
        <ele>786</ele>
        <time>2013-01-28T06:06:03Z</time>
      </trkpt>
      <trkpt lat="-21.14269" lon="55.45103">
        <ele>788</ele>
        <time>2013-01-28T06:06:13Z</time>
      </trkpt>
      <trkpt lat="-21.14267" lon="55.4511">
        <ele>791</ele>
        <time>2013-01-28T06:06:24Z</time>
      </trkpt>
      <trkpt lat="-21.14258" lon="55.45115">
        <ele>792</ele>
        <time>2013-01-28T06:06:34Z</time>
      </trkpt>
      <trkpt lat="-21.14252" lon="55.45115">
        <ele>794</ele>
        <time>2013-01-28T06:06:44Z</time>
      </trkpt>
      <trkpt lat="-21.14258" lon="55.45108">
        <ele>796</ele>
        <time>2013-01-28T06:06:54Z</time>
      </trkpt>
      <trkpt lat="-21.14254" lon="55.45108">
        <ele>798</ele>
        <time>2013-01-28T06:07:04Z</time>
      </trkpt>
      <trkpt lat="-21.14249" lon="55.4511">
        <ele>799</ele>
        <time>2013-01-28T06:07:14Z</time>
      </trkpt>
      <trkpt lat="-21.14245" lon="55.45111">
        <ele>801</ele>
        <time>2013-01-28T06:07:24Z</time>
      </trkpt>
      <trkpt lat="-21.14238" lon="55.45114">
        <ele>802</ele>
        <time>2013-01-28T06:07:34Z</time>
      </trkpt>
      <trkpt lat="-21.14233" lon="55.45116">
        <ele>805</ele>
        <time>2013-01-28T06:07:44Z</time>
      </trkpt>
      <trkpt lat="-21.14239" lon="55.45112">
        <ele>806</ele>
        <time>2013-01-28T06:07:54Z</time>
      </trkpt>
      <trkpt lat="-21.14243" lon="55.45105">
        <ele>807</ele>
        <time>2013-01-28T06:08:04Z</time>
      </trkpt>
      <trkpt lat="-21.14243" lon="55.451">
        <ele>810</ele>
        <time>2013-01-28T06:08:14Z</time>
      </trkpt>
      <trkpt lat="-21.14241" lon="55.45097">
        <ele>810</ele>
        <time>2013-01-28T06:08:24Z</time>
      </trkpt>
      <trkpt lat="-21.14235" lon="55.45098">
        <ele>811</ele>
        <time>2013-01-28T06:08:34Z</time>
      </trkpt>
      <trkpt lat="-21.14227" lon="55.45103">
        <ele>814</ele>
        <time>2013-01-28T06:08:44Z</time>
      </trkpt>
      <trkpt lat="-21.14224" lon="55.45105">
        <ele>816</ele>
        <time>2013-01-28T06:08:54Z</time>
      </trkpt>
      <trkpt lat="-21.1422" lon="55.45107">
        <ele>819</ele>
        <time>2013-01-28T06:09:05Z</time>
      </trkpt>
      <trkpt lat="-21.14212" lon="55.45108">
        <ele>821</ele>
        <time>2013-01-28T06:09:15Z</time>
      </trkpt>
      <trkpt lat="-21.14199" lon="55.45112">
        <ele>823</ele>
        <time>2013-01-28T06:09:25Z</time>
      </trkpt>
      <trkpt lat="-21.14191" lon="55.45114">
        <ele>825</ele>
        <time>2013-01-28T06:09:35Z</time>
      </trkpt>
      <trkpt lat="-21.14188" lon="55.45121">
        <ele>827</ele>
        <time>2013-01-28T06:09:45Z</time>
      </trkpt>
      <trkpt lat="-21.14184" lon="55.45124">
        <ele>828</ele>
        <time>2013-01-28T06:09:55Z</time>
      </trkpt>
      <trkpt lat="-21.14182" lon="55.45128">
        <ele>830</ele>
        <time>2013-01-28T06:10:05Z</time>
      </trkpt>
      <trkpt lat="-21.14185" lon="55.45132">
        <ele>831</ele>
        <time>2013-01-28T06:10:15Z</time>
      </trkpt>
      <trkpt lat="-21.14182" lon="55.45139">
        <ele>833</ele>
        <time>2013-01-28T06:10:25Z</time>
      </trkpt>
      <trkpt lat="-21.14182" lon="55.4514">
        <ele>832</ele>
        <time>2013-01-28T06:10:35Z</time>
      </trkpt>
      <trkpt lat="-21.14184" lon="55.4514">
        <ele>832</ele>
        <time>2013-01-28T06:10:45Z</time>
      </trkpt>
      <trkpt lat="-21.14185" lon="55.4515">
        <ele>833</ele>
        <time>2013-01-28T06:10:55Z</time>
      </trkpt>
      <trkpt lat="-21.14183" lon="55.45158">
        <ele>833</ele>
        <time>2013-01-28T06:11:05Z</time>
      </trkpt>
      <trkpt lat="-21.14181" lon="55.45167">
        <ele>832</ele>
        <time>2013-01-28T06:11:15Z</time>
      </trkpt>
      <trkpt lat="-21.14172" lon="55.45171">
        <ele>832</ele>
        <time>2013-01-28T06:11:26Z</time>
      </trkpt>
      <trkpt lat="-21.14167" lon="55.45184">
        <ele>829</ele>
        <time>2013-01-28T06:11:36Z</time>
      </trkpt>
      <trkpt lat="-21.14165" lon="55.45192">
        <ele>825</ele>
        <time>2013-01-28T06:11:46Z</time>
      </trkpt>
      <trkpt lat="-21.14159" lon="55.45195">
        <ele>824</ele>
        <time>2013-01-28T06:11:56Z</time>
      </trkpt>
      <trkpt lat="-21.14158" lon="55.45201">
        <ele>824</ele>
        <time>2013-01-28T06:12:06Z</time>
      </trkpt>
      <trkpt lat="-21.14156" lon="55.45203">
        <ele>825</ele>
        <time>2013-01-28T06:12:16Z</time>
      </trkpt>
      <trkpt lat="-21.14155" lon="55.45203">
        <ele>825</ele>
        <time>2013-01-28T06:12:26Z</time>
      </trkpt>
      <trkpt lat="-21.14154" lon="55.45202">
        <ele>825</ele>
        <time>2013-01-28T06:12:36Z</time>
      </trkpt>
      <trkpt lat="-21.14152" lon="55.45203">
        <ele>805</ele>
        <time>2013-01-28T06:12:46Z</time>
      </trkpt>
      <trkpt lat="-21.14152" lon="55.45203">
        <ele>801</ele>
        <time>2013-01-28T06:12:56Z</time>
      </trkpt>
      <trkpt lat="-21.14153" lon="55.45204">
        <ele>819</ele>
        <time>2013-01-28T06:13:07Z</time>
      </trkpt>
      <trkpt lat="-21.14152" lon="55.45205">
        <ele>826</ele>
        <time>2013-01-28T06:13:17Z</time>
      </trkpt>
      <trkpt lat="-21.14157" lon="55.4521">
        <ele>826</ele>
        <time>2013-01-28T06:13:27Z</time>
      </trkpt>
      <trkpt lat="-21.14159" lon="55.45219">
        <ele>826</ele>
        <time>2013-01-28T06:13:37Z</time>
      </trkpt>
      <trkpt lat="-21.14153" lon="55.45227">
        <ele>828</ele>
        <time>2013-01-28T06:13:47Z</time>
      </trkpt>
      <trkpt lat="-21.14144" lon="55.4523">
        <ele>830</ele>
        <time>2013-01-28T06:13:57Z</time>
      </trkpt>
      <trkpt lat="-21.14142" lon="55.45235">
        <ele>831</ele>
        <time>2013-01-28T06:14:07Z</time>
      </trkpt>
      <trkpt lat="-21.14148" lon="55.45242">
        <ele>832</ele>
        <time>2013-01-28T06:14:17Z</time>
      </trkpt>
      <trkpt lat="-21.14143" lon="55.45249">
        <ele>834</ele>
        <time>2013-01-28T06:14:27Z</time>
      </trkpt>
      <trkpt lat="-21.14142" lon="55.45254">
        <ele>836</ele>
        <time>2013-01-28T06:14:37Z</time>
      </trkpt>
      <trkpt lat="-21.1414" lon="55.45262">
        <ele>836</ele>
        <time>2013-01-28T06:14:47Z</time>
      </trkpt>
      <trkpt lat="-21.14135" lon="55.45266">
        <ele>838</ele>
        <time>2013-01-28T06:14:57Z</time>
      </trkpt>
      <trkpt lat="-21.14138" lon="55.45268">
        <ele>840</ele>
        <time>2013-01-28T06:15:07Z</time>
      </trkpt>
      <trkpt lat="-21.14139" lon="55.45276">
        <ele>843</ele>
        <time>2013-01-28T06:15:17Z</time>
      </trkpt>
      <trkpt lat="-21.14139" lon="55.45281">
        <ele>845</ele>
        <time>2013-01-28T06:15:28Z</time>
      </trkpt>
      <trkpt lat="-21.14137" lon="55.45287">
        <ele>847</ele>
        <time>2013-01-28T06:15:38Z</time>
      </trkpt>
      <trkpt lat="-21.14132" lon="55.45293">
        <ele>848</ele>
        <time>2013-01-28T06:15:48Z</time>
      </trkpt>
      <trkpt lat="-21.14124" lon="55.45299">
        <ele>850</ele>
        <time>2013-01-28T06:15:58Z</time>
      </trkpt>
      <trkpt lat="-21.14116" lon="55.45306">
        <ele>851</ele>
        <time>2013-01-28T06:16:08Z</time>
      </trkpt>
      <trkpt lat="-21.14108" lon="55.4531">
        <ele>853</ele>
        <time>2013-01-28T06:16:18Z</time>
      </trkpt>
      <trkpt lat="-21.14105" lon="55.45316">
        <ele>856</ele>
        <time>2013-01-28T06:16:28Z</time>
      </trkpt>
      <trkpt lat="-21.14101" lon="55.45319">
        <ele>858</ele>
        <time>2013-01-28T06:16:38Z</time>
      </trkpt>
      <trkpt lat="-21.141" lon="55.4532">
        <ele>861</ele>
        <time>2013-01-28T06:16:48Z</time>
      </trkpt>
      <trkpt lat="-21.14095" lon="55.45322">
        <ele>863</ele>
        <time>2013-01-28T06:16:58Z</time>
      </trkpt>
      <trkpt lat="-21.14087" lon="55.45331">
        <ele>865</ele>
        <time>2013-01-28T06:17:08Z</time>
      </trkpt>
      <trkpt lat="-21.14084" lon="55.45336">
        <ele>865</ele>
        <time>2013-01-28T06:17:18Z</time>
      </trkpt>
      <trkpt lat="-21.14078" lon="55.45342">
        <ele>864</ele>
        <time>2013-01-28T06:17:28Z</time>
      </trkpt>
      <trkpt lat="-21.14073" lon="55.45346">
        <ele>865</ele>
        <time>2013-01-28T06:17:38Z</time>
      </trkpt>
      <trkpt lat="-21.14071" lon="55.45348">
        <ele>865</ele>
        <time>2013-01-28T06:17:48Z</time>
      </trkpt>
      <trkpt lat="-21.14071" lon="55.45346">
        <ele>865</ele>
        <time>2013-01-28T06:17:58Z</time>
      </trkpt>
      <trkpt lat="-21.14072" lon="55.45345">
        <ele>865</ele>
        <time>2013-01-28T06:18:08Z</time>
      </trkpt>
      <trkpt lat="-21.14067" lon="55.45352">
        <ele>866</ele>
        <time>2013-01-28T06:18:18Z</time>
      </trkpt>
      <trkpt lat="-21.14061" lon="55.45362">
        <ele>866</ele>
        <time>2013-01-28T06:18:28Z</time>
      </trkpt>
      <trkpt lat="-21.14057" lon="55.45373">
        <ele>868</ele>
        <time>2013-01-28T06:18:38Z</time>
      </trkpt>
      <trkpt lat="-21.14057" lon="55.45385">
        <ele>867</ele>
        <time>2013-01-28T06:18:48Z</time>
      </trkpt>
      <trkpt lat="-21.14054" lon="55.45393">
        <ele>867</ele>
        <time>2013-01-28T06:18:58Z</time>
      </trkpt>
      <trkpt lat="-21.14048" lon="55.45401">
        <ele>868</ele>
        <time>2013-01-28T06:19:08Z</time>
      </trkpt>
      <trkpt lat="-21.14051" lon="55.45408">
        <ele>868</ele>
        <time>2013-01-28T06:19:18Z</time>
      </trkpt>
      <trkpt lat="-21.14053" lon="55.45423">
        <ele>868</ele>
        <time>2013-01-28T06:19:29Z</time>
      </trkpt>
      <trkpt lat="-21.14047" lon="55.45437">
        <ele>870</ele>
        <time>2013-01-28T06:19:39Z</time>
      </trkpt>
      <trkpt lat="-21.14042" lon="55.45445">
        <ele>871</ele>
        <time>2013-01-28T06:19:49Z</time>
      </trkpt>
      <trkpt lat="-21.14041" lon="55.45455">
        <ele>872</ele>
        <time>2013-01-28T06:19:59Z</time>
      </trkpt>
      <trkpt lat="-21.14043" lon="55.45463">
        <ele>873</ele>
        <time>2013-01-28T06:20:09Z</time>
      </trkpt>
      <trkpt lat="-21.14046" lon="55.45472">
        <ele>874</ele>
        <time>2013-01-28T06:20:19Z</time>
      </trkpt>
      <trkpt lat="-21.14048" lon="55.45481">
        <ele>876</ele>
        <time>2013-01-28T06:20:29Z</time>
      </trkpt>
      <trkpt lat="-21.14054" lon="55.45486">
        <ele>876</ele>
        <time>2013-01-28T06:20:39Z</time>
      </trkpt>
      <trkpt lat="-21.14054" lon="55.45491">
        <ele>877</ele>
        <time>2013-01-28T06:20:49Z</time>
      </trkpt>
      <trkpt lat="-21.14056" lon="55.45496">
        <ele>878</ele>
        <time>2013-01-28T06:20:59Z</time>
      </trkpt>
      <trkpt lat="-21.14055" lon="55.45499">
        <ele>880</ele>
        <time>2013-01-28T06:21:09Z</time>
      </trkpt>
      <trkpt lat="-21.14053" lon="55.45507">
        <ele>881</ele>
        <time>2013-01-28T06:21:19Z</time>
      </trkpt>
      <trkpt lat="-21.14053" lon="55.45514">
        <ele>883</ele>
        <time>2013-01-28T06:21:29Z</time>
      </trkpt>
      <trkpt lat="-21.14047" lon="55.45519">
        <ele>884</ele>
        <time>2013-01-28T06:21:39Z</time>
      </trkpt>
      <trkpt lat="-21.14046" lon="55.45528">
        <ele>884</ele>
        <time>2013-01-28T06:21:49Z</time>
      </trkpt>
      <trkpt lat="-21.14041" lon="55.45532">
        <ele>885</ele>
        <time>2013-01-28T06:22:00Z</time>
      </trkpt>
      <trkpt lat="-21.14037" lon="55.45539">
        <ele>886</ele>
        <time>2013-01-28T06:22:10Z</time>
      </trkpt>
      <trkpt lat="-21.14034" lon="55.45551">
        <ele>887</ele>
        <time>2013-01-28T06:22:20Z</time>
      </trkpt>
      <trkpt lat="-21.1403" lon="55.45566">
        <ele>889</ele>
        <time>2013-01-28T06:22:30Z</time>
      </trkpt>
      <trkpt lat="-21.14026" lon="55.45577">
        <ele>889</ele>
        <time>2013-01-28T06:22:40Z</time>
      </trkpt>
      <trkpt lat="-21.14029" lon="55.4559">
        <ele>891</ele>
        <time>2013-01-28T06:22:50Z</time>
      </trkpt>
      <trkpt lat="-21.14033" lon="55.456">
        <ele>893</ele>
        <time>2013-01-28T06:23:00Z</time>
      </trkpt>
      <trkpt lat="-21.14034" lon="55.45608">
        <ele>894</ele>
        <time>2013-01-28T06:23:10Z</time>
      </trkpt>
      <trkpt lat="-21.14033" lon="55.45611">
        <ele>895</ele>
        <time>2013-01-28T06:23:20Z</time>
      </trkpt>
      <trkpt lat="-21.14031" lon="55.45612">
        <ele>896</ele>
        <time>2013-01-28T06:23:30Z</time>
      </trkpt>
      <trkpt lat="-21.14037" lon="55.45616">
        <ele>898</ele>
        <time>2013-01-28T06:23:40Z</time>
      </trkpt>
      <trkpt lat="-21.14038" lon="55.45617">
        <ele>899</ele>
        <time>2013-01-28T06:23:50Z</time>
      </trkpt>
      <trkpt lat="-21.14034" lon="55.45623">
        <ele>900</ele>
        <time>2013-01-28T06:24:00Z</time>
      </trkpt>
      <trkpt lat="-21.14027" lon="55.45632">
        <ele>902</ele>
        <time>2013-01-28T06:24:10Z</time>
      </trkpt>
      <trkpt lat="-21.14024" lon="55.45641">
        <ele>904</ele>
        <time>2013-01-28T06:24:20Z</time>
      </trkpt>
      <trkpt lat="-21.14024" lon="55.45648">
        <ele>904</ele>
        <time>2013-01-28T06:24:30Z</time>
      </trkpt>
      <trkpt lat="-21.14019" lon="55.45654">
        <ele>906</ele>
        <time>2013-01-28T06:24:40Z</time>
      </trkpt>
      <trkpt lat="-21.14023" lon="55.45654">
        <ele>908</ele>
        <time>2013-01-28T06:24:50Z</time>
      </trkpt>
      <trkpt lat="-21.14025" lon="55.45655">
        <ele>908</ele>
        <time>2013-01-28T06:25:00Z</time>
      </trkpt>
      <trkpt lat="-21.14024" lon="55.45659">
        <ele>908</ele>
        <time>2013-01-28T06:25:11Z</time>
      </trkpt>
      <trkpt lat="-21.14021" lon="55.45666">
        <ele>910</ele>
        <time>2013-01-28T06:25:21Z</time>
      </trkpt>
      <trkpt lat="-21.14012" lon="55.45668">
        <ele>912</ele>
        <time>2013-01-28T06:25:31Z</time>
      </trkpt>
      <trkpt lat="-21.13999" lon="55.45672">
        <ele>914</ele>
        <time>2013-01-28T06:25:41Z</time>
      </trkpt>
      <trkpt lat="-21.14003" lon="55.45677">
        <ele>916</ele>
        <time>2013-01-28T06:25:51Z</time>
      </trkpt>
      <trkpt lat="-21.14006" lon="55.45682">
        <ele>918</ele>
        <time>2013-01-28T06:26:01Z</time>
      </trkpt>
      <trkpt lat="-21.14005" lon="55.45694">
        <ele>920</ele>
        <time>2013-01-28T06:26:11Z</time>
      </trkpt>
      <trkpt lat="-21.14009" lon="55.45701">
        <ele>921</ele>
        <time>2013-01-28T06:26:21Z</time>
      </trkpt>
      <trkpt lat="-21.14005" lon="55.45706">
        <ele>923</ele>
        <time>2013-01-28T06:26:31Z</time>
      </trkpt>
      <trkpt lat="-21.14002" lon="55.45704">
        <ele>925</ele>
        <time>2013-01-28T06:26:41Z</time>
      </trkpt>
      <trkpt lat="-21.13998" lon="55.457">
        <ele>927</ele>
        <time>2013-01-28T06:26:51Z</time>
      </trkpt>
      <trkpt lat="-21.13995" lon="55.45706">
        <ele>930</ele>
        <time>2013-01-28T06:27:01Z</time>
      </trkpt>
      <trkpt lat="-21.13987" lon="55.45704">
        <ele>931</ele>
        <time>2013-01-28T06:27:11Z</time>
      </trkpt>
      <trkpt lat="-21.13983" lon="55.45712">
        <ele>932</ele>
        <time>2013-01-28T06:27:21Z</time>
      </trkpt>
      <trkpt lat="-21.13981" lon="55.45721">
        <ele>934</ele>
        <time>2013-01-28T06:27:31Z</time>
      </trkpt>
      <trkpt lat="-21.13978" lon="55.45731">
        <ele>936</ele>
        <time>2013-01-28T06:27:41Z</time>
      </trkpt>
      <trkpt lat="-21.13962" lon="55.45745">
        <ele>938</ele>
        <time>2013-01-28T06:27:51Z</time>
      </trkpt>
      <trkpt lat="-21.13946" lon="55.45762">
        <ele>936</ele>
        <time>2013-01-28T06:28:02Z</time>
      </trkpt>
      <trkpt lat="-21.13943" lon="55.45773">
        <ele>935</ele>
        <time>2013-01-28T06:28:12Z</time>
      </trkpt>
      <trkpt lat="-21.13931" lon="55.45791">
        <ele>935</ele>
        <time>2013-01-28T06:28:22Z</time>
      </trkpt>
      <trkpt lat="-21.13923" lon="55.45802">
        <ele>937</ele>
        <time>2013-01-28T06:28:32Z</time>
      </trkpt>
      <trkpt lat="-21.13918" lon="55.45812">
        <ele>937</ele>
        <time>2013-01-28T06:28:42Z</time>
      </trkpt>
      <trkpt lat="-21.13918" lon="55.45821">
        <ele>939</ele>
        <time>2013-01-28T06:28:52Z</time>
      </trkpt>
      <trkpt lat="-21.13923" lon="55.45828">
        <ele>939</ele>
        <time>2013-01-28T06:29:02Z</time>
      </trkpt>
      <trkpt lat="-21.13918" lon="55.4583">
        <ele>941</ele>
        <time>2013-01-28T06:29:12Z</time>
      </trkpt>
      <trkpt lat="-21.13923" lon="55.45832">
        <ele>941</ele>
        <time>2013-01-28T06:29:22Z</time>
      </trkpt>
      <trkpt lat="-21.13926" lon="55.45828">
        <ele>941</ele>
        <time>2013-01-28T06:29:32Z</time>
      </trkpt>
      <trkpt lat="-21.13934" lon="55.45826">
        <ele>941</ele>
        <time>2013-01-28T06:29:42Z</time>
      </trkpt>
      <trkpt lat="-21.13931" lon="55.4583">
        <ele>941</ele>
        <time>2013-01-28T06:29:52Z</time>
      </trkpt>
      <trkpt lat="-21.13924" lon="55.45837">
        <ele>941</ele>
        <time>2013-01-28T06:30:02Z</time>
      </trkpt>
      <trkpt lat="-21.13929" lon="55.45835">
        <ele>942</ele>
        <time>2013-01-28T06:30:12Z</time>
      </trkpt>
      <trkpt lat="-21.13937" lon="55.45829">
        <ele>943</ele>
        <time>2013-01-28T06:30:22Z</time>
      </trkpt>
      <trkpt lat="-21.13948" lon="55.45821">
        <ele>945</ele>
        <time>2013-01-28T06:30:32Z</time>
      </trkpt>
      <trkpt lat="-21.13956" lon="55.45824">
        <ele>947</ele>
        <time>2013-01-28T06:30:42Z</time>
      </trkpt>
      <trkpt lat="-21.13956" lon="55.45832">
        <ele>949</ele>
        <time>2013-01-28T06:30:53Z</time>
      </trkpt>
      <trkpt lat="-21.1395" lon="55.45832">
        <ele>952</ele>
        <time>2013-01-28T06:31:03Z</time>
      </trkpt>
      <trkpt lat="-21.13942" lon="55.4583">
        <ele>954</ele>
        <time>2013-01-28T06:31:13Z</time>
      </trkpt>
      <trkpt lat="-21.13936" lon="55.4583">
        <ele>956</ele>
        <time>2013-01-28T06:31:23Z</time>
      </trkpt>
      <trkpt lat="-21.13931" lon="55.4584">
        <ele>958</ele>
        <time>2013-01-28T06:31:33Z</time>
      </trkpt>
      <trkpt lat="-21.13922" lon="55.45859">
        <ele>963</ele>
        <time>2013-01-28T06:31:59Z</time>
      </trkpt>
      <trkpt lat="-21.1392" lon="55.45854">
        <ele>966</ele>
        <time>2013-01-28T06:32:09Z</time>
      </trkpt>
      <trkpt lat="-21.13917" lon="55.45846">
        <ele>967</ele>
        <time>2013-01-28T06:32:19Z</time>
      </trkpt>
      <trkpt lat="-21.13914" lon="55.45838">
        <ele>969</ele>
        <time>2013-01-28T06:32:29Z</time>
      </trkpt>
      <trkpt lat="-21.13909" lon="55.45833">
        <ele>971</ele>
        <time>2013-01-28T06:32:39Z</time>
      </trkpt>
      <trkpt lat="-21.13911" lon="55.45837">
        <ele>972</ele>
        <time>2013-01-28T06:32:49Z</time>
      </trkpt>
      <trkpt lat="-21.13915" lon="55.45844">
        <ele>975</ele>
        <time>2013-01-28T06:32:59Z</time>
      </trkpt>
      <trkpt lat="-21.13917" lon="55.45847">
        <ele>975</ele>
        <time>2013-01-28T06:33:09Z</time>
      </trkpt>
      <trkpt lat="-21.13915" lon="55.45855">
        <ele>977</ele>
        <time>2013-01-28T06:33:19Z</time>
      </trkpt>
      <trkpt lat="-21.13917" lon="55.45866">
        <ele>977</ele>
        <time>2013-01-28T06:33:29Z</time>
      </trkpt>
      <trkpt lat="-21.13914" lon="55.45873">
        <ele>978</ele>
        <time>2013-01-28T06:33:39Z</time>
      </trkpt>
      <trkpt lat="-21.13916" lon="55.45877">
        <ele>978</ele>
        <time>2013-01-28T06:33:49Z</time>
      </trkpt>
      <trkpt lat="-21.13916" lon="55.45882">
        <ele>979</ele>
        <time>2013-01-28T06:33:59Z</time>
      </trkpt>
      <trkpt lat="-21.13919" lon="55.45888">
        <ele>979</ele>
        <time>2013-01-28T06:34:09Z</time>
      </trkpt>
      <trkpt lat="-21.13925" lon="55.45892">
        <ele>980</ele>
        <time>2013-01-28T06:34:20Z</time>
      </trkpt>
      <trkpt lat="-21.13928" lon="55.45893">
        <ele>981</ele>
        <time>2013-01-28T06:34:30Z</time>
      </trkpt>
      <trkpt lat="-21.13931" lon="55.45896">
        <ele>983</ele>
        <time>2013-01-28T06:34:40Z</time>
      </trkpt>
      <trkpt lat="-21.13931" lon="55.45897">
        <ele>983</ele>
        <time>2013-01-28T06:34:50Z</time>
      </trkpt>
      <trkpt lat="-21.1393" lon="55.45898">
        <ele>983</ele>
        <time>2013-01-28T06:35:00Z</time>
      </trkpt>
      <trkpt lat="-21.13928" lon="55.459">
        <ele>983</ele>
        <time>2013-01-28T06:35:10Z</time>
      </trkpt>
      <trkpt lat="-21.13928" lon="55.45902">
        <ele>983</ele>
        <time>2013-01-28T06:35:20Z</time>
      </trkpt>
      <trkpt lat="-21.13933" lon="55.45908">
        <ele>983</ele>
        <time>2013-01-28T06:35:30Z</time>
      </trkpt>
      <trkpt lat="-21.13933" lon="55.45919">
        <ele>982</ele>
        <time>2013-01-28T06:35:40Z</time>
      </trkpt>
      <trkpt lat="-21.13929" lon="55.45928">
        <ele>982</ele>
        <time>2013-01-28T06:35:50Z</time>
      </trkpt>
      <trkpt lat="-21.13927" lon="55.45937">
        <ele>983</ele>
        <time>2013-01-28T06:36:00Z</time>
      </trkpt>
      <trkpt lat="-21.13921" lon="55.45949">
        <ele>981</ele>
        <time>2013-01-28T06:36:10Z</time>
      </trkpt>
      <trkpt lat="-21.13922" lon="55.4596">
        <ele>983</ele>
        <time>2013-01-28T06:36:20Z</time>
      </trkpt>
      <trkpt lat="-21.13923" lon="55.45969">
        <ele>983</ele>
        <time>2013-01-28T06:36:31Z</time>
      </trkpt>
      <trkpt lat="-21.13926" lon="55.45978">
        <ele>985</ele>
        <time>2013-01-28T06:36:41Z</time>
      </trkpt>
      <trkpt lat="-21.13927" lon="55.4599">
        <ele>986</ele>
        <time>2013-01-28T06:36:51Z</time>
      </trkpt>
      <trkpt lat="-21.13921" lon="55.46">
        <ele>988</ele>
        <time>2013-01-28T06:37:01Z</time>
      </trkpt>
      <trkpt lat="-21.13919" lon="55.46009">
        <ele>991</ele>
        <time>2013-01-28T06:37:11Z</time>
      </trkpt>
      <trkpt lat="-21.13915" lon="55.46018">
        <ele>993</ele>
        <time>2013-01-28T06:37:21Z</time>
      </trkpt>
      <trkpt lat="-21.13911" lon="55.46025">
        <ele>993</ele>
        <time>2013-01-28T06:37:31Z</time>
      </trkpt>
      <trkpt lat="-21.13913" lon="55.46034">
        <ele>995</ele>
        <time>2013-01-28T06:37:41Z</time>
      </trkpt>
      <trkpt lat="-21.13912" lon="55.46043">
        <ele>997</ele>
        <time>2013-01-28T06:37:51Z</time>
      </trkpt>
      <trkpt lat="-21.13909" lon="55.4605">
        <ele>999</ele>
        <time>2013-01-28T06:38:01Z</time>
      </trkpt>
      <trkpt lat="-21.13905" lon="55.46055">
        <ele>999</ele>
        <time>2013-01-28T06:38:11Z</time>
      </trkpt>
      <trkpt lat="-21.13902" lon="55.4606">
        <ele>1002</ele>
        <time>2013-01-28T06:38:21Z</time>
      </trkpt>
      <trkpt lat="-21.13901" lon="55.46054">
        <ele>1004</ele>
        <time>2013-01-28T06:38:31Z</time>
      </trkpt>
      <trkpt lat="-21.13903" lon="55.46046">
        <ele>1005</ele>
        <time>2013-01-28T06:38:42Z</time>
      </trkpt>
      <trkpt lat="-21.139" lon="55.46045">
        <ele>1007</ele>
        <time>2013-01-28T06:38:52Z</time>
      </trkpt>
      <trkpt lat="-21.13898" lon="55.46049">
        <ele>1009</ele>
        <time>2013-01-28T06:39:02Z</time>
      </trkpt>
      <trkpt lat="-21.13899" lon="55.46056">
        <ele>1009</ele>
        <time>2013-01-28T06:39:12Z</time>
      </trkpt>
      <trkpt lat="-21.13896" lon="55.46062">
        <ele>1009</ele>
        <time>2013-01-28T06:39:22Z</time>
      </trkpt>
      <trkpt lat="-21.13889" lon="55.46068">
        <ele>1009</ele>
        <time>2013-01-28T06:39:32Z</time>
      </trkpt>
      <trkpt lat="-21.13883" lon="55.46072">
        <ele>1009</ele>
        <time>2013-01-28T06:39:42Z</time>
      </trkpt>
      <trkpt lat="-21.13878" lon="55.46072">
        <ele>1010</ele>
        <time>2013-01-28T06:39:52Z</time>
      </trkpt>
      <trkpt lat="-21.13875" lon="55.46071">
        <ele>1010</ele>
        <time>2013-01-28T06:40:02Z</time>
      </trkpt>
      <trkpt lat="-21.13868" lon="55.46074">
        <ele>1010</ele>
        <time>2013-01-28T06:40:12Z</time>
      </trkpt>
      <trkpt lat="-21.13863" lon="55.46081">
        <ele>1012</ele>
        <time>2013-01-28T06:40:22Z</time>
      </trkpt>
      <trkpt lat="-21.13863" lon="55.4609">
        <ele>1014</ele>
        <time>2013-01-28T06:40:32Z</time>
      </trkpt>
      <trkpt lat="-21.13858" lon="55.46087">
        <ele>1017</ele>
        <time>2013-01-28T06:40:42Z</time>
      </trkpt>
      <trkpt lat="-21.13856" lon="55.46082">
        <ele>1019</ele>
        <time>2013-01-28T06:40:52Z</time>
      </trkpt>
      <trkpt lat="-21.13851" lon="55.46074">
        <ele>1021</ele>
        <time>2013-01-28T06:41:02Z</time>
      </trkpt>
      <trkpt lat="-21.13851" lon="55.46072">
        <ele>1022</ele>
        <time>2013-01-28T06:41:12Z</time>
      </trkpt>
      <trkpt lat="-21.1385" lon="55.46076">
        <ele>1023</ele>
        <time>2013-01-28T06:41:22Z</time>
      </trkpt>
      <trkpt lat="-21.13854" lon="55.46082">
        <ele>1025</ele>
        <time>2013-01-28T06:41:32Z</time>
      </trkpt>
      <trkpt lat="-21.13856" lon="55.4609">
        <ele>1028</ele>
        <time>2013-01-28T06:41:43Z</time>
      </trkpt>
      <trkpt lat="-21.13857" lon="55.46093">
        <ele>1030</ele>
        <time>2013-01-28T06:41:53Z</time>
      </trkpt>
      <trkpt lat="-21.13851" lon="55.46095">
        <ele>1030</ele>
        <time>2013-01-28T06:42:03Z</time>
      </trkpt>
      <trkpt lat="-21.13844" lon="55.46093">
        <ele>1032</ele>
        <time>2013-01-28T06:42:13Z</time>
      </trkpt>
      <trkpt lat="-21.13837" lon="55.46089">
        <ele>1034</ele>
        <time>2013-01-28T06:42:23Z</time>
      </trkpt>
      <trkpt lat="-21.13829" lon="55.46085">
        <ele>1036</ele>
        <time>2013-01-28T06:42:33Z</time>
      </trkpt>
      <trkpt lat="-21.13824" lon="55.46088">
        <ele>1037</ele>
        <time>2013-01-28T06:42:43Z</time>
      </trkpt>
      <trkpt lat="-21.13823" lon="55.46098">
        <ele>1038</ele>
        <time>2013-01-28T06:42:53Z</time>
      </trkpt>
      <trkpt lat="-21.13823" lon="55.46105">
        <ele>1039</ele>
        <time>2013-01-28T06:43:03Z</time>
      </trkpt>
      <trkpt lat="-21.13824" lon="55.46109">
        <ele>1039</ele>
        <time>2013-01-28T06:43:13Z</time>
      </trkpt>
      <trkpt lat="-21.13826" lon="55.46111">
        <ele>1039</ele>
        <time>2013-01-28T06:43:23Z</time>
      </trkpt>
      <trkpt lat="-21.13831" lon="55.46117">
        <ele>1040</ele>
        <time>2013-01-28T06:43:33Z</time>
      </trkpt>
      <trkpt lat="-21.13836" lon="55.46123">
        <ele>1041</ele>
        <time>2013-01-28T06:43:43Z</time>
      </trkpt>
      <trkpt lat="-21.13832" lon="55.46132">
        <ele>1043</ele>
        <time>2013-01-28T06:43:53Z</time>
      </trkpt>
      <trkpt lat="-21.13828" lon="55.46143">
        <ele>1042</ele>
        <time>2013-01-28T06:44:03Z</time>
      </trkpt>
      <trkpt lat="-21.13823" lon="55.46147">
        <ele>1041</ele>
        <time>2013-01-28T06:44:14Z</time>
      </trkpt>
      <trkpt lat="-21.13813" lon="55.46149">
        <ele>1041</ele>
        <time>2013-01-28T06:44:24Z</time>
      </trkpt>
      <trkpt lat="-21.13803" lon="55.46149">
        <ele>1041</ele>
        <time>2013-01-28T06:44:34Z</time>
      </trkpt>
      <trkpt lat="-21.13795" lon="55.46147">
        <ele>1042</ele>
        <time>2013-01-28T06:44:44Z</time>
      </trkpt>
      <trkpt lat="-21.13788" lon="55.46146">
        <ele>1044</ele>
        <time>2013-01-28T06:44:54Z</time>
      </trkpt>
      <trkpt lat="-21.13782" lon="55.4615">
        <ele>1046</ele>
        <time>2013-01-28T06:45:04Z</time>
      </trkpt>
      <trkpt lat="-21.13778" lon="55.46155">
        <ele>1048</ele>
        <time>2013-01-28T06:45:14Z</time>
      </trkpt>
      <trkpt lat="-21.13772" lon="55.46162">
        <ele>1051</ele>
        <time>2013-01-28T06:45:24Z</time>
      </trkpt>
      <trkpt lat="-21.13765" lon="55.46169">
        <ele>1053</ele>
        <time>2013-01-28T06:45:34Z</time>
      </trkpt>
      <trkpt lat="-21.13761" lon="55.46174">
        <ele>1056</ele>
        <time>2013-01-28T06:45:44Z</time>
      </trkpt>
      <trkpt lat="-21.13759" lon="55.46181">
        <ele>1058</ele>
        <time>2013-01-28T06:45:54Z</time>
      </trkpt>
      <trkpt lat="-21.13756" lon="55.46187">
        <ele>1061</ele>
        <time>2013-01-28T06:46:04Z</time>
      </trkpt>
      <trkpt lat="-21.13756" lon="55.46195">
        <ele>1062</ele>
        <time>2013-01-28T06:46:14Z</time>
      </trkpt>
      <trkpt lat="-21.13755" lon="55.46199">
        <ele>1063</ele>
        <time>2013-01-28T06:46:24Z</time>
      </trkpt>
      <trkpt lat="-21.13757" lon="55.46201">
        <ele>1066</ele>
        <time>2013-01-28T06:46:35Z</time>
      </trkpt>
      <trkpt lat="-21.13762" lon="55.46199">
        <ele>1067</ele>
        <time>2013-01-28T06:46:45Z</time>
      </trkpt>
      <trkpt lat="-21.13769" lon="55.46199">
        <ele>1067</ele>
        <time>2013-01-28T06:46:55Z</time>
      </trkpt>
      <trkpt lat="-21.13775" lon="55.46206">
        <ele>1071</ele>
        <time>2013-01-28T06:47:05Z</time>
      </trkpt>
      <trkpt lat="-21.13781" lon="55.46214">
        <ele>1072</ele>
        <time>2013-01-28T06:47:15Z</time>
      </trkpt>
      <trkpt lat="-21.13778" lon="55.46218">
        <ele>1075</ele>
        <time>2013-01-28T06:47:25Z</time>
      </trkpt>
      <trkpt lat="-21.13767" lon="55.4622">
        <ele>1076</ele>
        <time>2013-01-28T06:47:35Z</time>
      </trkpt>
      <trkpt lat="-21.13762" lon="55.4622">
        <ele>1080</ele>
        <time>2013-01-28T06:47:45Z</time>
      </trkpt>
      <trkpt lat="-21.13767" lon="55.46227">
        <ele>1082</ele>
        <time>2013-01-28T06:47:55Z</time>
      </trkpt>
      <trkpt lat="-21.1377" lon="55.46233">
        <ele>1083</ele>
        <time>2013-01-28T06:48:05Z</time>
      </trkpt>
      <trkpt lat="-21.13766" lon="55.4623">
        <ele>1086</ele>
        <time>2013-01-28T06:48:15Z</time>
      </trkpt>
      <trkpt lat="-21.13763" lon="55.46226">
        <ele>1088</ele>
        <time>2013-01-28T06:48:25Z</time>
      </trkpt>
      <trkpt lat="-21.13761" lon="55.46225">
        <ele>1089</ele>
        <time>2013-01-28T06:48:35Z</time>
      </trkpt>
      <trkpt lat="-21.13762" lon="55.46227">
        <ele>1090</ele>
        <time>2013-01-28T06:48:45Z</time>
      </trkpt>
      <trkpt lat="-21.13763" lon="55.46227">
        <ele>1090</ele>
        <time>2013-01-28T06:48:55Z</time>
      </trkpt>
      <trkpt lat="-21.13764" lon="55.4623">
        <ele>1090</ele>
        <time>2013-01-28T06:49:05Z</time>
      </trkpt>
      <trkpt lat="-21.13764" lon="55.46235">
        <ele>1091</ele>
        <time>2013-01-28T06:49:15Z</time>
      </trkpt>
      <trkpt lat="-21.13763" lon="55.46236">
        <ele>1093</ele>
        <time>2013-01-28T06:49:26Z</time>
      </trkpt>
      <trkpt lat="-21.13761" lon="55.46231">
        <ele>1095</ele>
        <time>2013-01-28T06:49:36Z</time>
      </trkpt>
      <trkpt lat="-21.13761" lon="55.46231">
        <ele>1095</ele>
        <time>2013-01-28T06:49:46Z</time>
      </trkpt>
      <trkpt lat="-21.13761" lon="55.46231">
        <ele>1095</ele>
        <time>2013-01-28T06:49:56Z</time>
      </trkpt>
      <trkpt lat="-21.13761" lon="55.46231">
        <ele>1097</ele>
        <time>2013-01-28T06:50:06Z</time>
      </trkpt>
      <trkpt lat="-21.13756" lon="55.46235">
        <ele>1097</ele>
        <time>2013-01-28T06:50:16Z</time>
      </trkpt>
      <trkpt lat="-21.13754" lon="55.46239">
        <ele>1098</ele>
        <time>2013-01-28T06:50:26Z</time>
      </trkpt>
      <trkpt lat="-21.13748" lon="55.46243">
        <ele>1100</ele>
        <time>2013-01-28T06:50:36Z</time>
      </trkpt>
      <trkpt lat="-21.13748" lon="55.46244">
        <ele>1101</ele>
        <time>2013-01-28T06:50:46Z</time>
      </trkpt>
      <trkpt lat="-21.1375" lon="55.46245">
        <ele>1101</ele>
        <time>2013-01-28T06:50:56Z</time>
      </trkpt>
      <trkpt lat="-21.13753" lon="55.46253">
        <ele>1102</ele>
        <time>2013-01-28T06:51:06Z</time>
      </trkpt>
      <trkpt lat="-21.13755" lon="55.46262">
        <ele>1103</ele>
        <time>2013-01-28T06:51:16Z</time>
      </trkpt>
      <trkpt lat="-21.13755" lon="55.46271">
        <ele>1105</ele>
        <time>2013-01-28T06:51:26Z</time>
      </trkpt>
      <trkpt lat="-21.13751" lon="55.46278">
        <ele>1107</ele>
        <time>2013-01-28T06:51:36Z</time>
      </trkpt>
      <trkpt lat="-21.13746" lon="55.46281">
        <ele>1109</ele>
        <time>2013-01-28T06:51:47Z</time>
      </trkpt>
      <trkpt lat="-21.13741" lon="55.46281">
        <ele>1111</ele>
        <time>2013-01-28T06:51:57Z</time>
      </trkpt>
      <trkpt lat="-21.13734" lon="55.46283">
        <ele>1113</ele>
        <time>2013-01-28T06:52:07Z</time>
      </trkpt>
      <trkpt lat="-21.13729" lon="55.46287">
        <ele>1116</ele>
        <time>2013-01-28T06:52:17Z</time>
      </trkpt>
      <trkpt lat="-21.13726" lon="55.46292">
        <ele>1118</ele>
        <time>2013-01-28T06:52:27Z</time>
      </trkpt>
      <trkpt lat="-21.13721" lon="55.46297">
        <ele>1120</ele>
        <time>2013-01-28T06:52:37Z</time>
      </trkpt>
      <trkpt lat="-21.13718" lon="55.46302">
        <ele>1121</ele>
        <time>2013-01-28T06:52:47Z</time>
      </trkpt>
      <trkpt lat="-21.13724" lon="55.46304">
        <ele>1123</ele>
        <time>2013-01-28T06:52:57Z</time>
      </trkpt>
      <trkpt lat="-21.13731" lon="55.46304">
        <ele>1124</ele>
        <time>2013-01-28T06:53:07Z</time>
      </trkpt>
      <trkpt lat="-21.13737" lon="55.46305">
        <ele>1125</ele>
        <time>2013-01-28T06:53:17Z</time>
      </trkpt>
      <trkpt lat="-21.13744" lon="55.46305">
        <ele>1127</ele>
        <time>2013-01-28T06:53:27Z</time>
      </trkpt>
      <trkpt lat="-21.13746" lon="55.4631">
        <ele>1129</ele>
        <time>2013-01-28T06:53:37Z</time>
      </trkpt>
      <trkpt lat="-21.13743" lon="55.46312">
        <ele>1130</ele>
        <time>2013-01-28T06:53:47Z</time>
      </trkpt>
      <trkpt lat="-21.13742" lon="55.46317">
        <ele>1131</ele>
        <time>2013-01-28T06:53:57Z</time>
      </trkpt>
      <trkpt lat="-21.13745" lon="55.4632">
        <ele>1132</ele>
        <time>2013-01-28T06:54:08Z</time>
      </trkpt>
      <trkpt lat="-21.13747" lon="55.46321">
        <ele>1132</ele>
        <time>2013-01-28T06:54:18Z</time>
      </trkpt>
      <trkpt lat="-21.13747" lon="55.46321">
        <ele>1132</ele>
        <time>2013-01-28T06:54:28Z</time>
      </trkpt>
      <trkpt lat="-21.13746" lon="55.46321">
        <ele>1132</ele>
        <time>2013-01-28T06:54:38Z</time>
      </trkpt>
      <trkpt lat="-21.13747" lon="55.46322">
        <ele>1133</ele>
        <time>2013-01-28T06:54:48Z</time>
      </trkpt>
      <trkpt lat="-21.13746" lon="55.46321">
        <ele>1132</ele>
        <time>2013-01-28T06:54:58Z</time>
      </trkpt>
      <trkpt lat="-21.13748" lon="55.46326">
        <ele>1133</ele>
        <time>2013-01-28T06:55:08Z</time>
      </trkpt>
      <trkpt lat="-21.13751" lon="55.46328">
        <ele>1133</ele>
        <time>2013-01-28T06:55:18Z</time>
      </trkpt>
      <trkpt lat="-21.13758" lon="55.46334">
        <ele>1133</ele>
        <time>2013-01-28T06:55:28Z</time>
      </trkpt>
      <trkpt lat="-21.13769" lon="55.46338">
        <ele>1134</ele>
        <time>2013-01-28T06:55:39Z</time>
      </trkpt>
      <trkpt lat="-21.13777" lon="55.46344">
        <ele>1134</ele>
        <time>2013-01-28T06:55:49Z</time>
      </trkpt>
      <trkpt lat="-21.13773" lon="55.46347">
        <ele>1135</ele>
        <time>2013-01-28T06:55:59Z</time>
      </trkpt>
      <trkpt lat="-21.13763" lon="55.46345">
        <ele>1136</ele>
        <time>2013-01-28T06:56:09Z</time>
      </trkpt>
      <trkpt lat="-21.13753" lon="55.46345">
        <ele>1138</ele>
        <time>2013-01-28T06:56:19Z</time>
      </trkpt>
      <trkpt lat="-21.13743" lon="55.46347">
        <ele>1139</ele>
        <time>2013-01-28T06:56:29Z</time>
      </trkpt>
      <trkpt lat="-21.13733" lon="55.46351">
        <ele>1140</ele>
        <time>2013-01-28T06:56:39Z</time>
      </trkpt>
      <trkpt lat="-21.13724" lon="55.46357">
        <ele>1142</ele>
        <time>2013-01-28T06:56:49Z</time>
      </trkpt>
      <trkpt lat="-21.13718" lon="55.46367">
        <ele>1143</ele>
        <time>2013-01-28T06:56:59Z</time>
      </trkpt>
      <trkpt lat="-21.13714" lon="55.46378">
        <ele>1145</ele>
        <time>2013-01-28T06:57:09Z</time>
      </trkpt>
      <trkpt lat="-21.13711" lon="55.4639">
        <ele>1146</ele>
        <time>2013-01-28T06:57:19Z</time>
      </trkpt>
      <trkpt lat="-21.13708" lon="55.464">
        <ele>1147</ele>
        <time>2013-01-28T06:57:29Z</time>
      </trkpt>
      <trkpt lat="-21.13701" lon="55.46409">
        <ele>1149</ele>
        <time>2013-01-28T06:57:39Z</time>
      </trkpt>
      <trkpt lat="-21.13694" lon="55.46416">
        <ele>1151</ele>
        <time>2013-01-28T06:57:49Z</time>
      </trkpt>
      <trkpt lat="-21.13686" lon="55.46424">
        <ele>1152</ele>
        <time>2013-01-28T06:57:59Z</time>
      </trkpt>
      <trkpt lat="-21.13682" lon="55.46436">
        <ele>1154</ele>
        <time>2013-01-28T06:58:09Z</time>
      </trkpt>
      <trkpt lat="-21.1368" lon="55.46445">
        <ele>1155</ele>
        <time>2013-01-28T06:58:19Z</time>
      </trkpt>
      <trkpt lat="-21.13677" lon="55.4645">
        <ele>1156</ele>
        <time>2013-01-28T06:58:29Z</time>
      </trkpt>
      <trkpt lat="-21.13671" lon="55.4646">
        <ele>1156</ele>
        <time>2013-01-28T06:58:39Z</time>
      </trkpt>
      <trkpt lat="-21.13666" lon="55.46471">
        <ele>1158</ele>
        <time>2013-01-28T06:58:49Z</time>
      </trkpt>
      <trkpt lat="-21.13666" lon="55.46478">
        <ele>1159</ele>
        <time>2013-01-28T06:59:00Z</time>
      </trkpt>
      <trkpt lat="-21.13668" lon="55.46484">
        <ele>1161</ele>
        <time>2013-01-28T06:59:10Z</time>
      </trkpt>
      <trkpt lat="-21.13666" lon="55.46493">
        <ele>1163</ele>
        <time>2013-01-28T06:59:20Z</time>
      </trkpt>
      <trkpt lat="-21.13657" lon="55.46495">
        <ele>1165</ele>
        <time>2013-01-28T06:59:30Z</time>
      </trkpt>
      <trkpt lat="-21.13649" lon="55.46497">
        <ele>1167</ele>
        <time>2013-01-28T06:59:40Z</time>
      </trkpt>
      <trkpt lat="-21.13641" lon="55.46501">
        <ele>1170</ele>
        <time>2013-01-28T06:59:50Z</time>
      </trkpt>
      <trkpt lat="-21.13638" lon="55.46509">
        <ele>1172</ele>
        <time>2013-01-28T07:00:00Z</time>
      </trkpt>
      <trkpt lat="-21.13635" lon="55.46518">
        <ele>1173</ele>
        <time>2013-01-28T07:00:10Z</time>
      </trkpt>
      <trkpt lat="-21.13627" lon="55.46524">
        <ele>1175</ele>
        <time>2013-01-28T07:00:20Z</time>
      </trkpt>
      <trkpt lat="-21.1362" lon="55.4653">
        <ele>1177</ele>
        <time>2013-01-28T07:00:30Z</time>
      </trkpt>
      <trkpt lat="-21.13614" lon="55.46537">
        <ele>1178</ele>
        <time>2013-01-28T07:00:40Z</time>
      </trkpt>
      <trkpt lat="-21.1361" lon="55.4654">
        <ele>1179</ele>
        <time>2013-01-28T07:00:50Z</time>
      </trkpt>
      <trkpt lat="-21.13608" lon="55.46542">
        <ele>1179</ele>
        <time>2013-01-28T07:01:00Z</time>
      </trkpt>
      <trkpt lat="-21.13609" lon="55.46544">
        <ele>1180</ele>
        <time>2013-01-28T07:01:10Z</time>
      </trkpt>
      <trkpt lat="-21.13608" lon="55.46542">
        <ele>1179</ele>
        <time>2013-01-28T07:01:20Z</time>
      </trkpt>
      <trkpt lat="-21.13603" lon="55.46551">
        <ele>1180</ele>
        <time>2013-01-28T07:01:30Z</time>
      </trkpt>
      <trkpt lat="-21.13601" lon="55.46561">
        <ele>1179</ele>
        <time>2013-01-28T07:01:40Z</time>
      </trkpt>
      <trkpt lat="-21.13598" lon="55.46574">
        <ele>1180</ele>
        <time>2013-01-28T07:01:50Z</time>
      </trkpt>
      <trkpt lat="-21.13595" lon="55.46587">
        <ele>1180</ele>
        <time>2013-01-28T07:02:00Z</time>
      </trkpt>
      <trkpt lat="-21.13592" lon="55.46601">
        <ele>1180</ele>
        <time>2013-01-28T07:02:10Z</time>
      </trkpt>
      <trkpt lat="-21.1359" lon="55.46616">
        <ele>1179</ele>
        <time>2013-01-28T07:02:20Z</time>
      </trkpt>
      <trkpt lat="-21.1359" lon="55.46632">
        <ele>1179</ele>
        <time>2013-01-28T07:02:31Z</time>
      </trkpt>
      <trkpt lat="-21.13593" lon="55.46643">
        <ele>1180</ele>
        <time>2013-01-28T07:02:41Z</time>
      </trkpt>
      <trkpt lat="-21.13598" lon="55.46656">
        <ele>1180</ele>
        <time>2013-01-28T07:02:51Z</time>
      </trkpt>
      <trkpt lat="-21.13604" lon="55.46669">
        <ele>1181</ele>
        <time>2013-01-28T07:03:01Z</time>
      </trkpt>
      <trkpt lat="-21.13611" lon="55.46681">
        <ele>1181</ele>
        <time>2013-01-28T07:03:11Z</time>
      </trkpt>
      <trkpt lat="-21.13616" lon="55.46693">
        <ele>1180</ele>
        <time>2013-01-28T07:03:21Z</time>
      </trkpt>
      <trkpt lat="-21.13623" lon="55.46703">
        <ele>1177</ele>
        <time>2013-01-28T07:03:31Z</time>
      </trkpt>
      <trkpt lat="-21.13635" lon="55.46697">
        <ele>1176</ele>
        <time>2013-01-28T07:03:41Z</time>
      </trkpt>
      <trkpt lat="-21.13645" lon="55.46689">
        <ele>1175</ele>
        <time>2013-01-28T07:03:51Z</time>
      </trkpt>
      <trkpt lat="-21.13654" lon="55.46679">
        <ele>1175</ele>
        <time>2013-01-28T07:04:01Z</time>
      </trkpt>
      <trkpt lat="-21.13663" lon="55.46667">
        <ele>1174</ele>
        <time>2013-01-28T07:04:11Z</time>
      </trkpt>
      <trkpt lat="-21.13675" lon="55.46658">
        <ele>1174</ele>
        <time>2013-01-28T07:04:21Z</time>
      </trkpt>
      <trkpt lat="-21.13687" lon="55.4665">
        <ele>1175</ele>
        <time>2013-01-28T07:04:31Z</time>
      </trkpt>
      <trkpt lat="-21.13697" lon="55.46645">
        <ele>1177</ele>
        <time>2013-01-28T07:04:41Z</time>
      </trkpt>
      <trkpt lat="-21.13709" lon="55.46641">
        <ele>1178</ele>
        <time>2013-01-28T07:04:51Z</time>
      </trkpt>
      <trkpt lat="-21.13722" lon="55.46634">
        <ele>1180</ele>
        <time>2013-01-28T07:05:01Z</time>
      </trkpt>
      <trkpt lat="-21.13734" lon="55.46627">
        <ele>1181</ele>
        <time>2013-01-28T07:05:11Z</time>
      </trkpt>
      <trkpt lat="-21.13741" lon="55.46633">
        <ele>1181</ele>
        <time>2013-01-28T07:05:21Z</time>
      </trkpt>
      <trkpt lat="-21.13737" lon="55.4664">
        <ele>1182</ele>
        <time>2013-01-28T07:05:31Z</time>
      </trkpt>
      <trkpt lat="-21.13733" lon="55.46646">
        <ele>1185</ele>
        <time>2013-01-28T07:05:42Z</time>
      </trkpt>
      <trkpt lat="-21.13738" lon="55.46655">
        <ele>1187</ele>
        <time>2013-01-28T07:05:52Z</time>
      </trkpt>
      <trkpt lat="-21.13747" lon="55.46661">
        <ele>1188</ele>
        <time>2013-01-28T07:06:02Z</time>
      </trkpt>
      <trkpt lat="-21.13758" lon="55.46665">
        <ele>1190</ele>
        <time>2013-01-28T07:06:12Z</time>
      </trkpt>
      <trkpt lat="-21.13769" lon="55.46668">
        <ele>1192</ele>
        <time>2013-01-28T07:06:22Z</time>
      </trkpt>
      <trkpt lat="-21.13778" lon="55.46672">
        <ele>1194</ele>
        <time>2013-01-28T07:06:32Z</time>
      </trkpt>
      <trkpt lat="-21.13786" lon="55.46681">
        <ele>1196</ele>
        <time>2013-01-28T07:06:42Z</time>
      </trkpt>
      <trkpt lat="-21.1379" lon="55.46694">
        <ele>1198</ele>
        <time>2013-01-28T07:06:52Z</time>
      </trkpt>
      <trkpt lat="-21.13789" lon="55.46707">
        <ele>1199</ele>
        <time>2013-01-28T07:07:02Z</time>
      </trkpt>
      <trkpt lat="-21.13789" lon="55.46721">
        <ele>1202</ele>
        <time>2013-01-28T07:07:13Z</time>
      </trkpt>
      <trkpt lat="-21.13792" lon="55.46733">
        <ele>1203</ele>
        <time>2013-01-28T07:07:23Z</time>
      </trkpt>
      <trkpt lat="-21.13799" lon="55.46745">
        <ele>1205</ele>
        <time>2013-01-28T07:07:33Z</time>
      </trkpt>
      <trkpt lat="-21.13807" lon="55.46754">
        <ele>1205</ele>
        <time>2013-01-28T07:07:43Z</time>
      </trkpt>
      <trkpt lat="-21.13814" lon="55.46759">
        <ele>1205</ele>
        <time>2013-01-28T07:07:53Z</time>
      </trkpt>
      <trkpt lat="-21.13815" lon="55.4676">
        <ele>1205</ele>
        <time>2013-01-28T07:08:03Z</time>
      </trkpt>
      <trkpt lat="-21.13816" lon="55.46763">
        <ele>1206</ele>
        <time>2013-01-28T07:08:13Z</time>
      </trkpt>
      <trkpt lat="-21.13816" lon="55.46766">
        <ele>1207</ele>
        <time>2013-01-28T07:08:23Z</time>
      </trkpt>
      <trkpt lat="-21.13818" lon="55.46772">
        <ele>1207</ele>
        <time>2013-01-28T07:08:33Z</time>
      </trkpt>
      <trkpt lat="-21.13817" lon="55.46779">
        <ele>1209</ele>
        <time>2013-01-28T07:08:43Z</time>
      </trkpt>
      <trkpt lat="-21.13815" lon="55.4679">
        <ele>1210</ele>
        <time>2013-01-28T07:08:53Z</time>
      </trkpt>
      <trkpt lat="-21.13819" lon="55.46803">
        <ele>1212</ele>
        <time>2013-01-28T07:09:03Z</time>
      </trkpt>
      <trkpt lat="-21.13826" lon="55.46814">
        <ele>1213</ele>
        <time>2013-01-28T07:09:13Z</time>
      </trkpt>
      <trkpt lat="-21.13834" lon="55.46823">
        <ele>1214</ele>
        <time>2013-01-28T07:09:24Z</time>
      </trkpt>
      <trkpt lat="-21.13841" lon="55.46833">
        <ele>1215</ele>
        <time>2013-01-28T07:09:34Z</time>
      </trkpt>
      <trkpt lat="-21.13845" lon="55.46846">
        <ele>1216</ele>
        <time>2013-01-28T07:09:44Z</time>
      </trkpt>
      <trkpt lat="-21.13845" lon="55.46859">
        <ele>1218</ele>
        <time>2013-01-28T07:09:54Z</time>
      </trkpt>
      <trkpt lat="-21.1384" lon="55.46867">
        <ele>1218</ele>
        <time>2013-01-28T07:10:04Z</time>
      </trkpt>
      <trkpt lat="-21.13838" lon="55.4687">
        <ele>1218</ele>
        <time>2013-01-28T07:10:14Z</time>
      </trkpt>
      <trkpt lat="-21.13836" lon="55.46873">
        <ele>1218</ele>
        <time>2013-01-28T07:10:24Z</time>
      </trkpt>
      <trkpt lat="-21.13829" lon="55.46882">
        <ele>1219</ele>
        <time>2013-01-28T07:10:34Z</time>
      </trkpt>
      <trkpt lat="-21.1382" lon="55.4689">
        <ele>1220</ele>
        <time>2013-01-28T07:10:44Z</time>
      </trkpt>
      <trkpt lat="-21.13811" lon="55.46899">
        <ele>1220</ele>
        <time>2013-01-28T07:10:54Z</time>
      </trkpt>
      <trkpt lat="-21.138" lon="55.46906">
        <ele>1221</ele>
        <time>2013-01-28T07:11:04Z</time>
      </trkpt>
      <trkpt lat="-21.13789" lon="55.46909">
        <ele>1222</ele>
        <time>2013-01-28T07:11:14Z</time>
      </trkpt>
      <trkpt lat="-21.13779" lon="55.46909">
        <ele>1223</ele>
        <time>2013-01-28T07:11:24Z</time>
      </trkpt>
      <trkpt lat="-21.13765" lon="55.46914">
        <ele>1224</ele>
        <time>2013-01-28T07:11:34Z</time>
      </trkpt>
      <trkpt lat="-21.13753" lon="55.4692">
        <ele>1224</ele>
        <time>2013-01-28T07:11:44Z</time>
      </trkpt>
      <trkpt lat="-21.13744" lon="55.46929">
        <ele>1226</ele>
        <time>2013-01-28T07:11:55Z</time>
      </trkpt>
      <trkpt lat="-21.13734" lon="55.46936">
        <ele>1226</ele>
        <time>2013-01-28T07:12:05Z</time>
      </trkpt>
      <trkpt lat="-21.13725" lon="55.4694">
        <ele>1226</ele>
        <time>2013-01-28T07:12:15Z</time>
      </trkpt>
      <trkpt lat="-21.13714" lon="55.46947">
        <ele>1227</ele>
        <time>2013-01-28T07:12:25Z</time>
      </trkpt>
      <trkpt lat="-21.13706" lon="55.46952">
        <ele>1227</ele>
        <time>2013-01-28T07:12:35Z</time>
      </trkpt>
      <trkpt lat="-21.13695" lon="55.4696">
        <ele>1227</ele>
        <time>2013-01-28T07:12:45Z</time>
      </trkpt>
      <trkpt lat="-21.13684" lon="55.46966">
        <ele>1227</ele>
        <time>2013-01-28T07:12:55Z</time>
      </trkpt>
      <trkpt lat="-21.13671" lon="55.4697">
        <ele>1227</ele>
        <time>2013-01-28T07:13:05Z</time>
      </trkpt>
      <trkpt lat="-21.13658" lon="55.46972">
        <ele>1227</ele>
        <time>2013-01-28T07:13:15Z</time>
      </trkpt>
      <trkpt lat="-21.13643" lon="55.4697">
        <ele>1226</ele>
        <time>2013-01-28T07:13:25Z</time>
      </trkpt>
      <trkpt lat="-21.13634" lon="55.46972">
        <ele>1226</ele>
        <time>2013-01-28T07:13:35Z</time>
      </trkpt>
      <trkpt lat="-21.13625" lon="55.46973">
        <ele>1225</ele>
        <time>2013-01-28T07:13:45Z</time>
      </trkpt>
      <trkpt lat="-21.13622" lon="55.46977">
        <ele>1225</ele>
        <time>2013-01-28T07:13:55Z</time>
      </trkpt>
      <trkpt lat="-21.1362" lon="55.46981">
        <ele>1225</ele>
        <time>2013-01-28T07:14:05Z</time>
      </trkpt>
      <trkpt lat="-21.13616" lon="55.46987">
        <ele>1225</ele>
        <time>2013-01-28T07:14:15Z</time>
      </trkpt>
      <trkpt lat="-21.13604" lon="55.46994">
        <ele>1225</ele>
        <time>2013-01-28T07:14:25Z</time>
      </trkpt>
      <trkpt lat="-21.13595" lon="55.47001">
        <ele>1224</ele>
        <time>2013-01-28T07:14:35Z</time>
      </trkpt>
      <trkpt lat="-21.13584" lon="55.47007">
        <ele>1223</ele>
        <time>2013-01-28T07:14:45Z</time>
      </trkpt>
      <trkpt lat="-21.13573" lon="55.47013">
        <ele>1222</ele>
        <time>2013-01-28T07:14:56Z</time>
      </trkpt>
      <trkpt lat="-21.13562" lon="55.4702">
        <ele>1221</ele>
        <time>2013-01-28T07:15:06Z</time>
      </trkpt>
      <trkpt lat="-21.1355" lon="55.47029">
        <ele>1221</ele>
        <time>2013-01-28T07:15:16Z</time>
      </trkpt>
      <trkpt lat="-21.13539" lon="55.47036">
        <ele>1220</ele>
        <time>2013-01-28T07:15:26Z</time>
      </trkpt>
      <trkpt lat="-21.13529" lon="55.47046">
        <ele>1220</ele>
        <time>2013-01-28T07:15:36Z</time>
      </trkpt>
      <trkpt lat="-21.13519" lon="55.47055">
        <ele>1220</ele>
        <time>2013-01-28T07:15:46Z</time>
      </trkpt>
      <trkpt lat="-21.13513" lon="55.47064">
        <ele>1220</ele>
        <time>2013-01-28T07:15:56Z</time>
      </trkpt>
      <trkpt lat="-21.13503" lon="55.47071">
        <ele>1220</ele>
        <time>2013-01-28T07:16:06Z</time>
      </trkpt>
      <trkpt lat="-21.13497" lon="55.47075">
        <ele>1220</ele>
        <time>2013-01-28T07:16:16Z</time>
      </trkpt>
      <trkpt lat="-21.13494" lon="55.47078">
        <ele>1220</ele>
        <time>2013-01-28T07:16:26Z</time>
      </trkpt>
      <trkpt lat="-21.13494" lon="55.47079">
        <ele>1219</ele>
        <time>2013-01-28T07:16:36Z</time>
      </trkpt>
      <trkpt lat="-21.13486" lon="55.47087">
        <ele>1220</ele>
        <time>2013-01-28T07:16:46Z</time>
      </trkpt>
      <trkpt lat="-21.13476" lon="55.47094">
        <ele>1218</ele>
        <time>2013-01-28T07:16:56Z</time>
      </trkpt>
      <trkpt lat="-21.1347" lon="55.47101">
        <ele>1218</ele>
        <time>2013-01-28T07:17:06Z</time>
      </trkpt>
      <trkpt lat="-21.13467" lon="55.471">
        <ele>1218</ele>
        <time>2013-01-28T07:17:16Z</time>
      </trkpt>
      <trkpt lat="-21.13462" lon="55.47099">
        <ele>1218</ele>
        <time>2013-01-28T07:17:26Z</time>
      </trkpt>
      <trkpt lat="-21.13462" lon="55.47099">
        <ele>1218</ele>
        <time>2013-01-28T07:17:37Z</time>
      </trkpt>
      <trkpt lat="-21.13458" lon="55.47107">
        <ele>1218</ele>
        <time>2013-01-28T07:17:47Z</time>
      </trkpt>
      <trkpt lat="-21.13455" lon="55.47116">
        <ele>1218</ele>
        <time>2013-01-28T07:17:57Z</time>
      </trkpt>
      <trkpt lat="-21.1346" lon="55.47125">
        <ele>1218</ele>
        <time>2013-01-28T07:18:07Z</time>
      </trkpt>
      <trkpt lat="-21.13467" lon="55.47134">
        <ele>1218</ele>
        <time>2013-01-28T07:18:17Z</time>
      </trkpt>
      <trkpt lat="-21.13474" lon="55.47142">
        <ele>1219</ele>
        <time>2013-01-28T07:18:27Z</time>
      </trkpt>
      <trkpt lat="-21.13481" lon="55.47151">
        <ele>1220</ele>
        <time>2013-01-28T07:18:37Z</time>
      </trkpt>
      <trkpt lat="-21.13489" lon="55.4716">
        <ele>1221</ele>
        <time>2013-01-28T07:18:47Z</time>
      </trkpt>
      <trkpt lat="-21.13494" lon="55.47163">
        <ele>1221</ele>
        <time>2013-01-28T07:18:57Z</time>
      </trkpt>
      <trkpt lat="-21.13488" lon="55.47162">
        <ele>1221</ele>
        <time>2013-01-28T07:19:05Z</time>
      </trkpt>
    </trkseg>
  </trk>
</gpx>